<?xml version="1.0" encoding="UTF-8" standalone="no" ?>
<gpx xmlns="http://www.topografix.com/GPX/1/1" xmlns:xsi="http://www.w3.org/2001/XMLSchema-instance" xsi:schemaLocation="http://www.topografix.com/GPX/1/1 http://www.topografix.com/GPX/1/1/gpx.xsd" version="1.1" creator="VisuGPX - https://www.visugpx.com">
  <metadata>
    <name>2021-07-13 15:07:10</name>
  </metadata>
  <trk>
    <name><![CDATA[2021-07-13 15:07:10]]></name>
    <extensions>
      <line xmlns="http://www.topografix.com/GPX/gpx_style/0/2">
        <color>0000FF</color>
        <width>4</width>
      </line>
    </extensions>
    <trkseg>
      <trkpt lat="44.94253" lon="3.98227">
        <ele>923.57</ele>
        <time>2021-07-13T09:12:23Z</time>
      </trkpt>
      <trkpt lat="44.94253" lon="3.98227">
        <ele>923.57</ele>
        <time>2021-07-13T09:12:23Z</time>
      </trkpt>
      <trkpt lat="44.94255" lon="3.98228">
        <ele>923.56</ele>
        <time>2021-07-13T09:12:24Z</time>
      </trkpt>
      <trkpt lat="44.94256" lon="3.98226">
        <ele>923.64</ele>
        <time>2021-07-13T09:12:30Z</time>
      </trkpt>
      <trkpt lat="44.94261" lon="3.98217">
        <ele>924.09</ele>
        <time>2021-07-13T09:12:58Z</time>
      </trkpt>
      <trkpt lat="44.94258" lon="3.98216">
        <ele>923.87</ele>
        <time>2021-07-13T09:13:31Z</time>
      </trkpt>
      <trkpt lat="44.9426" lon="3.98214">
        <ele>923.85</ele>
        <time>2021-07-13T09:14:03Z</time>
      </trkpt>
      <trkpt lat="44.94252" lon="3.98206">
        <ele>924.07</ele>
        <time>2021-07-13T09:14:13Z</time>
      </trkpt>
      <trkpt lat="44.9425" lon="3.98202">
        <ele>924.07</ele>
        <time>2021-07-13T09:14:14Z</time>
      </trkpt>
      <trkpt lat="44.94248" lon="3.98199">
        <ele>924.22</ele>
        <time>2021-07-13T09:14:15Z</time>
      </trkpt>
      <trkpt lat="44.94236" lon="3.98163">
        <ele>924.44</ele>
        <time>2021-07-13T09:14:22Z</time>
      </trkpt>
      <trkpt lat="44.94235" lon="3.98157">
        <ele>924.45</ele>
        <time>2021-07-13T09:14:23Z</time>
      </trkpt>
      <trkpt lat="44.9423" lon="3.98124">
        <ele>923.6</ele>
        <time>2021-07-13T09:14:28Z</time>
      </trkpt>
      <trkpt lat="44.94224" lon="3.98087">
        <ele>923.04</ele>
        <time>2021-07-13T09:14:33Z</time>
      </trkpt>
      <trkpt lat="44.94216" lon="3.9806">
        <ele>922.71</ele>
        <time>2021-07-13T09:14:37Z</time>
      </trkpt>
      <trkpt lat="44.94192" lon="3.9801">
        <ele>922.69</ele>
        <time>2021-07-13T09:14:44Z</time>
      </trkpt>
      <trkpt lat="44.94191" lon="3.98001">
        <ele>922.51</ele>
        <time>2021-07-13T09:14:45Z</time>
      </trkpt>
      <trkpt lat="44.94189" lon="3.97992">
        <ele>922.37</ele>
        <time>2021-07-13T09:14:46Z</time>
      </trkpt>
      <trkpt lat="44.94189" lon="3.97982">
        <ele>922.24</ele>
        <time>2021-07-13T09:14:47Z</time>
      </trkpt>
      <trkpt lat="44.94189" lon="3.97973">
        <ele>922.16</ele>
        <time>2021-07-13T09:14:48Z</time>
      </trkpt>
      <trkpt lat="44.94189" lon="3.97964">
        <ele>922.08</ele>
        <time>2021-07-13T09:14:49Z</time>
      </trkpt>
      <trkpt lat="44.9419" lon="3.97926">
        <ele>921.79</ele>
        <time>2021-07-13T09:14:53Z</time>
      </trkpt>
      <trkpt lat="44.94192" lon="3.97917">
        <ele>921.66</ele>
        <time>2021-07-13T09:14:54Z</time>
      </trkpt>
      <trkpt lat="44.94194" lon="3.97908">
        <ele>921.51</ele>
        <time>2021-07-13T09:14:55Z</time>
      </trkpt>
      <trkpt lat="44.94197" lon="3.97899">
        <ele>921.38</ele>
        <time>2021-07-13T09:14:56Z</time>
      </trkpt>
      <trkpt lat="44.942" lon="3.9789">
        <ele>921.28</ele>
        <time>2021-07-13T09:14:57Z</time>
      </trkpt>
      <trkpt lat="44.94204" lon="3.97882">
        <ele>921.2</ele>
        <time>2021-07-13T09:14:58Z</time>
      </trkpt>
      <trkpt lat="44.94228" lon="3.97832">
        <ele>921.15</ele>
        <time>2021-07-13T09:15:04Z</time>
      </trkpt>
      <trkpt lat="44.94231" lon="3.97822">
        <ele>921.13</ele>
        <time>2021-07-13T09:15:05Z</time>
      </trkpt>
      <trkpt lat="44.94234" lon="3.97812">
        <ele>921.08</ele>
        <time>2021-07-13T09:15:06Z</time>
      </trkpt>
      <trkpt lat="44.94236" lon="3.97801">
        <ele>921</ele>
        <time>2021-07-13T09:15:07Z</time>
      </trkpt>
      <trkpt lat="44.94237" lon="3.9779">
        <ele>920.91</ele>
        <time>2021-07-13T09:15:08Z</time>
      </trkpt>
      <trkpt lat="44.94237" lon="3.97779">
        <ele>920.81</ele>
        <time>2021-07-13T09:15:09Z</time>
      </trkpt>
      <trkpt lat="44.94237" lon="3.97768">
        <ele>920.72</ele>
        <time>2021-07-13T09:15:10Z</time>
      </trkpt>
      <trkpt lat="44.94235" lon="3.97623">
        <ele>918.44</ele>
        <time>2021-07-13T09:15:23Z</time>
      </trkpt>
      <trkpt lat="44.94233" lon="3.97537">
        <ele>916.71</ele>
        <time>2021-07-13T09:15:31Z</time>
      </trkpt>
      <trkpt lat="44.94227" lon="3.97471">
        <ele>915.68</ele>
        <time>2021-07-13T09:15:37Z</time>
      </trkpt>
      <trkpt lat="44.94228" lon="3.97459">
        <ele>915.49</ele>
        <time>2021-07-13T09:15:38Z</time>
      </trkpt>
      <trkpt lat="44.94231" lon="3.97449">
        <ele>915.31</ele>
        <time>2021-07-13T09:15:39Z</time>
      </trkpt>
      <trkpt lat="44.94236" lon="3.97427">
        <ele>914.99</ele>
        <time>2021-07-13T09:15:41Z</time>
      </trkpt>
      <trkpt lat="44.94237" lon="3.97417">
        <ele>914.91</ele>
        <time>2021-07-13T09:15:42Z</time>
      </trkpt>
      <trkpt lat="44.94238" lon="3.97405">
        <ele>914.89</ele>
        <time>2021-07-13T09:15:43Z</time>
      </trkpt>
      <trkpt lat="44.94237" lon="3.97394">
        <ele>914.92</ele>
        <time>2021-07-13T09:15:44Z</time>
      </trkpt>
      <trkpt lat="44.94236" lon="3.97384">
        <ele>914.91</ele>
        <time>2021-07-13T09:15:45Z</time>
      </trkpt>
      <trkpt lat="44.94234" lon="3.97373">
        <ele>914.89</ele>
        <time>2021-07-13T09:15:46Z</time>
      </trkpt>
      <trkpt lat="44.94225" lon="3.97333">
        <ele>914.39</ele>
        <time>2021-07-13T09:15:50Z</time>
      </trkpt>
      <trkpt lat="44.94219" lon="3.97314">
        <ele>914.02</ele>
        <time>2021-07-13T09:15:52Z</time>
      </trkpt>
      <trkpt lat="44.94218" lon="3.97304">
        <ele>913.84</ele>
        <time>2021-07-13T09:15:53Z</time>
      </trkpt>
      <trkpt lat="44.94218" lon="3.97294">
        <ele>913.63</ele>
        <time>2021-07-13T09:15:54Z</time>
      </trkpt>
      <trkpt lat="44.94219" lon="3.97284">
        <ele>913.15</ele>
        <time>2021-07-13T09:15:55Z</time>
      </trkpt>
      <trkpt lat="44.94222" lon="3.97274">
        <ele>913.15</ele>
        <time>2021-07-13T09:15:56Z</time>
      </trkpt>
      <trkpt lat="44.94225" lon="3.97264">
        <ele>912.9</ele>
        <time>2021-07-13T09:15:57Z</time>
      </trkpt>
      <trkpt lat="44.9423" lon="3.97245">
        <ele>912.21</ele>
        <time>2021-07-13T09:15:59Z</time>
      </trkpt>
      <trkpt lat="44.94231" lon="3.97235">
        <ele>912.03</ele>
        <time>2021-07-13T09:16:00Z</time>
      </trkpt>
      <trkpt lat="44.94233" lon="3.97215">
        <ele>911.7</ele>
        <time>2021-07-13T09:16:02Z</time>
      </trkpt>
      <trkpt lat="44.94235" lon="3.97205">
        <ele>911.55</ele>
        <time>2021-07-13T09:16:03Z</time>
      </trkpt>
      <trkpt lat="44.94238" lon="3.97196">
        <ele>911.41</ele>
        <time>2021-07-13T09:16:04Z</time>
      </trkpt>
      <trkpt lat="44.94241" lon="3.97187">
        <ele>911.3</ele>
        <time>2021-07-13T09:16:05Z</time>
      </trkpt>
      <trkpt lat="44.94246" lon="3.97179">
        <ele>911.18</ele>
        <time>2021-07-13T09:16:06Z</time>
      </trkpt>
      <trkpt lat="44.94261" lon="3.97156">
        <ele>910.75</ele>
        <time>2021-07-13T09:16:09Z</time>
      </trkpt>
      <trkpt lat="44.94264" lon="3.97148">
        <ele>910.61</ele>
        <time>2021-07-13T09:16:10Z</time>
      </trkpt>
      <trkpt lat="44.94267" lon="3.97138">
        <ele>910.5</ele>
        <time>2021-07-13T09:16:11Z</time>
      </trkpt>
      <trkpt lat="44.94268" lon="3.97128">
        <ele>910.39</ele>
        <time>2021-07-13T09:16:12Z</time>
      </trkpt>
      <trkpt lat="44.94267" lon="3.97118">
        <ele>910.3</ele>
        <time>2021-07-13T09:16:13Z</time>
      </trkpt>
      <trkpt lat="44.94266" lon="3.97108">
        <ele>910.19</ele>
        <time>2021-07-13T09:16:14Z</time>
      </trkpt>
      <trkpt lat="44.94265" lon="3.97098">
        <ele>910.08</ele>
        <time>2021-07-13T09:16:15Z</time>
      </trkpt>
      <trkpt lat="44.94264" lon="3.97088">
        <ele>909.93</ele>
        <time>2021-07-13T09:16:16Z</time>
      </trkpt>
      <trkpt lat="44.94264" lon="3.97079">
        <ele>909.77</ele>
        <time>2021-07-13T09:16:17Z</time>
      </trkpt>
      <trkpt lat="44.94265" lon="3.97069">
        <ele>909.63</ele>
        <time>2021-07-13T09:16:18Z</time>
      </trkpt>
      <trkpt lat="44.94266" lon="3.9706">
        <ele>909.51</ele>
        <time>2021-07-13T09:16:19Z</time>
      </trkpt>
      <trkpt lat="44.94268" lon="3.97051">
        <ele>909.38</ele>
        <time>2021-07-13T09:16:20Z</time>
      </trkpt>
      <trkpt lat="44.94271" lon="3.97022">
        <ele>908.93</ele>
        <time>2021-07-13T09:16:23Z</time>
      </trkpt>
      <trkpt lat="44.94268" lon="3.96948">
        <ele>908.94</ele>
        <time>2021-07-13T09:16:31Z</time>
      </trkpt>
      <trkpt lat="44.94268" lon="3.9694">
        <ele>908.98</ele>
        <time>2021-07-13T09:16:32Z</time>
      </trkpt>
      <trkpt lat="44.94266" lon="3.96933">
        <ele>909.02</ele>
        <time>2021-07-13T09:16:33Z</time>
      </trkpt>
      <trkpt lat="44.94264" lon="3.96925">
        <ele>909.09</ele>
        <time>2021-07-13T09:16:34Z</time>
      </trkpt>
      <trkpt lat="44.94261" lon="3.96918">
        <ele>909.18</ele>
        <time>2021-07-13T09:16:35Z</time>
      </trkpt>
      <trkpt lat="44.94256" lon="3.96911">
        <ele>909.25</ele>
        <time>2021-07-13T09:16:36Z</time>
      </trkpt>
      <trkpt lat="44.94251" lon="3.96905">
        <ele>909.33</ele>
        <time>2021-07-13T09:16:37Z</time>
      </trkpt>
      <trkpt lat="44.94245" lon="3.96899">
        <ele>909.39</ele>
        <time>2021-07-13T09:16:38Z</time>
      </trkpt>
      <trkpt lat="44.94231" lon="3.96882">
        <ele>909.47</ele>
        <time>2021-07-13T09:16:41Z</time>
      </trkpt>
      <trkpt lat="44.94228" lon="3.96875">
        <ele>909.48</ele>
        <time>2021-07-13T09:16:42Z</time>
      </trkpt>
      <trkpt lat="44.94225" lon="3.96868">
        <ele>909.51</ele>
        <time>2021-07-13T09:16:43Z</time>
      </trkpt>
      <trkpt lat="44.94223" lon="3.96861">
        <ele>909.57</ele>
        <time>2021-07-13T09:16:44Z</time>
      </trkpt>
      <trkpt lat="44.94221" lon="3.96853">
        <ele>909.62</ele>
        <time>2021-07-13T09:16:45Z</time>
      </trkpt>
      <trkpt lat="44.9422" lon="3.96845">
        <ele>909.65</ele>
        <time>2021-07-13T09:16:46Z</time>
      </trkpt>
      <trkpt lat="44.94219" lon="3.96837">
        <ele>909.66</ele>
        <time>2021-07-13T09:16:47Z</time>
      </trkpt>
      <trkpt lat="44.94214" lon="3.96805">
        <ele>909.74</ele>
        <time>2021-07-13T09:16:51Z</time>
      </trkpt>
      <trkpt lat="44.94172" lon="3.96706">
        <ele>910.78</ele>
        <time>2021-07-13T09:17:06Z</time>
      </trkpt>
      <trkpt lat="44.94135" lon="3.96633">
        <ele>911.17</ele>
        <time>2021-07-13T09:17:18Z</time>
      </trkpt>
      <trkpt lat="44.94133" lon="3.96626">
        <ele>911.21</ele>
        <time>2021-07-13T09:17:19Z</time>
      </trkpt>
      <trkpt lat="44.94132" lon="3.96619">
        <ele>911.23</ele>
        <time>2021-07-13T09:17:20Z</time>
      </trkpt>
      <trkpt lat="44.94131" lon="3.96611">
        <ele>911.24</ele>
        <time>2021-07-13T09:17:21Z</time>
      </trkpt>
      <trkpt lat="44.9413" lon="3.96604">
        <ele>911.24</ele>
        <time>2021-07-13T09:17:22Z</time>
      </trkpt>
      <trkpt lat="44.94131" lon="3.96597">
        <ele>911.23</ele>
        <time>2021-07-13T09:17:23Z</time>
      </trkpt>
      <trkpt lat="44.94131" lon="3.96575">
        <ele>911.23</ele>
        <time>2021-07-13T09:17:26Z</time>
      </trkpt>
      <trkpt lat="44.94131" lon="3.96568">
        <ele>911.27</ele>
        <time>2021-07-13T09:17:27Z</time>
      </trkpt>
      <trkpt lat="44.9413" lon="3.96562">
        <ele>911.31</ele>
        <time>2021-07-13T09:17:28Z</time>
      </trkpt>
      <trkpt lat="44.94126" lon="3.96548">
        <ele>911.48</ele>
        <time>2021-07-13T09:17:30Z</time>
      </trkpt>
      <trkpt lat="44.94124" lon="3.96542">
        <ele>911.58</ele>
        <time>2021-07-13T09:17:31Z</time>
      </trkpt>
      <trkpt lat="44.94077" lon="3.96444">
        <ele>913.37</ele>
        <time>2021-07-13T09:17:48Z</time>
      </trkpt>
      <trkpt lat="44.94035" lon="3.96356">
        <ele>914.37</ele>
        <time>2021-07-13T09:18:04Z</time>
      </trkpt>
      <trkpt lat="44.94031" lon="3.96352">
        <ele>914.34</ele>
        <time>2021-07-13T09:18:05Z</time>
      </trkpt>
      <trkpt lat="44.94012" lon="3.96334">
        <ele>914.46</ele>
        <time>2021-07-13T09:18:10Z</time>
      </trkpt>
      <trkpt lat="44.94009" lon="3.9633">
        <ele>914.63</ele>
        <time>2021-07-13T09:18:11Z</time>
      </trkpt>
      <trkpt lat="44.94006" lon="3.96325">
        <ele>914.8</ele>
        <time>2021-07-13T09:18:12Z</time>
      </trkpt>
      <trkpt lat="44.94" lon="3.96315">
        <ele>915.06</ele>
        <time>2021-07-13T09:18:14Z</time>
      </trkpt>
      <trkpt lat="44.93998" lon="3.96309">
        <ele>915.11</ele>
        <time>2021-07-13T09:18:15Z</time>
      </trkpt>
      <trkpt lat="44.93996" lon="3.96303">
        <ele>915.09</ele>
        <time>2021-07-13T09:18:16Z</time>
      </trkpt>
      <trkpt lat="44.93994" lon="3.96297">
        <ele>915.01</ele>
        <time>2021-07-13T09:18:17Z</time>
      </trkpt>
      <trkpt lat="44.93993" lon="3.96291">
        <ele>914.89</ele>
        <time>2021-07-13T09:18:18Z</time>
      </trkpt>
      <trkpt lat="44.9396" lon="3.96181">
        <ele>915.23</ele>
        <time>2021-07-13T09:18:36Z</time>
      </trkpt>
      <trkpt lat="44.93959" lon="3.96174">
        <ele>915.36</ele>
        <time>2021-07-13T09:18:37Z</time>
      </trkpt>
      <trkpt lat="44.93958" lon="3.96168">
        <ele>915.49</ele>
        <time>2021-07-13T09:18:38Z</time>
      </trkpt>
      <trkpt lat="44.93958" lon="3.96162">
        <ele>915.63</ele>
        <time>2021-07-13T09:18:39Z</time>
      </trkpt>
      <trkpt lat="44.93958" lon="3.96155">
        <ele>915.73</ele>
        <time>2021-07-13T09:18:40Z</time>
      </trkpt>
      <trkpt lat="44.93957" lon="3.96051">
        <ele>917.22</ele>
        <time>2021-07-13T09:18:56Z</time>
      </trkpt>
      <trkpt lat="44.93952" lon="3.96011">
        <ele>917.46</ele>
        <time>2021-07-13T09:19:02Z</time>
      </trkpt>
      <trkpt lat="44.93953" lon="3.96005">
        <ele>917.49</ele>
        <time>2021-07-13T09:19:03Z</time>
      </trkpt>
      <trkpt lat="44.93956" lon="3.95986">
        <ele>917.57</ele>
        <time>2021-07-13T09:19:06Z</time>
      </trkpt>
      <trkpt lat="44.93958" lon="3.95981">
        <ele>917.61</ele>
        <time>2021-07-13T09:19:07Z</time>
      </trkpt>
      <trkpt lat="44.93993" lon="3.95857">
        <ele>918.86</ele>
        <time>2021-07-13T09:19:28Z</time>
      </trkpt>
      <trkpt lat="44.94018" lon="3.95804">
        <ele>919.32</ele>
        <time>2021-07-13T09:19:37Z</time>
      </trkpt>
      <trkpt lat="44.94055" lon="3.95662">
        <ele>920.1</ele>
        <time>2021-07-13T09:19:58Z</time>
      </trkpt>
      <trkpt lat="44.94057" lon="3.95648">
        <ele>920.02</ele>
        <time>2021-07-13T09:20:00Z</time>
      </trkpt>
      <trkpt lat="44.94057" lon="3.9564">
        <ele>920.03</ele>
        <time>2021-07-13T09:20:01Z</time>
      </trkpt>
      <trkpt lat="44.94057" lon="3.95633">
        <ele>920.05</ele>
        <time>2021-07-13T09:20:02Z</time>
      </trkpt>
      <trkpt lat="44.94057" lon="3.95625">
        <ele>920.07</ele>
        <time>2021-07-13T09:20:03Z</time>
      </trkpt>
      <trkpt lat="44.94056" lon="3.95618">
        <ele>920.08</ele>
        <time>2021-07-13T09:20:04Z</time>
      </trkpt>
      <trkpt lat="44.94055" lon="3.95611">
        <ele>920.04</ele>
        <time>2021-07-13T09:20:05Z</time>
      </trkpt>
      <trkpt lat="44.9405" lon="3.95582">
        <ele>919.76</ele>
        <time>2021-07-13T09:20:09Z</time>
      </trkpt>
      <trkpt lat="44.9405" lon="3.95574">
        <ele>919.84</ele>
        <time>2021-07-13T09:20:10Z</time>
      </trkpt>
      <trkpt lat="44.94051" lon="3.95567">
        <ele>919.95</ele>
        <time>2021-07-13T09:20:11Z</time>
      </trkpt>
      <trkpt lat="44.94053" lon="3.95552">
        <ele>920.09</ele>
        <time>2021-07-13T09:20:13Z</time>
      </trkpt>
      <trkpt lat="44.94055" lon="3.95545">
        <ele>920.1</ele>
        <time>2021-07-13T09:20:14Z</time>
      </trkpt>
      <trkpt lat="44.94072" lon="3.95488">
        <ele>919.11</ele>
        <time>2021-07-13T09:20:21Z</time>
      </trkpt>
      <trkpt lat="44.94076" lon="3.9548">
        <ele>918.8</ele>
        <time>2021-07-13T09:20:22Z</time>
      </trkpt>
      <trkpt lat="44.9408" lon="3.95472">
        <ele>918.48</ele>
        <time>2021-07-13T09:20:23Z</time>
      </trkpt>
      <trkpt lat="44.94085" lon="3.95464">
        <ele>918.13</ele>
        <time>2021-07-13T09:20:24Z</time>
      </trkpt>
      <trkpt lat="44.9409" lon="3.95457">
        <ele>917.76</ele>
        <time>2021-07-13T09:20:25Z</time>
      </trkpt>
      <trkpt lat="44.9415" lon="3.95394">
        <ele>914.63</ele>
        <time>2021-07-13T09:20:35Z</time>
      </trkpt>
      <trkpt lat="44.9423" lon="3.95359">
        <ele>911.59</ele>
        <time>2021-07-13T09:20:45Z</time>
      </trkpt>
      <trkpt lat="44.94246" lon="3.9535">
        <ele>910.93</ele>
        <time>2021-07-13T09:20:47Z</time>
      </trkpt>
      <trkpt lat="44.94254" lon="3.95343">
        <ele>910.61</ele>
        <time>2021-07-13T09:20:48Z</time>
      </trkpt>
      <trkpt lat="44.9426" lon="3.95335">
        <ele>910.3</ele>
        <time>2021-07-13T09:20:49Z</time>
      </trkpt>
      <trkpt lat="44.94281" lon="3.95312">
        <ele>909.31</ele>
        <time>2021-07-13T09:20:52Z</time>
      </trkpt>
      <trkpt lat="44.94288" lon="3.95305">
        <ele>908.95</ele>
        <time>2021-07-13T09:20:53Z</time>
      </trkpt>
      <trkpt lat="44.94296" lon="3.953">
        <ele>908.55</ele>
        <time>2021-07-13T09:20:54Z</time>
      </trkpt>
      <trkpt lat="44.94305" lon="3.95296">
        <ele>907.75</ele>
        <time>2021-07-13T09:20:55Z</time>
      </trkpt>
      <trkpt lat="44.94314" lon="3.95293">
        <ele>907.35</ele>
        <time>2021-07-13T09:20:56Z</time>
      </trkpt>
      <trkpt lat="44.94323" lon="3.95291">
        <ele>906.94</ele>
        <time>2021-07-13T09:20:57Z</time>
      </trkpt>
      <trkpt lat="44.94332" lon="3.95288">
        <ele>906.55</ele>
        <time>2021-07-13T09:20:58Z</time>
      </trkpt>
      <trkpt lat="44.9434" lon="3.95284">
        <ele>906.17</ele>
        <time>2021-07-13T09:20:59Z</time>
      </trkpt>
      <trkpt lat="44.94349" lon="3.95279">
        <ele>905.76</ele>
        <time>2021-07-13T09:21:00Z</time>
      </trkpt>
      <trkpt lat="44.94357" lon="3.95273">
        <ele>905.32</ele>
        <time>2021-07-13T09:21:01Z</time>
      </trkpt>
      <trkpt lat="44.94365" lon="3.95267">
        <ele>904.89</ele>
        <time>2021-07-13T09:21:02Z</time>
      </trkpt>
      <trkpt lat="44.94396" lon="3.95237">
        <ele>903.65</ele>
        <time>2021-07-13T09:21:06Z</time>
      </trkpt>
      <trkpt lat="44.94421" lon="3.952">
        <ele>902.47</ele>
        <time>2021-07-13T09:21:10Z</time>
      </trkpt>
      <trkpt lat="44.94429" lon="3.95194">
        <ele>902.14</ele>
        <time>2021-07-13T09:21:11Z</time>
      </trkpt>
      <trkpt lat="44.94437" lon="3.9519">
        <ele>901.79</ele>
        <time>2021-07-13T09:21:12Z</time>
      </trkpt>
      <trkpt lat="44.94446" lon="3.95186">
        <ele>901.34</ele>
        <time>2021-07-13T09:21:13Z</time>
      </trkpt>
      <trkpt lat="44.94454" lon="3.95182">
        <ele>900.79</ele>
        <time>2021-07-13T09:21:14Z</time>
      </trkpt>
      <trkpt lat="44.94509" lon="3.95149">
        <ele>897.5</ele>
        <time>2021-07-13T09:21:21Z</time>
      </trkpt>
      <trkpt lat="44.9461" lon="3.95104">
        <ele>894.4</ele>
        <time>2021-07-13T09:21:33Z</time>
      </trkpt>
      <trkpt lat="44.94618" lon="3.951">
        <ele>894.16</ele>
        <time>2021-07-13T09:21:34Z</time>
      </trkpt>
      <trkpt lat="44.94626" lon="3.95094">
        <ele>893.91</ele>
        <time>2021-07-13T09:21:35Z</time>
      </trkpt>
      <trkpt lat="44.94634" lon="3.95086">
        <ele>893.69</ele>
        <time>2021-07-13T09:21:36Z</time>
      </trkpt>
      <trkpt lat="44.94642" lon="3.95077">
        <ele>893.49</ele>
        <time>2021-07-13T09:21:37Z</time>
      </trkpt>
      <trkpt lat="44.94649" lon="3.95068">
        <ele>893.29</ele>
        <time>2021-07-13T09:21:38Z</time>
      </trkpt>
      <trkpt lat="44.94671" lon="3.9504">
        <ele>892.56</ele>
        <time>2021-07-13T09:21:41Z</time>
      </trkpt>
      <trkpt lat="44.94677" lon="3.95029">
        <ele>892.12</ele>
        <time>2021-07-13T09:21:42Z</time>
      </trkpt>
      <trkpt lat="44.94681" lon="3.95017">
        <ele>891.65</ele>
        <time>2021-07-13T09:21:43Z</time>
      </trkpt>
      <trkpt lat="44.94684" lon="3.95004">
        <ele>891.13</ele>
        <time>2021-07-13T09:21:44Z</time>
      </trkpt>
      <trkpt lat="44.94687" lon="3.94991">
        <ele>890.56</ele>
        <time>2021-07-13T09:21:45Z</time>
      </trkpt>
      <trkpt lat="44.94688" lon="3.94977">
        <ele>890.04</ele>
        <time>2021-07-13T09:21:46Z</time>
      </trkpt>
      <trkpt lat="44.94695" lon="3.94951">
        <ele>888.69</ele>
        <time>2021-07-13T09:21:48Z</time>
      </trkpt>
      <trkpt lat="44.947" lon="3.94939">
        <ele>888.18</ele>
        <time>2021-07-13T09:21:49Z</time>
      </trkpt>
      <trkpt lat="44.94707" lon="3.94929">
        <ele>887.7</ele>
        <time>2021-07-13T09:21:50Z</time>
      </trkpt>
      <trkpt lat="44.94714" lon="3.94921">
        <ele>887.24</ele>
        <time>2021-07-13T09:21:51Z</time>
      </trkpt>
      <trkpt lat="44.94722" lon="3.94914">
        <ele>886.78</ele>
        <time>2021-07-13T09:21:52Z</time>
      </trkpt>
      <trkpt lat="44.9473" lon="3.94908">
        <ele>886.27</ele>
        <time>2021-07-13T09:21:53Z</time>
      </trkpt>
      <trkpt lat="44.94738" lon="3.94902">
        <ele>885.67</ele>
        <time>2021-07-13T09:21:54Z</time>
      </trkpt>
      <trkpt lat="44.94746" lon="3.94896">
        <ele>885.1</ele>
        <time>2021-07-13T09:21:55Z</time>
      </trkpt>
      <trkpt lat="44.94797" lon="3.94855">
        <ele>882.59</ele>
        <time>2021-07-13T09:22:01Z</time>
      </trkpt>
      <trkpt lat="44.94833" lon="3.94838">
        <ele>881.01</ele>
        <time>2021-07-13T09:22:05Z</time>
      </trkpt>
      <trkpt lat="44.94841" lon="3.9483">
        <ele>880.59</ele>
        <time>2021-07-13T09:22:06Z</time>
      </trkpt>
      <trkpt lat="44.94848" lon="3.94821">
        <ele>880.2</ele>
        <time>2021-07-13T09:22:07Z</time>
      </trkpt>
      <trkpt lat="44.94856" lon="3.94813">
        <ele>879.8</ele>
        <time>2021-07-13T09:22:08Z</time>
      </trkpt>
      <trkpt lat="44.94865" lon="3.94806">
        <ele>879.4</ele>
        <time>2021-07-13T09:22:09Z</time>
      </trkpt>
      <trkpt lat="44.94881" lon="3.94793">
        <ele>878.63</ele>
        <time>2021-07-13T09:22:11Z</time>
      </trkpt>
      <trkpt lat="44.94889" lon="3.94788">
        <ele>878.27</ele>
        <time>2021-07-13T09:22:12Z</time>
      </trkpt>
      <trkpt lat="44.94952" lon="3.94756">
        <ele>875.18</ele>
        <time>2021-07-13T09:22:20Z</time>
      </trkpt>
      <trkpt lat="44.9496" lon="3.94753">
        <ele>874.92</ele>
        <time>2021-07-13T09:22:21Z</time>
      </trkpt>
      <trkpt lat="44.95027" lon="3.94725">
        <ele>872.08</ele>
        <time>2021-07-13T09:22:29Z</time>
      </trkpt>
      <trkpt lat="44.95035" lon="3.94719">
        <ele>871.79</ele>
        <time>2021-07-13T09:22:30Z</time>
      </trkpt>
      <trkpt lat="44.95043" lon="3.94711">
        <ele>871.51</ele>
        <time>2021-07-13T09:22:31Z</time>
      </trkpt>
      <trkpt lat="44.9505" lon="3.94702">
        <ele>871.27</ele>
        <time>2021-07-13T09:22:32Z</time>
      </trkpt>
      <trkpt lat="44.95058" lon="3.94692">
        <ele>870.98</ele>
        <time>2021-07-13T09:22:33Z</time>
      </trkpt>
      <trkpt lat="44.95064" lon="3.94682">
        <ele>870.69</ele>
        <time>2021-07-13T09:22:34Z</time>
      </trkpt>
      <trkpt lat="44.95071" lon="3.94671">
        <ele>870.29</ele>
        <time>2021-07-13T09:22:35Z</time>
      </trkpt>
      <trkpt lat="44.95091" lon="3.94643">
        <ele>869.05</ele>
        <time>2021-07-13T09:22:38Z</time>
      </trkpt>
      <trkpt lat="44.95099" lon="3.94638">
        <ele>868.61</ele>
        <time>2021-07-13T09:22:39Z</time>
      </trkpt>
      <trkpt lat="44.95108" lon="3.94636">
        <ele>868.16</ele>
        <time>2021-07-13T09:22:40Z</time>
      </trkpt>
      <trkpt lat="44.95117" lon="3.94636">
        <ele>867.69</ele>
        <time>2021-07-13T09:22:41Z</time>
      </trkpt>
      <trkpt lat="44.95126" lon="3.94637">
        <ele>867.22</ele>
        <time>2021-07-13T09:22:42Z</time>
      </trkpt>
      <trkpt lat="44.95135" lon="3.94636">
        <ele>866.35</ele>
        <time>2021-07-13T09:22:43Z</time>
      </trkpt>
      <trkpt lat="44.95145" lon="3.94634">
        <ele>866.35</ele>
        <time>2021-07-13T09:22:44Z</time>
      </trkpt>
      <trkpt lat="44.95154" lon="3.9463">
        <ele>865.63</ele>
        <time>2021-07-13T09:22:45Z</time>
      </trkpt>
      <trkpt lat="44.95162" lon="3.94623">
        <ele>865.3</ele>
        <time>2021-07-13T09:22:46Z</time>
      </trkpt>
      <trkpt lat="44.9517" lon="3.94614">
        <ele>864.96</ele>
        <time>2021-07-13T09:22:47Z</time>
      </trkpt>
      <trkpt lat="44.95177" lon="3.94605">
        <ele>864.64</ele>
        <time>2021-07-13T09:22:48Z</time>
      </trkpt>
      <trkpt lat="44.95184" lon="3.94595">
        <ele>864.37</ele>
        <time>2021-07-13T09:22:49Z</time>
      </trkpt>
      <trkpt lat="44.95215" lon="3.94545">
        <ele>862.87</ele>
        <time>2021-07-13T09:22:54Z</time>
      </trkpt>
      <trkpt lat="44.95222" lon="3.9454">
        <ele>862.43</ele>
        <time>2021-07-13T09:22:55Z</time>
      </trkpt>
      <trkpt lat="44.95231" lon="3.94538">
        <ele>861.92</ele>
        <time>2021-07-13T09:22:56Z</time>
      </trkpt>
      <trkpt lat="44.95239" lon="3.94537">
        <ele>861.36</ele>
        <time>2021-07-13T09:22:57Z</time>
      </trkpt>
      <trkpt lat="44.95246" lon="3.9454">
        <ele>860.83</ele>
        <time>2021-07-13T09:22:58Z</time>
      </trkpt>
      <trkpt lat="44.95254" lon="3.94547">
        <ele>860.31</ele>
        <time>2021-07-13T09:22:59Z</time>
      </trkpt>
      <trkpt lat="44.95261" lon="3.94555">
        <ele>859.78</ele>
        <time>2021-07-13T09:23:00Z</time>
      </trkpt>
      <trkpt lat="44.95269" lon="3.94564">
        <ele>859.29</ele>
        <time>2021-07-13T09:23:01Z</time>
      </trkpt>
      <trkpt lat="44.95276" lon="3.94574">
        <ele>858.85</ele>
        <time>2021-07-13T09:23:02Z</time>
      </trkpt>
      <trkpt lat="44.95294" lon="3.9459">
        <ele>858.01</ele>
        <time>2021-07-13T09:23:04Z</time>
      </trkpt>
      <trkpt lat="44.95304" lon="3.94596">
        <ele>857.62</ele>
        <time>2021-07-13T09:23:05Z</time>
      </trkpt>
      <trkpt lat="44.95314" lon="3.94601">
        <ele>857.25</ele>
        <time>2021-07-13T09:23:06Z</time>
      </trkpt>
      <trkpt lat="44.95411" lon="3.94636">
        <ele>853.89</ele>
        <time>2021-07-13T09:23:15Z</time>
      </trkpt>
      <trkpt lat="44.95454" lon="3.94653">
        <ele>852.22</ele>
        <time>2021-07-13T09:23:19Z</time>
      </trkpt>
      <trkpt lat="44.95465" lon="3.94654">
        <ele>851.78</ele>
        <time>2021-07-13T09:23:20Z</time>
      </trkpt>
      <trkpt lat="44.95476" lon="3.94654">
        <ele>851.36</ele>
        <time>2021-07-13T09:23:21Z</time>
      </trkpt>
      <trkpt lat="44.95508" lon="3.94655">
        <ele>850.06</ele>
        <time>2021-07-13T09:23:24Z</time>
      </trkpt>
      <trkpt lat="44.95519" lon="3.94658">
        <ele>849.6</ele>
        <time>2021-07-13T09:23:25Z</time>
      </trkpt>
      <trkpt lat="44.95529" lon="3.94663">
        <ele>849.21</ele>
        <time>2021-07-13T09:23:26Z</time>
      </trkpt>
      <trkpt lat="44.95539" lon="3.9467">
        <ele>848.84</ele>
        <time>2021-07-13T09:23:27Z</time>
      </trkpt>
      <trkpt lat="44.95548" lon="3.94676">
        <ele>848.45</ele>
        <time>2021-07-13T09:23:28Z</time>
      </trkpt>
      <trkpt lat="44.95557" lon="3.94681">
        <ele>848.09</ele>
        <time>2021-07-13T09:23:29Z</time>
      </trkpt>
      <trkpt lat="44.95567" lon="3.94685">
        <ele>847.75</ele>
        <time>2021-07-13T09:23:30Z</time>
      </trkpt>
      <trkpt lat="44.95577" lon="3.94686">
        <ele>847.46</ele>
        <time>2021-07-13T09:23:31Z</time>
      </trkpt>
      <trkpt lat="44.95587" lon="3.94685">
        <ele>847.12</ele>
        <time>2021-07-13T09:23:32Z</time>
      </trkpt>
      <trkpt lat="44.95597" lon="3.94682">
        <ele>846.66</ele>
        <time>2021-07-13T09:23:33Z</time>
      </trkpt>
      <trkpt lat="44.95607" lon="3.94677">
        <ele>846.09</ele>
        <time>2021-07-13T09:23:34Z</time>
      </trkpt>
      <trkpt lat="44.95617" lon="3.94671">
        <ele>845.53</ele>
        <time>2021-07-13T09:23:35Z</time>
      </trkpt>
      <trkpt lat="44.95624" lon="3.94663">
        <ele>845.05</ele>
        <time>2021-07-13T09:23:36Z</time>
      </trkpt>
      <trkpt lat="44.95631" lon="3.94653">
        <ele>844.16</ele>
        <time>2021-07-13T09:23:37Z</time>
      </trkpt>
      <trkpt lat="44.95638" lon="3.94642">
        <ele>843.7</ele>
        <time>2021-07-13T09:23:38Z</time>
      </trkpt>
      <trkpt lat="44.95678" lon="3.94575">
        <ele>840.89</ele>
        <time>2021-07-13T09:23:44Z</time>
      </trkpt>
      <trkpt lat="44.95683" lon="3.94562">
        <ele>840.45</ele>
        <time>2021-07-13T09:23:45Z</time>
      </trkpt>
      <trkpt lat="44.95706" lon="3.94479">
        <ele>838.54</ele>
        <time>2021-07-13T09:23:51Z</time>
      </trkpt>
      <trkpt lat="44.95726" lon="3.94428">
        <ele>836.96</ele>
        <time>2021-07-13T09:23:55Z</time>
      </trkpt>
      <trkpt lat="44.95729" lon="3.94415">
        <ele>836.44</ele>
        <time>2021-07-13T09:23:56Z</time>
      </trkpt>
      <trkpt lat="44.95732" lon="3.94401">
        <ele>835.95</ele>
        <time>2021-07-13T09:23:57Z</time>
      </trkpt>
      <trkpt lat="44.95734" lon="3.94387">
        <ele>835.45</ele>
        <time>2021-07-13T09:23:58Z</time>
      </trkpt>
      <trkpt lat="44.95735" lon="3.94373">
        <ele>834.92</ele>
        <time>2021-07-13T09:23:59Z</time>
      </trkpt>
      <trkpt lat="44.95734" lon="3.94359">
        <ele>834.39</ele>
        <time>2021-07-13T09:24:00Z</time>
      </trkpt>
      <trkpt lat="44.95732" lon="3.94345">
        <ele>833.46</ele>
        <time>2021-07-13T09:24:01Z</time>
      </trkpt>
      <trkpt lat="44.95728" lon="3.94332">
        <ele>833.03</ele>
        <time>2021-07-13T09:24:02Z</time>
      </trkpt>
      <trkpt lat="44.95723" lon="3.94319">
        <ele>832.56</ele>
        <time>2021-07-13T09:24:03Z</time>
      </trkpt>
      <trkpt lat="44.95712" lon="3.94282">
        <ele>831.2</ele>
        <time>2021-07-13T09:24:06Z</time>
      </trkpt>
      <trkpt lat="44.95711" lon="3.94268">
        <ele>830.77</ele>
        <time>2021-07-13T09:24:07Z</time>
      </trkpt>
      <trkpt lat="44.95711" lon="3.94254">
        <ele>830.37</ele>
        <time>2021-07-13T09:24:08Z</time>
      </trkpt>
      <trkpt lat="44.95712" lon="3.9424">
        <ele>829.99</ele>
        <time>2021-07-13T09:24:09Z</time>
      </trkpt>
      <trkpt lat="44.95715" lon="3.94226">
        <ele>829.61</ele>
        <time>2021-07-13T09:24:10Z</time>
      </trkpt>
      <trkpt lat="44.95719" lon="3.94213">
        <ele>829.22</ele>
        <time>2021-07-13T09:24:11Z</time>
      </trkpt>
      <trkpt lat="44.95721" lon="3.94198">
        <ele>828.81</ele>
        <time>2021-07-13T09:24:12Z</time>
      </trkpt>
      <trkpt lat="44.95723" lon="3.94184">
        <ele>828.39</ele>
        <time>2021-07-13T09:24:13Z</time>
      </trkpt>
      <trkpt lat="44.95725" lon="3.9417">
        <ele>828.01</ele>
        <time>2021-07-13T09:24:14Z</time>
      </trkpt>
      <trkpt lat="44.95723" lon="3.94063">
        <ele>825.54</ele>
        <time>2021-07-13T09:24:22Z</time>
      </trkpt>
      <trkpt lat="44.95722" lon="3.94048">
        <ele>825.07</ele>
        <time>2021-07-13T09:24:23Z</time>
      </trkpt>
      <trkpt lat="44.95719" lon="3.94034">
        <ele>824.62</ele>
        <time>2021-07-13T09:24:24Z</time>
      </trkpt>
      <trkpt lat="44.95716" lon="3.9402">
        <ele>823.85</ele>
        <time>2021-07-13T09:24:25Z</time>
      </trkpt>
      <trkpt lat="44.95712" lon="3.94005">
        <ele>823.85</ele>
        <time>2021-07-13T09:24:26Z</time>
      </trkpt>
      <trkpt lat="44.95705" lon="3.93977">
        <ele>822.41</ele>
        <time>2021-07-13T09:24:28Z</time>
      </trkpt>
      <trkpt lat="44.95704" lon="3.93962">
        <ele>821.85</ele>
        <time>2021-07-13T09:24:29Z</time>
      </trkpt>
      <trkpt lat="44.95705" lon="3.93948">
        <ele>821.22</ele>
        <time>2021-07-13T09:24:30Z</time>
      </trkpt>
      <trkpt lat="44.95709" lon="3.93936">
        <ele>820.54</ele>
        <time>2021-07-13T09:24:31Z</time>
      </trkpt>
      <trkpt lat="44.95718" lon="3.93927">
        <ele>819.89</ele>
        <time>2021-07-13T09:24:32Z</time>
      </trkpt>
      <trkpt lat="44.95726" lon="3.93919">
        <ele>819.28</ele>
        <time>2021-07-13T09:24:33Z</time>
      </trkpt>
      <trkpt lat="44.95735" lon="3.93912">
        <ele>818.66</ele>
        <time>2021-07-13T09:24:34Z</time>
      </trkpt>
      <trkpt lat="44.95745" lon="3.93907">
        <ele>818.06</ele>
        <time>2021-07-13T09:24:35Z</time>
      </trkpt>
      <trkpt lat="44.95754" lon="3.93903">
        <ele>817.49</ele>
        <time>2021-07-13T09:24:36Z</time>
      </trkpt>
      <trkpt lat="44.95783" lon="3.93888">
        <ele>815.91</ele>
        <time>2021-07-13T09:24:39Z</time>
      </trkpt>
      <trkpt lat="44.95792" lon="3.93881">
        <ele>815.44</ele>
        <time>2021-07-13T09:24:40Z</time>
      </trkpt>
      <trkpt lat="44.95801" lon="3.93873">
        <ele>814.98</ele>
        <time>2021-07-13T09:24:41Z</time>
      </trkpt>
      <trkpt lat="44.95853" lon="3.93828">
        <ele>811.91</ele>
        <time>2021-07-13T09:24:47Z</time>
      </trkpt>
      <trkpt lat="44.95861" lon="3.93818">
        <ele>811.36</ele>
        <time>2021-07-13T09:24:48Z</time>
      </trkpt>
      <trkpt lat="44.95868" lon="3.93808">
        <ele>810.28</ele>
        <time>2021-07-13T09:24:49Z</time>
      </trkpt>
      <trkpt lat="44.95874" lon="3.93796">
        <ele>810.28</ele>
        <time>2021-07-13T09:24:50Z</time>
      </trkpt>
      <trkpt lat="44.95879" lon="3.93784">
        <ele>809.28</ele>
        <time>2021-07-13T09:24:51Z</time>
      </trkpt>
      <trkpt lat="44.9591" lon="3.93711">
        <ele>806.25</ele>
        <time>2021-07-13T09:24:57Z</time>
      </trkpt>
      <trkpt lat="44.95946" lon="3.93628">
        <ele>802.87</ele>
        <time>2021-07-13T09:25:04Z</time>
      </trkpt>
      <trkpt lat="44.95984" lon="3.93556">
        <ele>799.56</ele>
        <time>2021-07-13T09:25:11Z</time>
      </trkpt>
      <trkpt lat="44.96006" lon="3.93517">
        <ele>796.35</ele>
        <time>2021-07-13T09:25:18Z</time>
      </trkpt>
      <trkpt lat="44.96007" lon="3.93515">
        <ele>794.43</ele>
        <time>2021-07-13T09:25:29Z</time>
      </trkpt>
      <trkpt lat="44.96009" lon="3.93515">
        <ele>793.06</ele>
        <time>2021-07-13T09:25:54Z</time>
      </trkpt>
      <trkpt lat="44.96007" lon="3.93515">
        <ele>792.97</ele>
        <time>2021-07-13T09:26:17Z</time>
      </trkpt>
      <trkpt lat="44.96017" lon="3.93497">
        <ele>792.73</ele>
        <time>2021-07-13T09:26:39Z</time>
      </trkpt>
      <trkpt lat="44.96033" lon="3.93464">
        <ele>792.02</ele>
        <time>2021-07-13T09:26:47Z</time>
      </trkpt>
      <trkpt lat="44.96036" lon="3.93459">
        <ele>791.89</ele>
        <time>2021-07-13T09:26:48Z</time>
      </trkpt>
      <trkpt lat="44.96039" lon="3.93454">
        <ele>791.78</ele>
        <time>2021-07-13T09:26:49Z</time>
      </trkpt>
      <trkpt lat="44.96042" lon="3.93448">
        <ele>791.67</ele>
        <time>2021-07-13T09:26:50Z</time>
      </trkpt>
      <trkpt lat="44.96045" lon="3.93442">
        <ele>791.57</ele>
        <time>2021-07-13T09:26:51Z</time>
      </trkpt>
      <trkpt lat="44.96074" lon="3.9337">
        <ele>789.36</ele>
        <time>2021-07-13T09:27:03Z</time>
      </trkpt>
      <trkpt lat="44.96102" lon="3.93308">
        <ele>787.28</ele>
        <time>2021-07-13T09:27:11Z</time>
      </trkpt>
      <trkpt lat="44.96104" lon="3.93297">
        <ele>786.94</ele>
        <time>2021-07-13T09:27:12Z</time>
      </trkpt>
      <trkpt lat="44.96105" lon="3.93286">
        <ele>786.58</ele>
        <time>2021-07-13T09:27:13Z</time>
      </trkpt>
      <trkpt lat="44.96106" lon="3.93197">
        <ele>783.52</ele>
        <time>2021-07-13T09:27:21Z</time>
      </trkpt>
      <trkpt lat="44.96105" lon="3.93186">
        <ele>783.21</ele>
        <time>2021-07-13T09:27:22Z</time>
      </trkpt>
      <trkpt lat="44.96103" lon="3.93176">
        <ele>782.94</ele>
        <time>2021-07-13T09:27:23Z</time>
      </trkpt>
      <trkpt lat="44.961" lon="3.93166">
        <ele>782.7</ele>
        <time>2021-07-13T09:27:24Z</time>
      </trkpt>
      <trkpt lat="44.96096" lon="3.93157">
        <ele>782.46</ele>
        <time>2021-07-13T09:27:25Z</time>
      </trkpt>
      <trkpt lat="44.96091" lon="3.93149">
        <ele>782.2</ele>
        <time>2021-07-13T09:27:26Z</time>
      </trkpt>
      <trkpt lat="44.96086" lon="3.93142">
        <ele>781.94</ele>
        <time>2021-07-13T09:27:27Z</time>
      </trkpt>
      <trkpt lat="44.96079" lon="3.93136">
        <ele>781.72</ele>
        <time>2021-07-13T09:27:28Z</time>
      </trkpt>
      <trkpt lat="44.96072" lon="3.93131">
        <ele>781.55</ele>
        <time>2021-07-13T09:27:29Z</time>
      </trkpt>
      <trkpt lat="44.96065" lon="3.93127">
        <ele>781.38</ele>
        <time>2021-07-13T09:27:30Z</time>
      </trkpt>
      <trkpt lat="44.96057" lon="3.93123">
        <ele>781.23</ele>
        <time>2021-07-13T09:27:31Z</time>
      </trkpt>
      <trkpt lat="44.96029" lon="3.93102">
        <ele>780.4</ele>
        <time>2021-07-13T09:27:35Z</time>
      </trkpt>
      <trkpt lat="44.96023" lon="3.93094">
        <ele>780.14</ele>
        <time>2021-07-13T09:27:36Z</time>
      </trkpt>
      <trkpt lat="44.96019" lon="3.93084">
        <ele>779.9</ele>
        <time>2021-07-13T09:27:37Z</time>
      </trkpt>
      <trkpt lat="44.96016" lon="3.93074">
        <ele>779.7</ele>
        <time>2021-07-13T09:27:38Z</time>
      </trkpt>
      <trkpt lat="44.96013" lon="3.93063">
        <ele>779.49</ele>
        <time>2021-07-13T09:27:39Z</time>
      </trkpt>
      <trkpt lat="44.96004" lon="3.92991">
        <ele>777.53</ele>
        <time>2021-07-13T09:27:45Z</time>
      </trkpt>
      <trkpt lat="44.96004" lon="3.92978">
        <ele>777.1</ele>
        <time>2021-07-13T09:27:46Z</time>
      </trkpt>
      <trkpt lat="44.96006" lon="3.92966">
        <ele>776.44</ele>
        <time>2021-07-13T09:27:47Z</time>
      </trkpt>
      <trkpt lat="44.96008" lon="3.92953">
        <ele>776.18</ele>
        <time>2021-07-13T09:27:48Z</time>
      </trkpt>
      <trkpt lat="44.96022" lon="3.92879">
        <ele>773.03</ele>
        <time>2021-07-13T09:27:54Z</time>
      </trkpt>
      <trkpt lat="44.96029" lon="3.92856">
        <ele>772.22</ele>
        <time>2021-07-13T09:27:56Z</time>
      </trkpt>
      <trkpt lat="44.96034" lon="3.92846">
        <ele>771.86</ele>
        <time>2021-07-13T09:27:57Z</time>
      </trkpt>
      <trkpt lat="44.96041" lon="3.92837">
        <ele>771.48</ele>
        <time>2021-07-13T09:27:58Z</time>
      </trkpt>
      <trkpt lat="44.96048" lon="3.9283">
        <ele>771.02</ele>
        <time>2021-07-13T09:27:59Z</time>
      </trkpt>
      <trkpt lat="44.96056" lon="3.92824">
        <ele>770.48</ele>
        <time>2021-07-13T09:28:00Z</time>
      </trkpt>
      <trkpt lat="44.96064" lon="3.92818">
        <ele>769.92</ele>
        <time>2021-07-13T09:28:01Z</time>
      </trkpt>
      <trkpt lat="44.96088" lon="3.92801">
        <ele>768.66</ele>
        <time>2021-07-13T09:28:04Z</time>
      </trkpt>
      <trkpt lat="44.96095" lon="3.92793">
        <ele>768.33</ele>
        <time>2021-07-13T09:28:05Z</time>
      </trkpt>
      <trkpt lat="44.96102" lon="3.92784">
        <ele>768</ele>
        <time>2021-07-13T09:28:06Z</time>
      </trkpt>
      <trkpt lat="44.96123" lon="3.9276">
        <ele>767.1</ele>
        <time>2021-07-13T09:28:09Z</time>
      </trkpt>
      <trkpt lat="44.96131" lon="3.92757">
        <ele>766.83</ele>
        <time>2021-07-13T09:28:10Z</time>
      </trkpt>
      <trkpt lat="44.9614" lon="3.92756">
        <ele>766.23</ele>
        <time>2021-07-13T09:28:11Z</time>
      </trkpt>
      <trkpt lat="44.96148" lon="3.92759">
        <ele>765.89</ele>
        <time>2021-07-13T09:28:12Z</time>
      </trkpt>
      <trkpt lat="44.96156" lon="3.92763">
        <ele>765.45</ele>
        <time>2021-07-13T09:28:13Z</time>
      </trkpt>
      <trkpt lat="44.96164" lon="3.92769">
        <ele>764.93</ele>
        <time>2021-07-13T09:28:14Z</time>
      </trkpt>
      <trkpt lat="44.96172" lon="3.92776">
        <ele>764.42</ele>
        <time>2021-07-13T09:28:15Z</time>
      </trkpt>
      <trkpt lat="44.96195" lon="3.92803">
        <ele>763.08</ele>
        <time>2021-07-13T09:28:18Z</time>
      </trkpt>
      <trkpt lat="44.96202" lon="3.92814">
        <ele>762.7</ele>
        <time>2021-07-13T09:28:19Z</time>
      </trkpt>
      <trkpt lat="44.96217" lon="3.92847">
        <ele>761.21</ele>
        <time>2021-07-13T09:28:22Z</time>
      </trkpt>
      <trkpt lat="44.96222" lon="3.92854">
        <ele>760.69</ele>
        <time>2021-07-13T09:28:23Z</time>
      </trkpt>
      <trkpt lat="44.96229" lon="3.92859">
        <ele>760.19</ele>
        <time>2021-07-13T09:28:24Z</time>
      </trkpt>
      <trkpt lat="44.96237" lon="3.92861">
        <ele>759.72</ele>
        <time>2021-07-13T09:28:25Z</time>
      </trkpt>
      <trkpt lat="44.96246" lon="3.9286">
        <ele>759.26</ele>
        <time>2021-07-13T09:28:26Z</time>
      </trkpt>
      <trkpt lat="44.96255" lon="3.9286">
        <ele>758.84</ele>
        <time>2021-07-13T09:28:27Z</time>
      </trkpt>
      <trkpt lat="44.96274" lon="3.92861">
        <ele>757.91</ele>
        <time>2021-07-13T09:28:29Z</time>
      </trkpt>
      <trkpt lat="44.96282" lon="3.92865">
        <ele>757.38</ele>
        <time>2021-07-13T09:28:30Z</time>
      </trkpt>
      <trkpt lat="44.96298" lon="3.92872">
        <ele>756.38</ele>
        <time>2021-07-13T09:28:32Z</time>
      </trkpt>
      <trkpt lat="44.96306" lon="3.92872">
        <ele>755.83</ele>
        <time>2021-07-13T09:28:33Z</time>
      </trkpt>
      <trkpt lat="44.96314" lon="3.92869">
        <ele>755.18</ele>
        <time>2021-07-13T09:28:34Z</time>
      </trkpt>
      <trkpt lat="44.96321" lon="3.92862">
        <ele>754.52</ele>
        <time>2021-07-13T09:28:35Z</time>
      </trkpt>
      <trkpt lat="44.96326" lon="3.92853">
        <ele>753.33</ele>
        <time>2021-07-13T09:28:36Z</time>
      </trkpt>
      <trkpt lat="44.96328" lon="3.92843">
        <ele>752.81</ele>
        <time>2021-07-13T09:28:37Z</time>
      </trkpt>
      <trkpt lat="44.96329" lon="3.92833">
        <ele>752.31</ele>
        <time>2021-07-13T09:28:38Z</time>
      </trkpt>
      <trkpt lat="44.96328" lon="3.92823">
        <ele>751.82</ele>
        <time>2021-07-13T09:28:39Z</time>
      </trkpt>
      <trkpt lat="44.96326" lon="3.92812">
        <ele>751.36</ele>
        <time>2021-07-13T09:28:40Z</time>
      </trkpt>
      <trkpt lat="44.96322" lon="3.92803">
        <ele>750.96</ele>
        <time>2021-07-13T09:28:41Z</time>
      </trkpt>
      <trkpt lat="44.96317" lon="3.92793">
        <ele>750.59</ele>
        <time>2021-07-13T09:28:42Z</time>
      </trkpt>
      <trkpt lat="44.96313" lon="3.92782">
        <ele>750.19</ele>
        <time>2021-07-13T09:28:43Z</time>
      </trkpt>
      <trkpt lat="44.9631" lon="3.92769">
        <ele>749.7</ele>
        <time>2021-07-13T09:28:44Z</time>
      </trkpt>
      <trkpt lat="44.96308" lon="3.92755">
        <ele>749.13</ele>
        <time>2021-07-13T09:28:45Z</time>
      </trkpt>
      <trkpt lat="44.9631" lon="3.92742">
        <ele>748.5</ele>
        <time>2021-07-13T09:28:46Z</time>
      </trkpt>
      <trkpt lat="44.96314" lon="3.92729">
        <ele>747.86</ele>
        <time>2021-07-13T09:28:47Z</time>
      </trkpt>
      <trkpt lat="44.96318" lon="3.92716">
        <ele>747.26</ele>
        <time>2021-07-13T09:28:48Z</time>
      </trkpt>
      <trkpt lat="44.96322" lon="3.92703">
        <ele>746.71</ele>
        <time>2021-07-13T09:28:49Z</time>
      </trkpt>
      <trkpt lat="44.96326" lon="3.9269">
        <ele>746.21</ele>
        <time>2021-07-13T09:28:50Z</time>
      </trkpt>
      <trkpt lat="44.96337" lon="3.92635">
        <ele>744.01</ele>
        <time>2021-07-13T09:28:54Z</time>
      </trkpt>
      <trkpt lat="44.96344" lon="3.92558">
        <ele>740.53</ele>
        <time>2021-07-13T09:28:59Z</time>
      </trkpt>
      <trkpt lat="44.96352" lon="3.92512">
        <ele>737.49</ele>
        <time>2021-07-13T09:29:02Z</time>
      </trkpt>
      <trkpt lat="44.96378" lon="3.92442">
        <ele>733.97</ele>
        <time>2021-07-13T09:29:07Z</time>
      </trkpt>
      <trkpt lat="44.96412" lon="3.92393">
        <ele>730.68</ele>
        <time>2021-07-13T09:29:11Z</time>
      </trkpt>
      <trkpt lat="44.96459" lon="3.92342">
        <ele>727.26</ele>
        <time>2021-07-13T09:29:16Z</time>
      </trkpt>
      <trkpt lat="44.96508" lon="3.92297">
        <ele>723.8</ele>
        <time>2021-07-13T09:29:21Z</time>
      </trkpt>
      <trkpt lat="44.96545" lon="3.92269">
        <ele>720.11</ele>
        <time>2021-07-13T09:29:25Z</time>
      </trkpt>
      <trkpt lat="44.96559" lon="3.92257">
        <ele>718.66</ele>
        <time>2021-07-13T09:29:27Z</time>
      </trkpt>
      <trkpt lat="44.96564" lon="3.92249">
        <ele>718</ele>
        <time>2021-07-13T09:29:28Z</time>
      </trkpt>
      <trkpt lat="44.96569" lon="3.9224">
        <ele>717.35</ele>
        <time>2021-07-13T09:29:29Z</time>
      </trkpt>
      <trkpt lat="44.96571" lon="3.92231">
        <ele>716.66</ele>
        <time>2021-07-13T09:29:30Z</time>
      </trkpt>
      <trkpt lat="44.96572" lon="3.92223">
        <ele>716.04</ele>
        <time>2021-07-13T09:29:31Z</time>
      </trkpt>
      <trkpt lat="44.96573" lon="3.92215">
        <ele>715.55</ele>
        <time>2021-07-13T09:29:32Z</time>
      </trkpt>
      <trkpt lat="44.96581" lon="3.92139">
        <ele>713.21</ele>
        <time>2021-07-13T09:29:45Z</time>
      </trkpt>
      <trkpt lat="44.96582" lon="3.92138">
        <ele>712.86</ele>
        <time>2021-07-13T09:29:58Z</time>
      </trkpt>
      <trkpt lat="44.96583" lon="3.92131">
        <ele>712.67</ele>
        <time>2021-07-13T09:30:15Z</time>
      </trkpt>
      <trkpt lat="44.96585" lon="3.92127">
        <ele>712.4</ele>
        <time>2021-07-13T09:30:40Z</time>
      </trkpt>
      <trkpt lat="44.96585" lon="3.9212">
        <ele>712.48</ele>
        <time>2021-07-13T09:30:44Z</time>
      </trkpt>
      <trkpt lat="44.96585" lon="3.92118">
        <ele>712.5</ele>
        <time>2021-07-13T09:30:45Z</time>
      </trkpt>
      <trkpt lat="44.9659" lon="3.92072">
        <ele>712.74</ele>
        <time>2021-07-13T09:30:57Z</time>
      </trkpt>
      <trkpt lat="44.96603" lon="3.92034">
        <ele>713.71</ele>
        <time>2021-07-13T09:31:08Z</time>
      </trkpt>
      <trkpt lat="44.96612" lon="3.91993">
        <ele>715.69</ele>
        <time>2021-07-13T09:31:20Z</time>
      </trkpt>
      <trkpt lat="44.96618" lon="3.91954">
        <ele>717.38</ele>
        <time>2021-07-13T09:31:31Z</time>
      </trkpt>
      <trkpt lat="44.96626" lon="3.91912">
        <ele>719.85</ele>
        <time>2021-07-13T09:31:43Z</time>
      </trkpt>
      <trkpt lat="44.96642" lon="3.91879">
        <ele>721.71</ele>
        <time>2021-07-13T09:31:54Z</time>
      </trkpt>
      <trkpt lat="44.96669" lon="3.91849">
        <ele>723.92</ele>
        <time>2021-07-13T09:32:07Z</time>
      </trkpt>
      <trkpt lat="44.96671" lon="3.91848">
        <ele>724.13</ele>
        <time>2021-07-13T09:32:08Z</time>
      </trkpt>
      <trkpt lat="44.96674" lon="3.91846">
        <ele>724.41</ele>
        <time>2021-07-13T09:32:09Z</time>
      </trkpt>
      <trkpt lat="44.96675" lon="3.91845">
        <ele>724.72</ele>
        <time>2021-07-13T09:32:10Z</time>
      </trkpt>
      <trkpt lat="44.96678" lon="3.91843">
        <ele>725</ele>
        <time>2021-07-13T09:32:11Z</time>
      </trkpt>
      <trkpt lat="44.9668" lon="3.91841">
        <ele>725.22</ele>
        <time>2021-07-13T09:32:12Z</time>
      </trkpt>
      <trkpt lat="44.96697" lon="3.91834">
        <ele>725.87</ele>
        <time>2021-07-13T09:32:20Z</time>
      </trkpt>
      <trkpt lat="44.96699" lon="3.91832">
        <ele>725.94</ele>
        <time>2021-07-13T09:32:21Z</time>
      </trkpt>
      <trkpt lat="44.96701" lon="3.9183">
        <ele>726</ele>
        <time>2021-07-13T09:32:22Z</time>
      </trkpt>
      <trkpt lat="44.96704" lon="3.91829">
        <ele>726.06</ele>
        <time>2021-07-13T09:32:23Z</time>
      </trkpt>
      <trkpt lat="44.96706" lon="3.91828">
        <ele>726.14</ele>
        <time>2021-07-13T09:32:24Z</time>
      </trkpt>
      <trkpt lat="44.96734" lon="3.91808">
        <ele>728.11</ele>
        <time>2021-07-13T09:32:36Z</time>
      </trkpt>
      <trkpt lat="44.96735" lon="3.91806">
        <ele>728.29</ele>
        <time>2021-07-13T09:32:37Z</time>
      </trkpt>
      <trkpt lat="44.96736" lon="3.91803">
        <ele>728.5</ele>
        <time>2021-07-13T09:32:38Z</time>
      </trkpt>
      <trkpt lat="44.96738" lon="3.91801">
        <ele>728.74</ele>
        <time>2021-07-13T09:32:39Z</time>
      </trkpt>
      <trkpt lat="44.96739" lon="3.91798">
        <ele>728.94</ele>
        <time>2021-07-13T09:32:40Z</time>
      </trkpt>
      <trkpt lat="44.9674" lon="3.91796">
        <ele>729.1</ele>
        <time>2021-07-13T09:32:41Z</time>
      </trkpt>
      <trkpt lat="44.96748" lon="3.91759">
        <ele>730.49</ele>
        <time>2021-07-13T09:32:55Z</time>
      </trkpt>
      <trkpt lat="44.96748" lon="3.91736">
        <ele>731.95</ele>
        <time>2021-07-13T09:33:04Z</time>
      </trkpt>
      <trkpt lat="44.96747" lon="3.91733">
        <ele>732.07</ele>
        <time>2021-07-13T09:33:05Z</time>
      </trkpt>
      <trkpt lat="44.96755" lon="3.91699">
        <ele>734.59</ele>
        <time>2021-07-13T09:33:18Z</time>
      </trkpt>
      <trkpt lat="44.96775" lon="3.91663">
        <ele>736.62</ele>
        <time>2021-07-13T09:33:33Z</time>
      </trkpt>
      <trkpt lat="44.96776" lon="3.9162">
        <ele>739.01</ele>
        <time>2021-07-13T09:33:48Z</time>
      </trkpt>
      <trkpt lat="44.96767" lon="3.91601">
        <ele>740.94</ele>
        <time>2021-07-13T09:33:58Z</time>
      </trkpt>
      <trkpt lat="44.96766" lon="3.91599">
        <ele>741.17</ele>
        <time>2021-07-13T09:33:59Z</time>
      </trkpt>
      <trkpt lat="44.96759" lon="3.91591">
        <ele>741.8</ele>
        <time>2021-07-13T09:34:04Z</time>
      </trkpt>
      <trkpt lat="44.96757" lon="3.91589">
        <ele>742</ele>
        <time>2021-07-13T09:34:05Z</time>
      </trkpt>
      <trkpt lat="44.96756" lon="3.91588">
        <ele>742.17</ele>
        <time>2021-07-13T09:34:06Z</time>
      </trkpt>
      <trkpt lat="44.96731" lon="3.91564">
        <ele>743.62</ele>
        <time>2021-07-13T09:34:20Z</time>
      </trkpt>
      <trkpt lat="44.96712" lon="3.91541">
        <ele>745.01</ele>
        <time>2021-07-13T09:34:33Z</time>
      </trkpt>
      <trkpt lat="44.96708" lon="3.91536">
        <ele>745.45</ele>
        <time>2021-07-13T09:34:36Z</time>
      </trkpt>
      <trkpt lat="44.96703" lon="3.9153">
        <ele>745.98</ele>
        <time>2021-07-13T09:34:39Z</time>
      </trkpt>
      <trkpt lat="44.96701" lon="3.91527">
        <ele>746.18</ele>
        <time>2021-07-13T09:34:40Z</time>
      </trkpt>
      <trkpt lat="44.96699" lon="3.91525">
        <ele>746.36</ele>
        <time>2021-07-13T09:34:41Z</time>
      </trkpt>
      <trkpt lat="44.96697" lon="3.91523">
        <ele>746.53</ele>
        <time>2021-07-13T09:34:42Z</time>
      </trkpt>
      <trkpt lat="44.96696" lon="3.91521">
        <ele>746.67</ele>
        <time>2021-07-13T09:34:43Z</time>
      </trkpt>
      <trkpt lat="44.96694" lon="3.91519">
        <ele>746.79</ele>
        <time>2021-07-13T09:34:44Z</time>
      </trkpt>
      <trkpt lat="44.96692" lon="3.91517">
        <ele>746.89</ele>
        <time>2021-07-13T09:34:45Z</time>
      </trkpt>
      <trkpt lat="44.96691" lon="3.91515">
        <ele>747.02</ele>
        <time>2021-07-13T09:34:46Z</time>
      </trkpt>
      <trkpt lat="44.96671" lon="3.91492">
        <ele>748.67</ele>
        <time>2021-07-13T09:34:58Z</time>
      </trkpt>
      <trkpt lat="44.96638" lon="3.91465">
        <ele>750.35</ele>
        <time>2021-07-13T09:35:13Z</time>
      </trkpt>
      <trkpt lat="44.96611" lon="3.91442">
        <ele>751.42</ele>
        <time>2021-07-13T09:35:26Z</time>
      </trkpt>
      <trkpt lat="44.96583" lon="3.91416">
        <ele>752.91</ele>
        <time>2021-07-13T09:35:40Z</time>
      </trkpt>
      <trkpt lat="44.96551" lon="3.91397">
        <ele>754.57</ele>
        <time>2021-07-13T09:35:54Z</time>
      </trkpt>
      <trkpt lat="44.96517" lon="3.91375">
        <ele>755.64</ele>
        <time>2021-07-13T09:36:08Z</time>
      </trkpt>
      <trkpt lat="44.96513" lon="3.91334">
        <ele>756.76</ele>
        <time>2021-07-13T09:36:19Z</time>
      </trkpt>
      <trkpt lat="44.96545" lon="3.91304">
        <ele>757.86</ele>
        <time>2021-07-13T09:36:32Z</time>
      </trkpt>
      <trkpt lat="44.96572" lon="3.91305">
        <ele>758.76</ele>
        <time>2021-07-13T09:36:42Z</time>
      </trkpt>
      <trkpt lat="44.96591" lon="3.91304">
        <ele>759.25</ele>
        <time>2021-07-13T09:36:51Z</time>
      </trkpt>
      <trkpt lat="44.96625" lon="3.91314">
        <ele>760.27</ele>
        <time>2021-07-13T09:37:03Z</time>
      </trkpt>
      <trkpt lat="44.96657" lon="3.91324">
        <ele>761.5</ele>
        <time>2021-07-13T09:37:13Z</time>
      </trkpt>
      <trkpt lat="44.9669" lon="3.91329">
        <ele>762.85</ele>
        <time>2021-07-13T09:37:24Z</time>
      </trkpt>
      <trkpt lat="44.96723" lon="3.91332">
        <ele>763.9</ele>
        <time>2021-07-13T09:37:36Z</time>
      </trkpt>
      <trkpt lat="44.96759" lon="3.91337">
        <ele>764.56</ele>
        <time>2021-07-13T09:37:46Z</time>
      </trkpt>
      <trkpt lat="44.96798" lon="3.91333">
        <ele>766.06</ele>
        <time>2021-07-13T09:37:58Z</time>
      </trkpt>
      <trkpt lat="44.9682" lon="3.91318">
        <ele>767.2</ele>
        <time>2021-07-13T09:38:08Z</time>
      </trkpt>
      <trkpt lat="44.96868" lon="3.91314">
        <ele>769.17</ele>
        <time>2021-07-13T09:38:20Z</time>
      </trkpt>
      <trkpt lat="44.96912" lon="3.91303">
        <ele>770.51</ele>
        <time>2021-07-13T09:38:32Z</time>
      </trkpt>
      <trkpt lat="44.96949" lon="3.9125">
        <ele>771.67</ele>
        <time>2021-07-13T09:38:47Z</time>
      </trkpt>
      <trkpt lat="44.96953" lon="3.91243">
        <ele>771.96</ele>
        <time>2021-07-13T09:38:49Z</time>
      </trkpt>
      <trkpt lat="44.96955" lon="3.91239">
        <ele>772.1</ele>
        <time>2021-07-13T09:38:50Z</time>
      </trkpt>
      <trkpt lat="44.96956" lon="3.91235">
        <ele>772.22</ele>
        <time>2021-07-13T09:38:51Z</time>
      </trkpt>
      <trkpt lat="44.96958" lon="3.91232">
        <ele>772.33</ele>
        <time>2021-07-13T09:38:52Z</time>
      </trkpt>
      <trkpt lat="44.9696" lon="3.91228">
        <ele>772.41</ele>
        <time>2021-07-13T09:38:53Z</time>
      </trkpt>
      <trkpt lat="44.96979" lon="3.91193">
        <ele>773.27</ele>
        <time>2021-07-13T09:39:03Z</time>
      </trkpt>
      <trkpt lat="44.9701" lon="3.9116">
        <ele>775.15</ele>
        <time>2021-07-13T09:39:15Z</time>
      </trkpt>
      <trkpt lat="44.97036" lon="3.91134">
        <ele>775.46</ele>
        <time>2021-07-13T09:39:24Z</time>
      </trkpt>
      <trkpt lat="44.97037" lon="3.91131">
        <ele>775.52</ele>
        <time>2021-07-13T09:39:25Z</time>
      </trkpt>
      <trkpt lat="44.97076" lon="3.91084">
        <ele>777.28</ele>
        <time>2021-07-13T09:39:39Z</time>
      </trkpt>
      <trkpt lat="44.97094" lon="3.91045">
        <ele>779.05</ele>
        <time>2021-07-13T09:39:50Z</time>
      </trkpt>
      <trkpt lat="44.97122" lon="3.91008">
        <ele>780</ele>
        <time>2021-07-13T09:40:02Z</time>
      </trkpt>
      <trkpt lat="44.97163" lon="3.90967">
        <ele>781.75</ele>
        <time>2021-07-13T09:40:17Z</time>
      </trkpt>
      <trkpt lat="44.97164" lon="3.90931">
        <ele>782.93</ele>
        <time>2021-07-13T09:40:27Z</time>
      </trkpt>
      <trkpt lat="44.97162" lon="3.90924">
        <ele>783.15</ele>
        <time>2021-07-13T09:40:29Z</time>
      </trkpt>
      <trkpt lat="44.9716" lon="3.90921">
        <ele>783.22</ele>
        <time>2021-07-13T09:40:30Z</time>
      </trkpt>
      <trkpt lat="44.97159" lon="3.90919">
        <ele>783.3</ele>
        <time>2021-07-13T09:40:31Z</time>
      </trkpt>
      <trkpt lat="44.97157" lon="3.90917">
        <ele>783.36</ele>
        <time>2021-07-13T09:40:32Z</time>
      </trkpt>
      <trkpt lat="44.97156" lon="3.90915">
        <ele>783.42</ele>
        <time>2021-07-13T09:40:33Z</time>
      </trkpt>
      <trkpt lat="44.97155" lon="3.90912">
        <ele>783.48</ele>
        <time>2021-07-13T09:40:34Z</time>
      </trkpt>
      <trkpt lat="44.97154" lon="3.90909">
        <ele>783.55</ele>
        <time>2021-07-13T09:40:35Z</time>
      </trkpt>
      <trkpt lat="44.97152" lon="3.90907">
        <ele>783.61</ele>
        <time>2021-07-13T09:40:36Z</time>
      </trkpt>
      <trkpt lat="44.97151" lon="3.90904">
        <ele>783.66</ele>
        <time>2021-07-13T09:40:37Z</time>
      </trkpt>
      <trkpt lat="44.9715" lon="3.909">
        <ele>783.72</ele>
        <time>2021-07-13T09:40:38Z</time>
      </trkpt>
      <trkpt lat="44.97149" lon="3.90898">
        <ele>783.79</ele>
        <time>2021-07-13T09:40:39Z</time>
      </trkpt>
      <trkpt lat="44.97148" lon="3.90895">
        <ele>783.87</ele>
        <time>2021-07-13T09:40:40Z</time>
      </trkpt>
      <trkpt lat="44.97146" lon="3.90891">
        <ele>783.95</ele>
        <time>2021-07-13T09:40:41Z</time>
      </trkpt>
      <trkpt lat="44.97145" lon="3.90888">
        <ele>784.05</ele>
        <time>2021-07-13T09:40:42Z</time>
      </trkpt>
      <trkpt lat="44.97143" lon="3.90885">
        <ele>784.24</ele>
        <time>2021-07-13T09:40:43Z</time>
      </trkpt>
      <trkpt lat="44.97141" lon="3.90882">
        <ele>784.31</ele>
        <time>2021-07-13T09:40:44Z</time>
      </trkpt>
      <trkpt lat="44.97118" lon="3.90849">
        <ele>785.74</ele>
        <time>2021-07-13T09:40:55Z</time>
      </trkpt>
      <trkpt lat="44.97114" lon="3.9084">
        <ele>786.19</ele>
        <time>2021-07-13T09:40:58Z</time>
      </trkpt>
      <trkpt lat="44.97112" lon="3.90837">
        <ele>786.25</ele>
        <time>2021-07-13T09:40:59Z</time>
      </trkpt>
      <trkpt lat="44.97109" lon="3.9083">
        <ele>786.3</ele>
        <time>2021-07-13T09:41:01Z</time>
      </trkpt>
      <trkpt lat="44.97069" lon="3.90796">
        <ele>786.81</ele>
        <time>2021-07-13T09:41:12Z</time>
      </trkpt>
      <trkpt lat="44.97033" lon="3.90771">
        <ele>787.94</ele>
        <time>2021-07-13T09:41:22Z</time>
      </trkpt>
      <trkpt lat="44.97006" lon="3.90734">
        <ele>789.82</ele>
        <time>2021-07-13T09:41:33Z</time>
      </trkpt>
      <trkpt lat="44.9698" lon="3.90702">
        <ele>790.75</ele>
        <time>2021-07-13T09:41:44Z</time>
      </trkpt>
      <trkpt lat="44.96958" lon="3.90664">
        <ele>791.97</ele>
        <time>2021-07-13T09:41:54Z</time>
      </trkpt>
      <trkpt lat="44.96948" lon="3.90616">
        <ele>792.95</ele>
        <time>2021-07-13T09:42:04Z</time>
      </trkpt>
      <trkpt lat="44.96936" lon="3.90559">
        <ele>794.66</ele>
        <time>2021-07-13T09:42:16Z</time>
      </trkpt>
      <trkpt lat="44.96926" lon="3.90507">
        <ele>796.5</ele>
        <time>2021-07-13T09:42:27Z</time>
      </trkpt>
      <trkpt lat="44.96918" lon="3.90484">
        <ele>797.27</ele>
        <time>2021-07-13T09:42:39Z</time>
      </trkpt>
      <trkpt lat="44.96917" lon="3.90481">
        <ele>796.82</ele>
        <time>2021-07-13T09:43:06Z</time>
      </trkpt>
      <trkpt lat="44.96915" lon="3.90477">
        <ele>797.83</ele>
        <time>2021-07-13T09:43:32Z</time>
      </trkpt>
      <trkpt lat="44.96913" lon="3.90477">
        <ele>797.42</ele>
        <time>2021-07-13T09:44:38Z</time>
      </trkpt>
      <trkpt lat="44.96919" lon="3.90483">
        <ele>797.86</ele>
        <time>2021-07-13T09:45:20Z</time>
      </trkpt>
      <trkpt lat="44.96921" lon="3.9048">
        <ele>798.24</ele>
        <time>2021-07-13T09:46:11Z</time>
      </trkpt>
      <trkpt lat="44.9692" lon="3.90478">
        <ele>797.92</ele>
        <time>2021-07-13T09:46:46Z</time>
      </trkpt>
      <trkpt lat="44.96919" lon="3.90481">
        <ele>798.25</ele>
        <time>2021-07-13T09:47:18Z</time>
      </trkpt>
      <trkpt lat="44.96919" lon="3.90479">
        <ele>798.48</ele>
        <time>2021-07-13T09:47:49Z</time>
      </trkpt>
      <trkpt lat="44.96917" lon="3.90484">
        <ele>798.37</ele>
        <time>2021-07-13T09:48:20Z</time>
      </trkpt>
      <trkpt lat="44.96918" lon="3.90485">
        <ele>798.34</ele>
        <time>2021-07-13T09:48:55Z</time>
      </trkpt>
      <trkpt lat="44.96917" lon="3.90483">
        <ele>798.54</ele>
        <time>2021-07-13T09:49:24Z</time>
      </trkpt>
      <trkpt lat="44.96917" lon="3.9048">
        <ele>798.57</ele>
        <time>2021-07-13T09:49:54Z</time>
      </trkpt>
      <trkpt lat="44.96919" lon="3.90489">
        <ele>798.47</ele>
        <time>2021-07-13T09:50:24Z</time>
      </trkpt>
      <trkpt lat="44.96912" lon="3.9048">
        <ele>799.24</ele>
        <time>2021-07-13T09:50:46Z</time>
      </trkpt>
      <trkpt lat="44.96911" lon="3.90478">
        <ele>799.21</ele>
        <time>2021-07-13T09:50:47Z</time>
      </trkpt>
      <trkpt lat="44.96911" lon="3.90476">
        <ele>799.12</ele>
        <time>2021-07-13T09:50:48Z</time>
      </trkpt>
      <trkpt lat="44.9691" lon="3.90472">
        <ele>798.98</ele>
        <time>2021-07-13T09:50:49Z</time>
      </trkpt>
      <trkpt lat="44.96909" lon="3.90469">
        <ele>798.92</ele>
        <time>2021-07-13T09:50:50Z</time>
      </trkpt>
      <trkpt lat="44.96908" lon="3.90466">
        <ele>798.9</ele>
        <time>2021-07-13T09:50:51Z</time>
      </trkpt>
      <trkpt lat="44.96906" lon="3.90462">
        <ele>798.89</ele>
        <time>2021-07-13T09:50:52Z</time>
      </trkpt>
      <trkpt lat="44.96884" lon="3.90417">
        <ele>799.36</ele>
        <time>2021-07-13T09:51:04Z</time>
      </trkpt>
      <trkpt lat="44.9683" lon="3.9039">
        <ele>800.92</ele>
        <time>2021-07-13T09:51:20Z</time>
      </trkpt>
      <trkpt lat="44.96768" lon="3.90359">
        <ele>803.58</ele>
        <time>2021-07-13T09:51:39Z</time>
      </trkpt>
      <trkpt lat="44.96756" lon="3.90343">
        <ele>804.1</ele>
        <time>2021-07-13T09:51:44Z</time>
      </trkpt>
      <trkpt lat="44.96753" lon="3.90332">
        <ele>804.27</ele>
        <time>2021-07-13T09:51:46Z</time>
      </trkpt>
      <trkpt lat="44.96753" lon="3.90326">
        <ele>804.39</ele>
        <time>2021-07-13T09:51:47Z</time>
      </trkpt>
      <trkpt lat="44.96753" lon="3.90321">
        <ele>804.55</ele>
        <time>2021-07-13T09:51:48Z</time>
      </trkpt>
      <trkpt lat="44.96754" lon="3.90316">
        <ele>804.78</ele>
        <time>2021-07-13T09:51:49Z</time>
      </trkpt>
      <trkpt lat="44.96756" lon="3.90311">
        <ele>805.04</ele>
        <time>2021-07-13T09:51:50Z</time>
      </trkpt>
      <trkpt lat="44.96758" lon="3.90307">
        <ele>805.26</ele>
        <time>2021-07-13T09:51:51Z</time>
      </trkpt>
      <trkpt lat="44.96759" lon="3.90303">
        <ele>805.48</ele>
        <time>2021-07-13T09:51:52Z</time>
      </trkpt>
      <trkpt lat="44.9676" lon="3.90299">
        <ele>805.64</ele>
        <time>2021-07-13T09:51:53Z</time>
      </trkpt>
      <trkpt lat="44.96762" lon="3.90294">
        <ele>805.81</ele>
        <time>2021-07-13T09:51:54Z</time>
      </trkpt>
      <trkpt lat="44.96766" lon="3.90236">
        <ele>807.44</ele>
        <time>2021-07-13T09:52:07Z</time>
      </trkpt>
      <trkpt lat="44.96764" lon="3.90187">
        <ele>808.17</ele>
        <time>2021-07-13T09:52:19Z</time>
      </trkpt>
      <trkpt lat="44.96761" lon="3.90136">
        <ele>809.88</ele>
        <time>2021-07-13T09:52:31Z</time>
      </trkpt>
      <trkpt lat="44.96765" lon="3.90079">
        <ele>811.43</ele>
        <time>2021-07-13T09:52:42Z</time>
      </trkpt>
      <trkpt lat="44.96768" lon="3.90024">
        <ele>813.27</ele>
        <time>2021-07-13T09:52:52Z</time>
      </trkpt>
      <trkpt lat="44.96773" lon="3.89968">
        <ele>814.6</ele>
        <time>2021-07-13T09:53:02Z</time>
      </trkpt>
      <trkpt lat="44.96774" lon="3.89915">
        <ele>815.82</ele>
        <time>2021-07-13T09:53:13Z</time>
      </trkpt>
      <trkpt lat="44.96776" lon="3.89866">
        <ele>817.13</ele>
        <time>2021-07-13T09:53:23Z</time>
      </trkpt>
      <trkpt lat="44.96779" lon="3.89814">
        <ele>818.39</ele>
        <time>2021-07-13T09:53:33Z</time>
      </trkpt>
      <trkpt lat="44.96768" lon="3.8976">
        <ele>819.53</ele>
        <time>2021-07-13T09:53:45Z</time>
      </trkpt>
      <trkpt lat="44.9675" lon="3.89709">
        <ele>820.54</ele>
        <time>2021-07-13T09:53:57Z</time>
      </trkpt>
      <trkpt lat="44.96743" lon="3.89667">
        <ele>821.8</ele>
        <time>2021-07-13T09:54:07Z</time>
      </trkpt>
      <trkpt lat="44.96736" lon="3.8962">
        <ele>823.03</ele>
        <time>2021-07-13T09:54:19Z</time>
      </trkpt>
      <trkpt lat="44.96736" lon="3.89616">
        <ele>823.17</ele>
        <time>2021-07-13T09:54:20Z</time>
      </trkpt>
      <trkpt lat="44.96736" lon="3.89611">
        <ele>823.29</ele>
        <time>2021-07-13T09:54:21Z</time>
      </trkpt>
      <trkpt lat="44.96735" lon="3.89606">
        <ele>823.4</ele>
        <time>2021-07-13T09:54:22Z</time>
      </trkpt>
      <trkpt lat="44.96735" lon="3.89602">
        <ele>823.5</ele>
        <time>2021-07-13T09:54:23Z</time>
      </trkpt>
      <trkpt lat="44.96734" lon="3.89543">
        <ele>824.67</ele>
        <time>2021-07-13T09:54:34Z</time>
      </trkpt>
      <trkpt lat="44.96733" lon="3.89511">
        <ele>825.4</ele>
        <time>2021-07-13T09:54:41Z</time>
      </trkpt>
      <trkpt lat="44.96733" lon="3.89507">
        <ele>825.45</ele>
        <time>2021-07-13T09:54:42Z</time>
      </trkpt>
      <trkpt lat="44.96733" lon="3.89502">
        <ele>825.56</ele>
        <time>2021-07-13T09:54:43Z</time>
      </trkpt>
      <trkpt lat="44.96739" lon="3.8945">
        <ele>827.75</ele>
        <time>2021-07-13T09:54:56Z</time>
      </trkpt>
      <trkpt lat="44.96737" lon="3.89404">
        <ele>829.1</ele>
        <time>2021-07-13T09:55:08Z</time>
      </trkpt>
      <trkpt lat="44.96732" lon="3.89363">
        <ele>830.79</ele>
        <time>2021-07-13T09:55:20Z</time>
      </trkpt>
      <trkpt lat="44.96725" lon="3.8932">
        <ele>832.7</ele>
        <time>2021-07-13T09:55:33Z</time>
      </trkpt>
      <trkpt lat="44.96722" lon="3.8928">
        <ele>834.07</ele>
        <time>2021-07-13T09:55:43Z</time>
      </trkpt>
      <trkpt lat="44.96718" lon="3.89235">
        <ele>836.65</ele>
        <time>2021-07-13T09:55:56Z</time>
      </trkpt>
      <trkpt lat="44.96719" lon="3.89232">
        <ele>836.8</ele>
        <time>2021-07-13T09:55:57Z</time>
      </trkpt>
      <trkpt lat="44.96718" lon="3.89229">
        <ele>836.92</ele>
        <time>2021-07-13T09:55:58Z</time>
      </trkpt>
      <trkpt lat="44.96718" lon="3.89226">
        <ele>837.02</ele>
        <time>2021-07-13T09:55:59Z</time>
      </trkpt>
      <trkpt lat="44.96719" lon="3.89177">
        <ele>838.74</ele>
        <time>2021-07-13T09:56:13Z</time>
      </trkpt>
      <trkpt lat="44.9672" lon="3.8917">
        <ele>838.96</ele>
        <time>2021-07-13T09:56:15Z</time>
      </trkpt>
      <trkpt lat="44.96721" lon="3.89166">
        <ele>839.07</ele>
        <time>2021-07-13T09:56:16Z</time>
      </trkpt>
      <trkpt lat="44.96721" lon="3.89162">
        <ele>839.17</ele>
        <time>2021-07-13T09:56:17Z</time>
      </trkpt>
      <trkpt lat="44.96721" lon="3.89158">
        <ele>839.3</ele>
        <time>2021-07-13T09:56:18Z</time>
      </trkpt>
      <trkpt lat="44.96721" lon="3.89154">
        <ele>839.44</ele>
        <time>2021-07-13T09:56:19Z</time>
      </trkpt>
      <trkpt lat="44.96721" lon="3.89146">
        <ele>839.76</ele>
        <time>2021-07-13T09:56:21Z</time>
      </trkpt>
      <trkpt lat="44.96721" lon="3.89143">
        <ele>839.93</ele>
        <time>2021-07-13T09:56:22Z</time>
      </trkpt>
      <trkpt lat="44.96722" lon="3.89139">
        <ele>840.09</ele>
        <time>2021-07-13T09:56:23Z</time>
      </trkpt>
      <trkpt lat="44.96723" lon="3.89135">
        <ele>840.22</ele>
        <time>2021-07-13T09:56:24Z</time>
      </trkpt>
      <trkpt lat="44.96723" lon="3.89132">
        <ele>840.35</ele>
        <time>2021-07-13T09:56:25Z</time>
      </trkpt>
      <trkpt lat="44.96727" lon="3.89082">
        <ele>842.2</ele>
        <time>2021-07-13T09:56:40Z</time>
      </trkpt>
      <trkpt lat="44.9672" lon="3.89041">
        <ele>843.8</ele>
        <time>2021-07-13T09:56:52Z</time>
      </trkpt>
      <trkpt lat="44.96699" lon="3.89028">
        <ele>845.83</ele>
        <time>2021-07-13T09:57:03Z</time>
      </trkpt>
      <trkpt lat="44.9666" lon="3.8904">
        <ele>848.76</ele>
        <time>2021-07-13T09:57:20Z</time>
      </trkpt>
      <trkpt lat="44.96649" lon="3.89045">
        <ele>848.97</ele>
        <time>2021-07-13T09:57:25Z</time>
      </trkpt>
      <trkpt lat="44.96647" lon="3.89047">
        <ele>849</ele>
        <time>2021-07-13T09:57:26Z</time>
      </trkpt>
      <trkpt lat="44.96645" lon="3.89048">
        <ele>849.08</ele>
        <time>2021-07-13T09:57:27Z</time>
      </trkpt>
      <trkpt lat="44.96642" lon="3.89049">
        <ele>849.12</ele>
        <time>2021-07-13T09:57:28Z</time>
      </trkpt>
      <trkpt lat="44.9664" lon="3.8905">
        <ele>849.26</ele>
        <time>2021-07-13T09:57:29Z</time>
      </trkpt>
      <trkpt lat="44.96607" lon="3.89061">
        <ele>850.69</ele>
        <time>2021-07-13T09:57:42Z</time>
      </trkpt>
      <trkpt lat="44.96593" lon="3.89032">
        <ele>852</ele>
        <time>2021-07-13T09:57:53Z</time>
      </trkpt>
      <trkpt lat="44.96611" lon="3.88988">
        <ele>854.12</ele>
        <time>2021-07-13T09:58:07Z</time>
      </trkpt>
      <trkpt lat="44.96641" lon="3.88951">
        <ele>856</ele>
        <time>2021-07-13T09:58:23Z</time>
      </trkpt>
      <trkpt lat="44.96671" lon="3.8892">
        <ele>857.63</ele>
        <time>2021-07-13T09:58:36Z</time>
      </trkpt>
      <trkpt lat="44.96701" lon="3.88889">
        <ele>859.42</ele>
        <time>2021-07-13T09:58:49Z</time>
      </trkpt>
      <trkpt lat="44.96731" lon="3.88855">
        <ele>861.08</ele>
        <time>2021-07-13T09:59:03Z</time>
      </trkpt>
      <trkpt lat="44.96762" lon="3.88831">
        <ele>862.37</ele>
        <time>2021-07-13T09:59:16Z</time>
      </trkpt>
      <trkpt lat="44.96791" lon="3.88817">
        <ele>864.32</ele>
        <time>2021-07-13T09:59:27Z</time>
      </trkpt>
      <trkpt lat="44.96807" lon="3.88811">
        <ele>864.84</ele>
        <time>2021-07-13T09:59:33Z</time>
      </trkpt>
      <trkpt lat="44.9681" lon="3.8881">
        <ele>864.88</ele>
        <time>2021-07-13T09:59:34Z</time>
      </trkpt>
      <trkpt lat="44.96812" lon="3.88807">
        <ele>864.92</ele>
        <time>2021-07-13T09:59:35Z</time>
      </trkpt>
      <trkpt lat="44.96834" lon="3.88766">
        <ele>866.81</ele>
        <time>2021-07-13T09:59:48Z</time>
      </trkpt>
      <trkpt lat="44.96836" lon="3.88759">
        <ele>867.03</ele>
        <time>2021-07-13T10:00:00Z</time>
      </trkpt>
      <trkpt lat="44.9684" lon="3.88743">
        <ele>867.11</ele>
        <time>2021-07-13T10:00:13Z</time>
      </trkpt>
      <trkpt lat="44.9684" lon="3.88742">
        <ele>867.22</ele>
        <time>2021-07-13T10:00:15Z</time>
      </trkpt>
      <trkpt lat="44.96836" lon="3.8874">
        <ele>867.25</ele>
        <time>2021-07-13T10:00:42Z</time>
      </trkpt>
      <trkpt lat="44.96834" lon="3.88737">
        <ele>867.17</ele>
        <time>2021-07-13T10:01:16Z</time>
      </trkpt>
      <trkpt lat="44.96837" lon="3.88739">
        <ele>867.14</ele>
        <time>2021-07-13T10:01:46Z</time>
      </trkpt>
      <trkpt lat="44.96832" lon="3.88734">
        <ele>867.86</ele>
        <time>2021-07-13T10:02:14Z</time>
      </trkpt>
      <trkpt lat="44.96831" lon="3.88732">
        <ele>867.19</ele>
        <time>2021-07-13T10:02:44Z</time>
      </trkpt>
      <trkpt lat="44.96834" lon="3.88724">
        <ele>867.11</ele>
        <time>2021-07-13T10:02:54Z</time>
      </trkpt>
      <trkpt lat="44.96835" lon="3.88721">
        <ele>867.15</ele>
        <time>2021-07-13T10:02:55Z</time>
      </trkpt>
      <trkpt lat="44.96837" lon="3.88718">
        <ele>867.19</ele>
        <time>2021-07-13T10:02:56Z</time>
      </trkpt>
      <trkpt lat="44.96838" lon="3.88707">
        <ele>867.27</ele>
        <time>2021-07-13T10:02:59Z</time>
      </trkpt>
      <trkpt lat="44.96837" lon="3.88703">
        <ele>867.31</ele>
        <time>2021-07-13T10:03:00Z</time>
      </trkpt>
      <trkpt lat="44.96837" lon="3.887">
        <ele>867.35</ele>
        <time>2021-07-13T10:03:01Z</time>
      </trkpt>
      <trkpt lat="44.96838" lon="3.88696">
        <ele>867.38</ele>
        <time>2021-07-13T10:03:02Z</time>
      </trkpt>
      <trkpt lat="44.96839" lon="3.88692">
        <ele>867.39</ele>
        <time>2021-07-13T10:03:03Z</time>
      </trkpt>
      <trkpt lat="44.96842" lon="3.88639">
        <ele>867.06</ele>
        <time>2021-07-13T10:03:14Z</time>
      </trkpt>
      <trkpt lat="44.96838" lon="3.88603">
        <ele>867.69</ele>
        <time>2021-07-13T10:03:22Z</time>
      </trkpt>
      <trkpt lat="44.9684" lon="3.88599">
        <ele>867.82</ele>
        <time>2021-07-13T10:03:23Z</time>
      </trkpt>
      <trkpt lat="44.9685" lon="3.88539">
        <ele>868.6</ele>
        <time>2021-07-13T10:03:36Z</time>
      </trkpt>
      <trkpt lat="44.96858" lon="3.88491">
        <ele>869.9</ele>
        <time>2021-07-13T10:03:48Z</time>
      </trkpt>
      <trkpt lat="44.96857" lon="3.88484">
        <ele>870.31</ele>
        <time>2021-07-13T10:03:59Z</time>
      </trkpt>
      <trkpt lat="44.96859" lon="3.88484">
        <ele>870</ele>
        <time>2021-07-13T10:04:24Z</time>
      </trkpt>
      <trkpt lat="44.96864" lon="3.88487">
        <ele>870.2</ele>
        <time>2021-07-13T10:04:51Z</time>
      </trkpt>
      <trkpt lat="44.96859" lon="3.88484">
        <ele>869.97</ele>
        <time>2021-07-13T10:05:25Z</time>
      </trkpt>
      <trkpt lat="44.96859" lon="3.88481">
        <ele>870.06</ele>
        <time>2021-07-13T10:05:56Z</time>
      </trkpt>
      <trkpt lat="44.96859" lon="3.88484">
        <ele>870.56</ele>
        <time>2021-07-13T10:06:27Z</time>
      </trkpt>
      <trkpt lat="44.9686" lon="3.88486">
        <ele>870.11</ele>
        <time>2021-07-13T10:06:56Z</time>
      </trkpt>
      <trkpt lat="44.96862" lon="3.88487">
        <ele>870.38</ele>
        <time>2021-07-13T10:07:27Z</time>
      </trkpt>
      <trkpt lat="44.96864" lon="3.88488">
        <ele>870.47</ele>
        <time>2021-07-13T10:07:57Z</time>
      </trkpt>
      <trkpt lat="44.96863" lon="3.88488">
        <ele>869.92</ele>
        <time>2021-07-13T10:08:28Z</time>
      </trkpt>
      <trkpt lat="44.96862" lon="3.88483">
        <ele>869.9</ele>
        <time>2021-07-13T10:08:37Z</time>
      </trkpt>
      <trkpt lat="44.96862" lon="3.88481">
        <ele>869.9</ele>
        <time>2021-07-13T10:08:38Z</time>
      </trkpt>
      <trkpt lat="44.96863" lon="3.88479">
        <ele>869.87</ele>
        <time>2021-07-13T10:08:39Z</time>
      </trkpt>
      <trkpt lat="44.96864" lon="3.88476">
        <ele>869.88</ele>
        <time>2021-07-13T10:08:40Z</time>
      </trkpt>
      <trkpt lat="44.96865" lon="3.88473">
        <ele>869.9</ele>
        <time>2021-07-13T10:08:41Z</time>
      </trkpt>
      <trkpt lat="44.96874" lon="3.88443">
        <ele>870.1</ele>
        <time>2021-07-13T10:08:48Z</time>
      </trkpt>
      <trkpt lat="44.96882" lon="3.88426">
        <ele>870.1</ele>
        <time>2021-07-13T10:08:51Z</time>
      </trkpt>
      <trkpt lat="44.96888" lon="3.88415">
        <ele>870.04</ele>
        <time>2021-07-13T10:08:53Z</time>
      </trkpt>
      <trkpt lat="44.9689" lon="3.88409">
        <ele>869.99</ele>
        <time>2021-07-13T10:08:54Z</time>
      </trkpt>
      <trkpt lat="44.96894" lon="3.88394">
        <ele>869.9</ele>
        <time>2021-07-13T10:08:56Z</time>
      </trkpt>
      <trkpt lat="44.96895" lon="3.88386">
        <ele>869.87</ele>
        <time>2021-07-13T10:08:57Z</time>
      </trkpt>
      <trkpt lat="44.96897" lon="3.88377">
        <ele>869.84</ele>
        <time>2021-07-13T10:08:58Z</time>
      </trkpt>
      <trkpt lat="44.96908" lon="3.88318">
        <ele>868.98</ele>
        <time>2021-07-13T10:09:04Z</time>
      </trkpt>
      <trkpt lat="44.96939" lon="3.88246">
        <ele>866.74</ele>
        <time>2021-07-13T10:09:12Z</time>
      </trkpt>
      <trkpt lat="44.96946" lon="3.88229">
        <ele>866.15</ele>
        <time>2021-07-13T10:09:14Z</time>
      </trkpt>
      <trkpt lat="44.96974" lon="3.88159">
        <ele>864.03</ele>
        <time>2021-07-13T10:09:25Z</time>
      </trkpt>
      <trkpt lat="44.96977" lon="3.88154">
        <ele>863.88</ele>
        <time>2021-07-13T10:09:26Z</time>
      </trkpt>
      <trkpt lat="44.96981" lon="3.88142">
        <ele>863.67</ele>
        <time>2021-07-13T10:09:28Z</time>
      </trkpt>
      <trkpt lat="44.96989" lon="3.88109">
        <ele>863.24</ele>
        <time>2021-07-13T10:09:35Z</time>
      </trkpt>
      <trkpt lat="44.96986" lon="3.88107">
        <ele>863.21</ele>
        <time>2021-07-13T10:09:36Z</time>
      </trkpt>
      <trkpt lat="44.96963" lon="3.881">
        <ele>863.04</ele>
        <time>2021-07-13T10:09:47Z</time>
      </trkpt>
      <trkpt lat="44.96959" lon="3.88103">
        <ele>862.79</ele>
        <time>2021-07-13T10:10:06Z</time>
      </trkpt>
      <trkpt lat="44.96958" lon="3.88102">
        <ele>863.39</ele>
        <time>2021-07-13T10:10:33Z</time>
      </trkpt>
      <trkpt lat="44.96967" lon="3.88097">
        <ele>863.59</ele>
        <time>2021-07-13T10:10:54Z</time>
      </trkpt>
      <trkpt lat="44.96988" lon="3.88111">
        <ele>862.89</ele>
        <time>2021-07-13T10:11:03Z</time>
      </trkpt>
      <trkpt lat="44.9699" lon="3.88109">
        <ele>862.85</ele>
        <time>2021-07-13T10:11:04Z</time>
      </trkpt>
      <trkpt lat="44.96992" lon="3.88105">
        <ele>862.78</ele>
        <time>2021-07-13T10:11:05Z</time>
      </trkpt>
      <trkpt lat="44.97018" lon="3.88027">
        <ele>862.86</ele>
        <time>2021-07-13T10:11:19Z</time>
      </trkpt>
      <trkpt lat="44.97023" lon="3.88012">
        <ele>862.79</ele>
        <time>2021-07-13T10:11:28Z</time>
      </trkpt>
      <trkpt lat="44.97024" lon="3.88011">
        <ele>862.71</ele>
        <time>2021-07-13T10:12:04Z</time>
      </trkpt>
      <trkpt lat="44.97024" lon="3.88008">
        <ele>862.78</ele>
        <time>2021-07-13T10:12:08Z</time>
      </trkpt>
      <trkpt lat="44.97025" lon="3.88006">
        <ele>862.76</ele>
        <time>2021-07-13T10:12:09Z</time>
      </trkpt>
      <trkpt lat="44.97025" lon="3.88005">
        <ele>862.72</ele>
        <time>2021-07-13T10:12:10Z</time>
      </trkpt>
      <trkpt lat="44.97026" lon="3.88002">
        <ele>862.67</ele>
        <time>2021-07-13T10:12:11Z</time>
      </trkpt>
      <trkpt lat="44.97026" lon="3.88">
        <ele>862.62</ele>
        <time>2021-07-13T10:12:12Z</time>
      </trkpt>
      <trkpt lat="44.97036" lon="3.87959">
        <ele>862.71</ele>
        <time>2021-07-13T10:12:21Z</time>
      </trkpt>
      <trkpt lat="44.97048" lon="3.87907">
        <ele>862.62</ele>
        <time>2021-07-13T10:12:30Z</time>
      </trkpt>
      <trkpt lat="44.97061" lon="3.87809">
        <ele>863.19</ele>
        <time>2021-07-13T10:12:47Z</time>
      </trkpt>
      <trkpt lat="44.97038" lon="3.877">
        <ele>863.19</ele>
        <time>2021-07-13T10:13:02Z</time>
      </trkpt>
      <trkpt lat="44.97014" lon="3.87638">
        <ele>862.52</ele>
        <time>2021-07-13T10:13:10Z</time>
      </trkpt>
      <trkpt lat="44.97003" lon="3.87591">
        <ele>862.09</ele>
        <time>2021-07-13T10:13:15Z</time>
      </trkpt>
      <trkpt lat="44.97005" lon="3.87505">
        <ele>860.87</ele>
        <time>2021-07-13T10:13:25Z</time>
      </trkpt>
      <trkpt lat="44.97007" lon="3.8745">
        <ele>860</ele>
        <time>2021-07-13T10:13:37Z</time>
      </trkpt>
      <trkpt lat="44.97007" lon="3.87445">
        <ele>859.62</ele>
        <time>2021-07-13T10:13:51Z</time>
      </trkpt>
      <trkpt lat="44.97005" lon="3.87443">
        <ele>859.21</ele>
        <time>2021-07-13T10:14:16Z</time>
      </trkpt>
      <trkpt lat="44.97005" lon="3.87441">
        <ele>859.6</ele>
        <time>2021-07-13T10:14:30Z</time>
      </trkpt>
      <trkpt lat="44.97005" lon="3.87438">
        <ele>859.59</ele>
        <time>2021-07-13T10:14:31Z</time>
      </trkpt>
      <trkpt lat="44.97005" lon="3.8743">
        <ele>859.57</ele>
        <time>2021-07-13T10:14:33Z</time>
      </trkpt>
      <trkpt lat="44.97004" lon="3.87409">
        <ele>859.38</ele>
        <time>2021-07-13T10:14:37Z</time>
      </trkpt>
      <trkpt lat="44.97005" lon="3.87402">
        <ele>859.29</ele>
        <time>2021-07-13T10:14:38Z</time>
      </trkpt>
      <trkpt lat="44.97006" lon="3.87385">
        <ele>859.05</ele>
        <time>2021-07-13T10:14:40Z</time>
      </trkpt>
      <trkpt lat="44.97013" lon="3.87348">
        <ele>858.33</ele>
        <time>2021-07-13T10:14:44Z</time>
      </trkpt>
      <trkpt lat="44.97016" lon="3.87338">
        <ele>858.1</ele>
        <time>2021-07-13T10:14:45Z</time>
      </trkpt>
      <trkpt lat="44.9702" lon="3.87329">
        <ele>857.88</ele>
        <time>2021-07-13T10:14:46Z</time>
      </trkpt>
      <trkpt lat="44.97024" lon="3.87321">
        <ele>857.62</ele>
        <time>2021-07-13T10:14:47Z</time>
      </trkpt>
      <trkpt lat="44.9703" lon="3.87314">
        <ele>857.36</ele>
        <time>2021-07-13T10:14:48Z</time>
      </trkpt>
      <trkpt lat="44.97035" lon="3.87307">
        <ele>857.13</ele>
        <time>2021-07-13T10:14:49Z</time>
      </trkpt>
      <trkpt lat="44.97098" lon="3.87241">
        <ele>855.49</ele>
        <time>2021-07-13T10:15:02Z</time>
      </trkpt>
      <trkpt lat="44.97123" lon="3.87205">
        <ele>855.93</ele>
        <time>2021-07-13T10:15:09Z</time>
      </trkpt>
      <trkpt lat="44.97126" lon="3.87199">
        <ele>856.01</ele>
        <time>2021-07-13T10:15:10Z</time>
      </trkpt>
      <trkpt lat="44.97129" lon="3.87193">
        <ele>856.08</ele>
        <time>2021-07-13T10:15:11Z</time>
      </trkpt>
      <trkpt lat="44.97137" lon="3.87173">
        <ele>856.21</ele>
        <time>2021-07-13T10:15:14Z</time>
      </trkpt>
      <trkpt lat="44.9714" lon="3.87166">
        <ele>856.23</ele>
        <time>2021-07-13T10:15:15Z</time>
      </trkpt>
      <trkpt lat="44.97151" lon="3.87137">
        <ele>856.16</ele>
        <time>2021-07-13T10:15:19Z</time>
      </trkpt>
      <trkpt lat="44.97171" lon="3.87041">
        <ele>855.9</ele>
        <time>2021-07-13T10:15:30Z</time>
      </trkpt>
      <trkpt lat="44.97173" lon="3.87031">
        <ele>855.89</ele>
        <time>2021-07-13T10:15:31Z</time>
      </trkpt>
      <trkpt lat="44.97177" lon="3.87021">
        <ele>855.79</ele>
        <time>2021-07-13T10:15:32Z</time>
      </trkpt>
      <trkpt lat="44.97181" lon="3.87011">
        <ele>855.57</ele>
        <time>2021-07-13T10:15:33Z</time>
      </trkpt>
      <trkpt lat="44.97187" lon="3.87003">
        <ele>855.29</ele>
        <time>2021-07-13T10:15:34Z</time>
      </trkpt>
      <trkpt lat="44.97194" lon="3.86995">
        <ele>854.96</ele>
        <time>2021-07-13T10:15:35Z</time>
      </trkpt>
      <trkpt lat="44.97223" lon="3.86963">
        <ele>853.72</ele>
        <time>2021-07-13T10:15:39Z</time>
      </trkpt>
      <trkpt lat="44.97229" lon="3.86952">
        <ele>853.3</ele>
        <time>2021-07-13T10:15:40Z</time>
      </trkpt>
      <trkpt lat="44.97233" lon="3.8694">
        <ele>852.78</ele>
        <time>2021-07-13T10:15:41Z</time>
      </trkpt>
      <trkpt lat="44.97234" lon="3.86927">
        <ele>851.67</ele>
        <time>2021-07-13T10:15:42Z</time>
      </trkpt>
      <trkpt lat="44.97234" lon="3.86914">
        <ele>851.21</ele>
        <time>2021-07-13T10:15:43Z</time>
      </trkpt>
      <trkpt lat="44.97234" lon="3.869">
        <ele>850.7</ele>
        <time>2021-07-13T10:15:44Z</time>
      </trkpt>
      <trkpt lat="44.97234" lon="3.86838">
        <ele>848.37</ele>
        <time>2021-07-13T10:15:49Z</time>
      </trkpt>
      <trkpt lat="44.97235" lon="3.86826">
        <ele>847.99</ele>
        <time>2021-07-13T10:15:50Z</time>
      </trkpt>
      <trkpt lat="44.97238" lon="3.86813">
        <ele>847.58</ele>
        <time>2021-07-13T10:15:51Z</time>
      </trkpt>
      <trkpt lat="44.97244" lon="3.86788">
        <ele>846.56</ele>
        <time>2021-07-13T10:15:53Z</time>
      </trkpt>
      <trkpt lat="44.97248" lon="3.86775">
        <ele>846.04</ele>
        <time>2021-07-13T10:15:54Z</time>
      </trkpt>
      <trkpt lat="44.97262" lon="3.86722">
        <ele>844.37</ele>
        <time>2021-07-13T10:15:58Z</time>
      </trkpt>
      <trkpt lat="44.97264" lon="3.86708">
        <ele>844.02</ele>
        <time>2021-07-13T10:15:59Z</time>
      </trkpt>
      <trkpt lat="44.97264" lon="3.86694">
        <ele>843.7</ele>
        <time>2021-07-13T10:16:00Z</time>
      </trkpt>
      <trkpt lat="44.97263" lon="3.8668">
        <ele>843.42</ele>
        <time>2021-07-13T10:16:01Z</time>
      </trkpt>
      <trkpt lat="44.97261" lon="3.86666">
        <ele>843.18</ele>
        <time>2021-07-13T10:16:02Z</time>
      </trkpt>
      <trkpt lat="44.97259" lon="3.86652">
        <ele>842.97</ele>
        <time>2021-07-13T10:16:03Z</time>
      </trkpt>
      <trkpt lat="44.97255" lon="3.86624">
        <ele>842.53</ele>
        <time>2021-07-13T10:16:05Z</time>
      </trkpt>
      <trkpt lat="44.97257" lon="3.86565">
        <ele>840.49</ele>
        <time>2021-07-13T10:16:09Z</time>
      </trkpt>
      <trkpt lat="44.97261" lon="3.86551">
        <ele>840.07</ele>
        <time>2021-07-13T10:16:10Z</time>
      </trkpt>
      <trkpt lat="44.97266" lon="3.86539">
        <ele>839.65</ele>
        <time>2021-07-13T10:16:11Z</time>
      </trkpt>
      <trkpt lat="44.97274" lon="3.86529">
        <ele>839.23</ele>
        <time>2021-07-13T10:16:12Z</time>
      </trkpt>
      <trkpt lat="44.97283" lon="3.86523">
        <ele>838.78</ele>
        <time>2021-07-13T10:16:13Z</time>
      </trkpt>
      <trkpt lat="44.97293" lon="3.8652">
        <ele>838.31</ele>
        <time>2021-07-13T10:16:14Z</time>
      </trkpt>
      <trkpt lat="44.97303" lon="3.86522">
        <ele>837.88</ele>
        <time>2021-07-13T10:16:15Z</time>
      </trkpt>
      <trkpt lat="44.97313" lon="3.86527">
        <ele>837.51</ele>
        <time>2021-07-13T10:16:16Z</time>
      </trkpt>
      <trkpt lat="44.97321" lon="3.86535">
        <ele>837.18</ele>
        <time>2021-07-13T10:16:17Z</time>
      </trkpt>
      <trkpt lat="44.97326" lon="3.86545">
        <ele>836.89</ele>
        <time>2021-07-13T10:16:18Z</time>
      </trkpt>
      <trkpt lat="44.9733" lon="3.86557">
        <ele>836.66</ele>
        <time>2021-07-13T10:16:19Z</time>
      </trkpt>
      <trkpt lat="44.97332" lon="3.86568">
        <ele>836.47</ele>
        <time>2021-07-13T10:16:20Z</time>
      </trkpt>
      <trkpt lat="44.97335" lon="3.86579">
        <ele>836.34</ele>
        <time>2021-07-13T10:16:21Z</time>
      </trkpt>
      <trkpt lat="44.97349" lon="3.8667">
        <ele>838.12</ele>
        <time>2021-07-13T10:16:31Z</time>
      </trkpt>
      <trkpt lat="44.9735" lon="3.86677">
        <ele>838.33</ele>
        <time>2021-07-13T10:16:32Z</time>
      </trkpt>
      <trkpt lat="44.97364" lon="3.8674">
        <ele>840.08</ele>
        <time>2021-07-13T10:16:42Z</time>
      </trkpt>
      <trkpt lat="44.97364" lon="3.86825">
        <ele>843.36</ele>
        <time>2021-07-13T10:16:57Z</time>
      </trkpt>
      <trkpt lat="44.97359" lon="3.86898">
        <ele>844.95</ele>
        <time>2021-07-13T10:17:11Z</time>
      </trkpt>
      <trkpt lat="44.97359" lon="3.86904">
        <ele>845.01</ele>
        <time>2021-07-13T10:17:12Z</time>
      </trkpt>
      <trkpt lat="44.9736" lon="3.86915">
        <ele>845.17</ele>
        <time>2021-07-13T10:17:14Z</time>
      </trkpt>
      <trkpt lat="44.97361" lon="3.86921">
        <ele>845.25</ele>
        <time>2021-07-13T10:17:15Z</time>
      </trkpt>
      <trkpt lat="44.97362" lon="3.86926">
        <ele>845.32</ele>
        <time>2021-07-13T10:17:16Z</time>
      </trkpt>
      <trkpt lat="44.97376" lon="3.86982">
        <ele>847.22</ele>
        <time>2021-07-13T10:17:30Z</time>
      </trkpt>
      <trkpt lat="44.97394" lon="3.87021">
        <ele>849.68</ele>
        <time>2021-07-13T10:17:44Z</time>
      </trkpt>
      <trkpt lat="44.97418" lon="3.87047">
        <ele>851.78</ele>
        <time>2021-07-13T10:17:57Z</time>
      </trkpt>
      <trkpt lat="44.97436" lon="3.8705">
        <ele>852.78</ele>
        <time>2021-07-13T10:18:06Z</time>
      </trkpt>
      <trkpt lat="44.97438" lon="3.8705">
        <ele>852.9</ele>
        <time>2021-07-13T10:18:07Z</time>
      </trkpt>
      <trkpt lat="44.97441" lon="3.8705">
        <ele>853.04</ele>
        <time>2021-07-13T10:18:08Z</time>
      </trkpt>
      <trkpt lat="44.97443" lon="3.87049">
        <ele>853.17</ele>
        <time>2021-07-13T10:18:09Z</time>
      </trkpt>
      <trkpt lat="44.97445" lon="3.87049">
        <ele>853.26</ele>
        <time>2021-07-13T10:18:10Z</time>
      </trkpt>
      <trkpt lat="44.97447" lon="3.87049">
        <ele>853.53</ele>
        <time>2021-07-13T10:18:11Z</time>
      </trkpt>
      <trkpt lat="44.97449" lon="3.87048">
        <ele>853.65</ele>
        <time>2021-07-13T10:18:12Z</time>
      </trkpt>
      <trkpt lat="44.97451" lon="3.87047">
        <ele>853.76</ele>
        <time>2021-07-13T10:18:13Z</time>
      </trkpt>
      <trkpt lat="44.97453" lon="3.87046">
        <ele>853.87</ele>
        <time>2021-07-13T10:18:14Z</time>
      </trkpt>
      <trkpt lat="44.97455" lon="3.87045">
        <ele>854.03</ele>
        <time>2021-07-13T10:18:15Z</time>
      </trkpt>
      <trkpt lat="44.97457" lon="3.87044">
        <ele>854.16</ele>
        <time>2021-07-13T10:18:16Z</time>
      </trkpt>
      <trkpt lat="44.97476" lon="3.87028">
        <ele>855.26</ele>
        <time>2021-07-13T10:18:27Z</time>
      </trkpt>
      <trkpt lat="44.97501" lon="3.87012">
        <ele>856.63</ele>
        <time>2021-07-13T10:18:39Z</time>
      </trkpt>
      <trkpt lat="44.97527" lon="3.86997">
        <ele>857.67</ele>
        <time>2021-07-13T10:18:50Z</time>
      </trkpt>
      <trkpt lat="44.97562" lon="3.86983">
        <ele>858.93</ele>
        <time>2021-07-13T10:19:02Z</time>
      </trkpt>
      <trkpt lat="44.97595" lon="3.86963">
        <ele>860.43</ele>
        <time>2021-07-13T10:19:16Z</time>
      </trkpt>
      <trkpt lat="44.97597" lon="3.86961">
        <ele>860.53</ele>
        <time>2021-07-13T10:19:17Z</time>
      </trkpt>
      <trkpt lat="44.97623" lon="3.86937">
        <ele>861.91</ele>
        <time>2021-07-13T10:19:28Z</time>
      </trkpt>
      <trkpt lat="44.97656" lon="3.8691">
        <ele>863.04</ele>
        <time>2021-07-13T10:19:40Z</time>
      </trkpt>
      <trkpt lat="44.97695" lon="3.86901">
        <ele>865</ele>
        <time>2021-07-13T10:19:53Z</time>
      </trkpt>
      <trkpt lat="44.97714" lon="3.8689">
        <ele>865.69</ele>
        <time>2021-07-13T10:20:00Z</time>
      </trkpt>
      <trkpt lat="44.97716" lon="3.86888">
        <ele>865.79</ele>
        <time>2021-07-13T10:20:01Z</time>
      </trkpt>
      <trkpt lat="44.97746" lon="3.8687">
        <ele>867.19</ele>
        <time>2021-07-13T10:20:13Z</time>
      </trkpt>
      <trkpt lat="44.97782" lon="3.86846">
        <ele>868.33</ele>
        <time>2021-07-13T10:20:26Z</time>
      </trkpt>
      <trkpt lat="44.97813" lon="3.86827">
        <ele>869.42</ele>
        <time>2021-07-13T10:20:37Z</time>
      </trkpt>
      <trkpt lat="44.97845" lon="3.86802">
        <ele>870.43</ele>
        <time>2021-07-13T10:20:49Z</time>
      </trkpt>
      <trkpt lat="44.97884" lon="3.86782">
        <ele>871.27</ele>
        <time>2021-07-13T10:21:03Z</time>
      </trkpt>
      <trkpt lat="44.97909" lon="3.8677">
        <ele>872.87</ele>
        <time>2021-07-13T10:21:13Z</time>
      </trkpt>
      <trkpt lat="44.9794" lon="3.86769">
        <ele>874.48</ele>
        <time>2021-07-13T10:21:24Z</time>
      </trkpt>
      <trkpt lat="44.97983" lon="3.86779">
        <ele>874.95</ele>
        <time>2021-07-13T10:21:37Z</time>
      </trkpt>
      <trkpt lat="44.98018" lon="3.86787">
        <ele>876.5</ele>
        <time>2021-07-13T10:21:49Z</time>
      </trkpt>
      <trkpt lat="44.98059" lon="3.86798">
        <ele>878.43</ele>
        <time>2021-07-13T10:22:03Z</time>
      </trkpt>
      <trkpt lat="44.98093" lon="3.86806">
        <ele>879.59</ele>
        <time>2021-07-13T10:22:15Z</time>
      </trkpt>
      <trkpt lat="44.98132" lon="3.86829">
        <ele>879.58</ele>
        <time>2021-07-13T10:22:28Z</time>
      </trkpt>
      <trkpt lat="44.98167" lon="3.86873">
        <ele>881.8</ele>
        <time>2021-07-13T10:22:42Z</time>
      </trkpt>
      <trkpt lat="44.98215" lon="3.86955">
        <ele>884.12</ele>
        <time>2021-07-13T10:23:04Z</time>
      </trkpt>
      <trkpt lat="44.98256" lon="3.86998">
        <ele>885.59</ele>
        <time>2021-07-13T10:23:19Z</time>
      </trkpt>
      <trkpt lat="44.98308" lon="3.87022">
        <ele>886.81</ele>
        <time>2021-07-13T10:23:35Z</time>
      </trkpt>
      <trkpt lat="44.98367" lon="3.8702">
        <ele>888.16</ele>
        <time>2021-07-13T10:23:52Z</time>
      </trkpt>
      <trkpt lat="44.98429" lon="3.86994">
        <ele>889.98</ele>
        <time>2021-07-13T10:24:11Z</time>
      </trkpt>
      <trkpt lat="44.98483" lon="3.86947">
        <ele>891.56</ele>
        <time>2021-07-13T10:24:29Z</time>
      </trkpt>
      <trkpt lat="44.98545" lon="3.869">
        <ele>892.62</ele>
        <time>2021-07-13T10:24:49Z</time>
      </trkpt>
      <trkpt lat="44.98613" lon="3.86846">
        <ele>893.5</ele>
        <time>2021-07-13T10:25:11Z</time>
      </trkpt>
      <trkpt lat="44.98656" lon="3.86778">
        <ele>893.66</ele>
        <time>2021-07-13T10:25:29Z</time>
      </trkpt>
      <trkpt lat="44.98692" lon="3.8672">
        <ele>895.05</ele>
        <time>2021-07-13T10:25:45Z</time>
      </trkpt>
      <trkpt lat="44.98731" lon="3.86666">
        <ele>897.39</ele>
        <time>2021-07-13T10:26:01Z</time>
      </trkpt>
      <trkpt lat="44.98769" lon="3.86613">
        <ele>900.29</ele>
        <time>2021-07-13T10:26:18Z</time>
      </trkpt>
      <trkpt lat="44.988" lon="3.86569">
        <ele>903.22</ele>
        <time>2021-07-13T10:26:35Z</time>
      </trkpt>
      <trkpt lat="44.98831" lon="3.8652">
        <ele>906.07</ele>
        <time>2021-07-13T10:26:53Z</time>
      </trkpt>
      <trkpt lat="44.98866" lon="3.86488">
        <ele>907.25</ele>
        <time>2021-07-13T10:27:07Z</time>
      </trkpt>
      <trkpt lat="44.98915" lon="3.86458">
        <ele>908.39</ele>
        <time>2021-07-13T10:27:24Z</time>
      </trkpt>
      <trkpt lat="44.98971" lon="3.86431">
        <ele>910.52</ele>
        <time>2021-07-13T10:27:44Z</time>
      </trkpt>
      <trkpt lat="44.98988" lon="3.86418">
        <ele>911.43</ele>
        <time>2021-07-13T10:27:55Z</time>
      </trkpt>
      <trkpt lat="44.98991" lon="3.86418">
        <ele>911.72</ele>
        <time>2021-07-13T10:28:17Z</time>
      </trkpt>
      <trkpt lat="44.98992" lon="3.86417">
        <ele>911.75</ele>
        <time>2021-07-13T10:28:18Z</time>
      </trkpt>
      <trkpt lat="44.98992" lon="3.86415">
        <ele>911.78</ele>
        <time>2021-07-13T10:28:19Z</time>
      </trkpt>
      <trkpt lat="44.98992" lon="3.86412">
        <ele>911.84</ele>
        <time>2021-07-13T10:28:20Z</time>
      </trkpt>
      <trkpt lat="44.98992" lon="3.86409">
        <ele>911.89</ele>
        <time>2021-07-13T10:28:21Z</time>
      </trkpt>
      <trkpt lat="44.98991" lon="3.86406">
        <ele>911.94</ele>
        <time>2021-07-13T10:28:22Z</time>
      </trkpt>
      <trkpt lat="44.9899" lon="3.86403">
        <ele>911.99</ele>
        <time>2021-07-13T10:28:23Z</time>
      </trkpt>
      <trkpt lat="44.98989" lon="3.864">
        <ele>912.04</ele>
        <time>2021-07-13T10:28:24Z</time>
      </trkpt>
      <trkpt lat="44.98989" lon="3.86398">
        <ele>912.1</ele>
        <time>2021-07-13T10:28:25Z</time>
      </trkpt>
      <trkpt lat="44.9899" lon="3.86396">
        <ele>912.75</ele>
        <time>2021-07-13T10:28:37Z</time>
      </trkpt>
      <trkpt lat="44.99003" lon="3.86392">
        <ele>882.64</ele>
        <time>2021-07-13T10:30:22Z</time>
      </trkpt>
      <trkpt lat="44.99" lon="3.86396">
        <ele>882.58</ele>
        <time>2021-07-13T10:30:24Z</time>
      </trkpt>
      <trkpt lat="44.98994" lon="3.86395">
        <ele>882.22</ele>
        <time>2021-07-13T10:30:29Z</time>
      </trkpt>
      <trkpt lat="44.9899" lon="3.86396">
        <ele>882.37</ele>
        <time>2021-07-13T10:31:00Z</time>
      </trkpt>
      <trkpt lat="44.98992" lon="3.864">
        <ele>882.39</ele>
        <time>2021-07-13T10:31:30Z</time>
      </trkpt>
      <trkpt lat="44.98993" lon="3.86398">
        <ele>882.91</ele>
        <time>2021-07-13T10:32:07Z</time>
      </trkpt>
      <trkpt lat="44.98991" lon="3.86403">
        <ele>882.99</ele>
        <time>2021-07-13T10:32:43Z</time>
      </trkpt>
      <trkpt lat="44.98991" lon="3.86401">
        <ele>882.85</ele>
        <time>2021-07-13T10:33:12Z</time>
      </trkpt>
      <trkpt lat="44.98989" lon="3.86403">
        <ele>883.32</ele>
        <time>2021-07-13T10:33:43Z</time>
      </trkpt>
      <trkpt lat="44.98989" lon="3.86398">
        <ele>882.99</ele>
        <time>2021-07-13T10:34:13Z</time>
      </trkpt>
      <trkpt lat="44.98989" lon="3.86402">
        <ele>882.9</ele>
        <time>2021-07-13T10:35:01Z</time>
      </trkpt>
      <trkpt lat="44.98992" lon="3.86398">
        <ele>883.09</ele>
        <time>2021-07-13T10:35:43Z</time>
      </trkpt>
      <trkpt lat="44.98991" lon="3.86396">
        <ele>883.49</ele>
        <time>2021-07-13T10:36:06Z</time>
      </trkpt>
      <trkpt lat="44.98991" lon="3.86392">
        <ele>883.21</ele>
        <time>2021-07-13T10:36:11Z</time>
      </trkpt>
      <trkpt lat="44.98991" lon="3.86386">
        <ele>883.34</ele>
        <time>2021-07-13T10:36:14Z</time>
      </trkpt>
      <trkpt lat="44.98996" lon="3.86334">
        <ele>883.42</ele>
        <time>2021-07-13T10:36:26Z</time>
      </trkpt>
      <trkpt lat="44.99005" lon="3.86256">
        <ele>884.02</ele>
        <time>2021-07-13T10:36:42Z</time>
      </trkpt>
      <trkpt lat="44.99016" lon="3.8618">
        <ele>884.12</ele>
        <time>2021-07-13T10:36:57Z</time>
      </trkpt>
      <trkpt lat="44.99033" lon="3.8606">
        <ele>882.61</ele>
        <time>2021-07-13T10:37:16Z</time>
      </trkpt>
      <trkpt lat="44.99047" lon="3.85956">
        <ele>880.81</ele>
        <time>2021-07-13T10:37:32Z</time>
      </trkpt>
      <trkpt lat="44.99061" lon="3.85838">
        <ele>881.06</ele>
        <time>2021-07-13T10:37:51Z</time>
      </trkpt>
      <trkpt lat="44.99071" lon="3.8576">
        <ele>882.25</ele>
        <time>2021-07-13T10:38:06Z</time>
      </trkpt>
      <trkpt lat="44.99081" lon="3.8569">
        <ele>884.77</ele>
        <time>2021-07-13T10:38:22Z</time>
      </trkpt>
      <trkpt lat="44.99086" lon="3.85647">
        <ele>887.81</ele>
        <time>2021-07-13T10:38:33Z</time>
      </trkpt>
      <trkpt lat="44.99103" lon="3.85588">
        <ele>890.73</ele>
        <time>2021-07-13T10:38:51Z</time>
      </trkpt>
      <trkpt lat="44.99118" lon="3.85561">
        <ele>893.82</ele>
        <time>2021-07-13T10:39:03Z</time>
      </trkpt>
      <trkpt lat="44.99139" lon="3.85524">
        <ele>896.35</ele>
        <time>2021-07-13T10:39:21Z</time>
      </trkpt>
      <trkpt lat="44.99156" lon="3.85479">
        <ele>899.39</ele>
        <time>2021-07-13T10:39:40Z</time>
      </trkpt>
      <trkpt lat="44.99166" lon="3.8541">
        <ele>900.4</ele>
        <time>2021-07-13T10:40:00Z</time>
      </trkpt>
      <trkpt lat="44.99166" lon="3.85381">
        <ele>900.21</ele>
        <time>2021-07-13T10:40:14Z</time>
      </trkpt>
      <trkpt lat="44.99166" lon="3.85382">
        <ele>899.87</ele>
        <time>2021-07-13T10:40:45Z</time>
      </trkpt>
      <trkpt lat="44.99166" lon="3.85382">
        <ele>900.04</ele>
        <time>2021-07-13T10:41:49Z</time>
      </trkpt>
      <trkpt lat="44.99167" lon="3.85383">
        <ele>900.07</ele>
        <time>2021-07-13T10:42:24Z</time>
      </trkpt>
      <trkpt lat="44.9917" lon="3.8538">
        <ele>900.35</ele>
        <time>2021-07-13T10:42:31Z</time>
      </trkpt>
      <trkpt lat="44.99171" lon="3.85378">
        <ele>900.38</ele>
        <time>2021-07-13T10:42:32Z</time>
      </trkpt>
      <trkpt lat="44.99171" lon="3.85376">
        <ele>900.41</ele>
        <time>2021-07-13T10:42:33Z</time>
      </trkpt>
      <trkpt lat="44.99178" lon="3.85327">
        <ele>900.78</ele>
        <time>2021-07-13T10:42:45Z</time>
      </trkpt>
      <trkpt lat="44.9919" lon="3.85258">
        <ele>900.05</ele>
        <time>2021-07-13T10:42:59Z</time>
      </trkpt>
      <trkpt lat="44.99226" lon="3.85168">
        <ele>900.86</ele>
        <time>2021-07-13T10:43:19Z</time>
      </trkpt>
      <trkpt lat="44.99231" lon="3.85159">
        <ele>900.98</ele>
        <time>2021-07-13T10:43:21Z</time>
      </trkpt>
      <trkpt lat="44.99248" lon="3.85071">
        <ele>901.85</ele>
        <time>2021-07-13T10:43:38Z</time>
      </trkpt>
      <trkpt lat="44.99237" lon="3.8496">
        <ele>903.07</ele>
        <time>2021-07-13T10:43:59Z</time>
      </trkpt>
      <trkpt lat="44.9923" lon="3.84893">
        <ele>904.57</ele>
        <time>2021-07-13T10:44:12Z</time>
      </trkpt>
      <trkpt lat="44.99217" lon="3.84789">
        <ele>903.17</ele>
        <time>2021-07-13T10:44:28Z</time>
      </trkpt>
      <trkpt lat="44.99217" lon="3.84776">
        <ele>903.13</ele>
        <time>2021-07-13T10:44:30Z</time>
      </trkpt>
      <trkpt lat="44.99218" lon="3.84769">
        <ele>903.12</ele>
        <time>2021-07-13T10:44:31Z</time>
      </trkpt>
      <trkpt lat="44.99231" lon="3.84716">
        <ele>903.17</ele>
        <time>2021-07-13T10:44:40Z</time>
      </trkpt>
      <trkpt lat="44.99232" lon="3.8471">
        <ele>903.16</ele>
        <time>2021-07-13T10:44:41Z</time>
      </trkpt>
      <trkpt lat="44.99232" lon="3.84704">
        <ele>903.15</ele>
        <time>2021-07-13T10:44:42Z</time>
      </trkpt>
      <trkpt lat="44.99232" lon="3.84698">
        <ele>903.26</ele>
        <time>2021-07-13T10:44:43Z</time>
      </trkpt>
      <trkpt lat="44.99232" lon="3.84692">
        <ele>903.26</ele>
        <time>2021-07-13T10:44:44Z</time>
      </trkpt>
      <trkpt lat="44.99231" lon="3.84686">
        <ele>903.32</ele>
        <time>2021-07-13T10:44:45Z</time>
      </trkpt>
      <trkpt lat="44.99215" lon="3.84579">
        <ele>903.36</ele>
        <time>2021-07-13T10:45:05Z</time>
      </trkpt>
      <trkpt lat="44.99194" lon="3.8446">
        <ele>904.42</ele>
        <time>2021-07-13T10:45:26Z</time>
      </trkpt>
      <trkpt lat="44.99176" lon="3.84343">
        <ele>904.59</ele>
        <time>2021-07-13T10:45:46Z</time>
      </trkpt>
      <trkpt lat="44.99158" lon="3.84214">
        <ele>905.31</ele>
        <time>2021-07-13T10:46:08Z</time>
      </trkpt>
      <trkpt lat="44.99164" lon="3.84097">
        <ele>904.28</ele>
        <time>2021-07-13T10:46:25Z</time>
      </trkpt>
      <trkpt lat="44.99177" lon="3.84008">
        <ele>903.15</ele>
        <time>2021-07-13T10:46:37Z</time>
      </trkpt>
      <trkpt lat="44.99176" lon="3.84">
        <ele>903.06</ele>
        <time>2021-07-13T10:46:38Z</time>
      </trkpt>
      <trkpt lat="44.99174" lon="3.83992">
        <ele>902.99</ele>
        <time>2021-07-13T10:46:39Z</time>
      </trkpt>
      <trkpt lat="44.99172" lon="3.83985">
        <ele>902.94</ele>
        <time>2021-07-13T10:46:40Z</time>
      </trkpt>
      <trkpt lat="44.99169" lon="3.83978">
        <ele>902.9</ele>
        <time>2021-07-13T10:46:41Z</time>
      </trkpt>
      <trkpt lat="44.99165" lon="3.83972">
        <ele>902.87</ele>
        <time>2021-07-13T10:46:42Z</time>
      </trkpt>
      <trkpt lat="44.99161" lon="3.83967">
        <ele>902.85</ele>
        <time>2021-07-13T10:46:43Z</time>
      </trkpt>
      <trkpt lat="44.99158" lon="3.83962">
        <ele>902.82</ele>
        <time>2021-07-13T10:46:44Z</time>
      </trkpt>
      <trkpt lat="44.99098" lon="3.83893">
        <ele>902.74</ele>
        <time>2021-07-13T10:47:01Z</time>
      </trkpt>
      <trkpt lat="44.99037" lon="3.83824">
        <ele>904.97</ele>
        <time>2021-07-13T10:47:19Z</time>
      </trkpt>
      <trkpt lat="44.98976" lon="3.83757">
        <ele>907.1</ele>
        <time>2021-07-13T10:47:39Z</time>
      </trkpt>
      <trkpt lat="44.98904" lon="3.83691">
        <ele>908.99</ele>
        <time>2021-07-13T10:48:00Z</time>
      </trkpt>
      <trkpt lat="44.98847" lon="3.83649">
        <ele>908.55</ele>
        <time>2021-07-13T10:48:13Z</time>
      </trkpt>
      <trkpt lat="44.98843" lon="3.83644">
        <ele>908.61</ele>
        <time>2021-07-13T10:48:14Z</time>
      </trkpt>
      <trkpt lat="44.9884" lon="3.83639">
        <ele>908.66</ele>
        <time>2021-07-13T10:48:15Z</time>
      </trkpt>
      <trkpt lat="44.98838" lon="3.83632">
        <ele>908.71</ele>
        <time>2021-07-13T10:48:16Z</time>
      </trkpt>
      <trkpt lat="44.98836" lon="3.83625">
        <ele>908.73</ele>
        <time>2021-07-13T10:48:17Z</time>
      </trkpt>
      <trkpt lat="44.98836" lon="3.83618">
        <ele>908.73</ele>
        <time>2021-07-13T10:48:18Z</time>
      </trkpt>
      <trkpt lat="44.98837" lon="3.83611">
        <ele>908.71</ele>
        <time>2021-07-13T10:48:19Z</time>
      </trkpt>
      <trkpt lat="44.9884" lon="3.83606">
        <ele>908.68</ele>
        <time>2021-07-13T10:48:20Z</time>
      </trkpt>
      <trkpt lat="44.98842" lon="3.83603">
        <ele>908.65</ele>
        <time>2021-07-13T10:48:21Z</time>
      </trkpt>
      <trkpt lat="44.98842" lon="3.836">
        <ele>908.6</ele>
        <time>2021-07-13T10:48:22Z</time>
      </trkpt>
      <trkpt lat="44.98842" lon="3.83597">
        <ele>908.58</ele>
        <time>2021-07-13T10:48:23Z</time>
      </trkpt>
      <trkpt lat="44.98842" lon="3.83595">
        <ele>908.56</ele>
        <time>2021-07-13T10:48:24Z</time>
      </trkpt>
      <trkpt lat="44.98842" lon="3.83593">
        <ele>908.55</ele>
        <time>2021-07-13T10:48:25Z</time>
      </trkpt>
      <trkpt lat="44.98833" lon="3.83575">
        <ele>908.75</ele>
        <time>2021-07-13T10:48:36Z</time>
      </trkpt>
      <trkpt lat="44.98836" lon="3.83568">
        <ele>908.07</ele>
        <time>2021-07-13T10:48:50Z</time>
      </trkpt>
      <trkpt lat="44.98833" lon="3.83563">
        <ele>908.45</ele>
        <time>2021-07-13T10:49:05Z</time>
      </trkpt>
      <trkpt lat="44.98806" lon="3.8353">
        <ele>909.24</ele>
        <time>2021-07-13T10:49:17Z</time>
      </trkpt>
      <trkpt lat="44.98778" lon="3.83476">
        <ele>910.48</ele>
        <time>2021-07-13T10:49:30Z</time>
      </trkpt>
      <trkpt lat="44.98776" lon="3.83471">
        <ele>910.56</ele>
        <time>2021-07-13T10:49:31Z</time>
      </trkpt>
      <trkpt lat="44.98773" lon="3.83467">
        <ele>910.56</ele>
        <time>2021-07-13T10:49:32Z</time>
      </trkpt>
      <trkpt lat="44.98728" lon="3.83429">
        <ele>911.76</ele>
        <time>2021-07-13T10:49:47Z</time>
      </trkpt>
      <trkpt lat="44.9869" lon="3.8337">
        <ele>912.88</ele>
        <time>2021-07-13T10:50:03Z</time>
      </trkpt>
      <trkpt lat="44.98671" lon="3.83342">
        <ele>913.26</ele>
        <time>2021-07-13T10:50:10Z</time>
      </trkpt>
      <trkpt lat="44.98669" lon="3.83337">
        <ele>913.26</ele>
        <time>2021-07-13T10:50:11Z</time>
      </trkpt>
      <trkpt lat="44.98666" lon="3.83333">
        <ele>913.27</ele>
        <time>2021-07-13T10:50:12Z</time>
      </trkpt>
      <trkpt lat="44.98644" lon="3.83303">
        <ele>913.43</ele>
        <time>2021-07-13T10:50:19Z</time>
      </trkpt>
      <trkpt lat="44.98641" lon="3.83299">
        <ele>913.45</ele>
        <time>2021-07-13T10:50:20Z</time>
      </trkpt>
      <trkpt lat="44.98631" lon="3.83287">
        <ele>913.59</ele>
        <time>2021-07-13T10:50:23Z</time>
      </trkpt>
      <trkpt lat="44.98628" lon="3.83284">
        <ele>913.68</ele>
        <time>2021-07-13T10:50:24Z</time>
      </trkpt>
      <trkpt lat="44.98612" lon="3.83265">
        <ele>913.81</ele>
        <time>2021-07-13T10:50:29Z</time>
      </trkpt>
      <trkpt lat="44.98545" lon="3.8318">
        <ele>914.62</ele>
        <time>2021-07-13T10:50:49Z</time>
      </trkpt>
      <trkpt lat="44.98475" lon="3.83094">
        <ele>915.48</ele>
        <time>2021-07-13T10:51:10Z</time>
      </trkpt>
      <trkpt lat="44.98403" lon="3.83006">
        <ele>916.39</ele>
        <time>2021-07-13T10:51:31Z</time>
      </trkpt>
      <trkpt lat="44.98333" lon="3.82921">
        <ele>918.57</ele>
        <time>2021-07-13T10:51:52Z</time>
      </trkpt>
      <trkpt lat="44.98266" lon="3.82838">
        <ele>920.64</ele>
        <time>2021-07-13T10:52:13Z</time>
      </trkpt>
      <trkpt lat="44.98238" lon="3.82796">
        <ele>920.65</ele>
        <time>2021-07-13T10:52:27Z</time>
      </trkpt>
      <trkpt lat="44.98238" lon="3.82795">
        <ele>920.76</ele>
        <time>2021-07-13T10:52:43Z</time>
      </trkpt>
      <trkpt lat="44.98239" lon="3.82793">
        <ele>920.73</ele>
        <time>2021-07-13T10:52:44Z</time>
      </trkpt>
      <trkpt lat="44.98242" lon="3.8279">
        <ele>920.75</ele>
        <time>2021-07-13T10:52:46Z</time>
      </trkpt>
      <trkpt lat="44.98294" lon="3.82752">
        <ele>920.9</ele>
        <time>2021-07-13T10:52:59Z</time>
      </trkpt>
      <trkpt lat="44.98409" lon="3.82671">
        <ele>919.48</ele>
        <time>2021-07-13T10:53:21Z</time>
      </trkpt>
      <trkpt lat="44.98517" lon="3.82595">
        <ele>917.17</ele>
        <time>2021-07-13T10:53:40Z</time>
      </trkpt>
      <trkpt lat="44.98668" lon="3.82487">
        <ele>915.76</ele>
        <time>2021-07-13T10:54:05Z</time>
      </trkpt>
      <trkpt lat="44.98809" lon="3.82387">
        <ele>912.74</ele>
        <time>2021-07-13T10:54:27Z</time>
      </trkpt>
      <trkpt lat="44.98958" lon="3.82282">
        <ele>909.64</ele>
        <time>2021-07-13T10:54:49Z</time>
      </trkpt>
      <trkpt lat="44.99079" lon="3.82196">
        <ele>907.91</ele>
        <time>2021-07-13T10:55:08Z</time>
      </trkpt>
      <trkpt lat="44.99196" lon="3.82113">
        <ele>906.95</ele>
        <time>2021-07-13T10:55:28Z</time>
      </trkpt>
      <trkpt lat="44.99316" lon="3.82028">
        <ele>906.78</ele>
        <time>2021-07-13T10:55:49Z</time>
      </trkpt>
      <trkpt lat="44.99447" lon="3.81938">
        <ele>903.7</ele>
        <time>2021-07-13T10:56:10Z</time>
      </trkpt>
      <trkpt lat="44.99504" lon="3.81901">
        <ele>900.89</ele>
        <time>2021-07-13T10:56:22Z</time>
      </trkpt>
      <trkpt lat="44.99516" lon="3.81891">
        <ele>899.36</ele>
        <time>2021-07-13T10:56:33Z</time>
      </trkpt>
      <trkpt lat="44.99518" lon="3.8189">
        <ele>899.08</ele>
        <time>2021-07-13T10:56:43Z</time>
      </trkpt>
      <trkpt lat="44.99519" lon="3.81888">
        <ele>899.18</ele>
        <time>2021-07-13T10:56:44Z</time>
      </trkpt>
      <trkpt lat="44.99521" lon="3.81887">
        <ele>899.28</ele>
        <time>2021-07-13T10:56:45Z</time>
      </trkpt>
      <trkpt lat="44.99524" lon="3.81884">
        <ele>899.36</ele>
        <time>2021-07-13T10:56:46Z</time>
      </trkpt>
      <trkpt lat="44.99527" lon="3.81882">
        <ele>899.44</ele>
        <time>2021-07-13T10:56:47Z</time>
      </trkpt>
      <trkpt lat="44.9959" lon="3.81835">
        <ele>897.31</ele>
        <time>2021-07-13T10:57:00Z</time>
      </trkpt>
      <trkpt lat="44.99717" lon="3.81743">
        <ele>894.23</ele>
        <time>2021-07-13T10:57:19Z</time>
      </trkpt>
      <trkpt lat="44.99849" lon="3.81649">
        <ele>893.19</ele>
        <time>2021-07-13T10:57:38Z</time>
      </trkpt>
      <trkpt lat="44.99989" lon="3.81551">
        <ele>891.72</ele>
        <time>2021-07-13T10:57:59Z</time>
      </trkpt>
      <trkpt lat="45.00142" lon="3.81442">
        <ele>889.61</ele>
        <time>2021-07-13T10:58:23Z</time>
      </trkpt>
      <trkpt lat="45.00264" lon="3.81334">
        <ele>888.42</ele>
        <time>2021-07-13T10:58:43Z</time>
      </trkpt>
      <trkpt lat="45.00382" lon="3.81201">
        <ele>886.6</ele>
        <time>2021-07-13T10:59:04Z</time>
      </trkpt>
      <trkpt lat="45.00508" lon="3.81057">
        <ele>885.16</ele>
        <time>2021-07-13T10:59:26Z</time>
      </trkpt>
      <trkpt lat="45.00593" lon="3.80959">
        <ele>886.24</ele>
        <time>2021-07-13T10:59:43Z</time>
      </trkpt>
      <trkpt lat="45.00673" lon="3.80867">
        <ele>888.3</ele>
        <time>2021-07-13T11:00:02Z</time>
      </trkpt>
      <trkpt lat="45.00746" lon="3.80784">
        <ele>889.84</ele>
        <time>2021-07-13T11:00:22Z</time>
      </trkpt>
      <trkpt lat="45.00835" lon="3.80681">
        <ele>890.4</ele>
        <time>2021-07-13T11:00:47Z</time>
      </trkpt>
      <trkpt lat="45.00918" lon="3.80588">
        <ele>891.29</ele>
        <time>2021-07-13T11:01:09Z</time>
      </trkpt>
      <trkpt lat="45.01001" lon="3.80494">
        <ele>890.37</ele>
        <time>2021-07-13T11:01:29Z</time>
      </trkpt>
      <trkpt lat="45.0101" lon="3.80487">
        <ele>890.31</ele>
        <time>2021-07-13T11:01:31Z</time>
      </trkpt>
      <trkpt lat="45.01014" lon="3.80484">
        <ele>890.27</ele>
        <time>2021-07-13T11:01:32Z</time>
      </trkpt>
      <trkpt lat="45.01019" lon="3.80482">
        <ele>890.1</ele>
        <time>2021-07-13T11:01:33Z</time>
      </trkpt>
      <trkpt lat="45.01023" lon="3.80478">
        <ele>890.02</ele>
        <time>2021-07-13T11:01:34Z</time>
      </trkpt>
      <trkpt lat="45.01027" lon="3.80472">
        <ele>889.91</ele>
        <time>2021-07-13T11:01:35Z</time>
      </trkpt>
      <trkpt lat="45.01028" lon="3.80466">
        <ele>889.79</ele>
        <time>2021-07-13T11:01:36Z</time>
      </trkpt>
      <trkpt lat="45.01028" lon="3.80459">
        <ele>889.7</ele>
        <time>2021-07-13T11:01:37Z</time>
      </trkpt>
      <trkpt lat="45.01026" lon="3.80453">
        <ele>889.63</ele>
        <time>2021-07-13T11:01:38Z</time>
      </trkpt>
      <trkpt lat="45.01024" lon="3.80448">
        <ele>889.61</ele>
        <time>2021-07-13T11:01:39Z</time>
      </trkpt>
      <trkpt lat="45.01021" lon="3.80437">
        <ele>889.5</ele>
        <time>2021-07-13T11:01:41Z</time>
      </trkpt>
      <trkpt lat="45.0102" lon="3.80431">
        <ele>889.46</ele>
        <time>2021-07-13T11:01:42Z</time>
      </trkpt>
      <trkpt lat="45.0102" lon="3.80425">
        <ele>889.45</ele>
        <time>2021-07-13T11:01:43Z</time>
      </trkpt>
      <trkpt lat="45.0102" lon="3.80419">
        <ele>889.43</ele>
        <time>2021-07-13T11:01:44Z</time>
      </trkpt>
      <trkpt lat="45.01021" lon="3.80413">
        <ele>889.42</ele>
        <time>2021-07-13T11:01:45Z</time>
      </trkpt>
      <trkpt lat="45.01022" lon="3.80392">
        <ele>888.46</ele>
        <time>2021-07-13T11:01:54Z</time>
      </trkpt>
      <trkpt lat="45.01021" lon="3.80391">
        <ele>888.58</ele>
        <time>2021-07-13T11:02:26Z</time>
      </trkpt>
      <trkpt lat="45.0102" lon="3.8039">
        <ele>888.18</ele>
        <time>2021-07-13T11:03:05Z</time>
      </trkpt>
      <trkpt lat="45.01019" lon="3.80387">
        <ele>888.49</ele>
        <time>2021-07-13T11:03:30Z</time>
      </trkpt>
      <trkpt lat="45.01019" lon="3.80385">
        <ele>888.41</ele>
        <time>2021-07-13T11:03:31Z</time>
      </trkpt>
      <trkpt lat="45.0102" lon="3.80383">
        <ele>888.36</ele>
        <time>2021-07-13T11:03:32Z</time>
      </trkpt>
      <trkpt lat="45.01021" lon="3.80377">
        <ele>888.29</ele>
        <time>2021-07-13T11:03:35Z</time>
      </trkpt>
      <trkpt lat="45.01023" lon="3.80375">
        <ele>888.28</ele>
        <time>2021-07-13T11:03:36Z</time>
      </trkpt>
      <trkpt lat="45.01024" lon="3.80376">
        <ele>888.3</ele>
        <time>2021-07-13T11:03:37Z</time>
      </trkpt>
      <trkpt lat="45.01027" lon="3.80379">
        <ele>888.42</ele>
        <time>2021-07-13T11:03:39Z</time>
      </trkpt>
      <trkpt lat="45.01031" lon="3.80384">
        <ele>887.72</ele>
        <time>2021-07-13T11:03:55Z</time>
      </trkpt>
      <trkpt lat="45.01036" lon="3.80392">
        <ele>888.22</ele>
        <time>2021-07-13T11:04:06Z</time>
      </trkpt>
      <trkpt lat="45.01039" lon="3.80396">
        <ele>887.24</ele>
        <time>2021-07-13T11:04:20Z</time>
      </trkpt>
      <trkpt lat="45.0104" lon="3.80394">
        <ele>887.47</ele>
        <time>2021-07-13T11:04:34Z</time>
      </trkpt>
      <trkpt lat="45.0104" lon="3.8039">
        <ele>887.63</ele>
        <time>2021-07-13T11:05:10Z</time>
      </trkpt>
      <trkpt lat="45.01043" lon="3.80384">
        <ele>888.12</ele>
        <time>2021-07-13T11:05:38Z</time>
      </trkpt>
      <trkpt lat="45.01047" lon="3.80366">
        <ele>887.04</ele>
        <time>2021-07-13T11:06:36Z</time>
      </trkpt>
      <trkpt lat="45.01048" lon="3.80373">
        <ele>887.05</ele>
        <time>2021-07-13T11:09:11Z</time>
      </trkpt>
      <trkpt lat="45.01049" lon="3.80383">
        <ele>887.29</ele>
        <time>2021-07-13T11:09:25Z</time>
      </trkpt>
      <trkpt lat="45.0105" lon="3.80386">
        <ele>886.82</ele>
        <time>2021-07-13T11:09:31Z</time>
      </trkpt>
      <trkpt lat="45.01062" lon="3.80379">
        <ele>887.49</ele>
        <time>2021-07-13T11:09:54Z</time>
      </trkpt>
      <trkpt lat="45.01064" lon="3.80311">
        <ele>886.84</ele>
        <time>2021-07-13T11:10:59Z</time>
      </trkpt>
      <trkpt lat="45.01046" lon="3.80389">
        <ele>887.93</ele>
        <time>2021-07-13T11:12:27Z</time>
      </trkpt>
      <trkpt lat="45.01045" lon="3.80388">
        <ele>887.13</ele>
        <time>2021-07-13T11:12:38Z</time>
      </trkpt>
      <trkpt lat="45.01042" lon="3.80377">
        <ele>887.09</ele>
        <time>2021-07-13T11:12:52Z</time>
      </trkpt>
      <trkpt lat="45.01038" lon="3.80395">
        <ele>905.5</ele>
        <time>2021-07-13T11:46:21Z</time>
      </trkpt>
      <trkpt lat="45.0104" lon="3.80394">
        <ele>905.5</ele>
        <time>2021-07-13T11:46:23Z</time>
      </trkpt>
      <trkpt lat="45.01041" lon="3.80385">
        <ele>905.74</ele>
        <time>2021-07-13T11:46:58Z</time>
      </trkpt>
      <trkpt lat="45.01042" lon="3.80389">
        <ele>906.04</ele>
        <time>2021-07-13T11:47:21Z</time>
      </trkpt>
      <trkpt lat="45.01043" lon="3.8039">
        <ele>905.67</ele>
        <time>2021-07-13T11:47:52Z</time>
      </trkpt>
      <trkpt lat="45.01042" lon="3.80392">
        <ele>905.76</ele>
        <time>2021-07-13T11:48:33Z</time>
      </trkpt>
      <trkpt lat="45.01039" lon="3.80388">
        <ele>905.77</ele>
        <time>2021-07-13T11:49:40Z</time>
      </trkpt>
      <trkpt lat="45.01031" lon="3.80378">
        <ele>905.76</ele>
        <time>2021-07-13T11:49:47Z</time>
      </trkpt>
      <trkpt lat="45.0103" lon="3.80375">
        <ele>905.79</ele>
        <time>2021-07-13T11:49:48Z</time>
      </trkpt>
      <trkpt lat="45.01017" lon="3.80316">
        <ele>906.13</ele>
        <time>2021-07-13T11:50:00Z</time>
      </trkpt>
      <trkpt lat="45.01028" lon="3.80201">
        <ele>903.31</ele>
        <time>2021-07-13T11:50:12Z</time>
      </trkpt>
      <trkpt lat="45.01029" lon="3.80191">
        <ele>903.07</ele>
        <time>2021-07-13T11:50:13Z</time>
      </trkpt>
      <trkpt lat="45.01031" lon="3.80163">
        <ele>902.49</ele>
        <time>2021-07-13T11:50:16Z</time>
      </trkpt>
      <trkpt lat="45.0103" lon="3.80154">
        <ele>902.37</ele>
        <time>2021-07-13T11:50:17Z</time>
      </trkpt>
      <trkpt lat="45.01029" lon="3.80146">
        <ele>902.27</ele>
        <time>2021-07-13T11:50:18Z</time>
      </trkpt>
      <trkpt lat="45.01027" lon="3.80139">
        <ele>902.23</ele>
        <time>2021-07-13T11:50:19Z</time>
      </trkpt>
      <trkpt lat="45.01025" lon="3.80132">
        <ele>902.23</ele>
        <time>2021-07-13T11:50:20Z</time>
      </trkpt>
      <trkpt lat="45.01021" lon="3.80125">
        <ele>902.25</ele>
        <time>2021-07-13T11:50:21Z</time>
      </trkpt>
      <trkpt lat="45.01018" lon="3.80119">
        <ele>902.33</ele>
        <time>2021-07-13T11:50:22Z</time>
      </trkpt>
      <trkpt lat="45.01015" lon="3.80114">
        <ele>902.41</ele>
        <time>2021-07-13T11:50:23Z</time>
      </trkpt>
      <trkpt lat="45.01011" lon="3.80109">
        <ele>902.5</ele>
        <time>2021-07-13T11:50:24Z</time>
      </trkpt>
      <trkpt lat="45.00969" lon="3.8007">
        <ele>904.7</ele>
        <time>2021-07-13T11:50:37Z</time>
      </trkpt>
      <trkpt lat="45.00935" lon="3.80027">
        <ele>907.51</ele>
        <time>2021-07-13T11:50:52Z</time>
      </trkpt>
      <trkpt lat="45.00914" lon="3.79979">
        <ele>910.57</ele>
        <time>2021-07-13T11:51:07Z</time>
      </trkpt>
      <trkpt lat="45.00906" lon="3.79926">
        <ele>913.01</ele>
        <time>2021-07-13T11:51:24Z</time>
      </trkpt>
      <trkpt lat="45.00914" lon="3.79865">
        <ele>915.54</ele>
        <time>2021-07-13T11:51:45Z</time>
      </trkpt>
      <trkpt lat="45.00925" lon="3.79815">
        <ele>917.78</ele>
        <time>2021-07-13T11:52:02Z</time>
      </trkpt>
      <trkpt lat="45.0094" lon="3.79755">
        <ele>920.3</ele>
        <time>2021-07-13T11:52:21Z</time>
      </trkpt>
      <trkpt lat="45.00959" lon="3.79673">
        <ele>921.33</ele>
        <time>2021-07-13T11:52:41Z</time>
      </trkpt>
      <trkpt lat="45.00975" lon="3.79578">
        <ele>923.18</ele>
        <time>2021-07-13T11:53:03Z</time>
      </trkpt>
      <trkpt lat="45.00977" lon="3.79483">
        <ele>923.32</ele>
        <time>2021-07-13T11:53:23Z</time>
      </trkpt>
      <trkpt lat="45.00979" lon="3.79395">
        <ele>925.28</ele>
        <time>2021-07-13T11:53:42Z</time>
      </trkpt>
      <trkpt lat="45.00981" lon="3.79319">
        <ele>926.85</ele>
        <time>2021-07-13T11:54:00Z</time>
      </trkpt>
      <trkpt lat="45.00982" lon="3.7924">
        <ele>929.91</ele>
        <time>2021-07-13T11:54:19Z</time>
      </trkpt>
      <trkpt lat="45.00985" lon="3.79167">
        <ele>931.35</ele>
        <time>2021-07-13T11:54:38Z</time>
      </trkpt>
      <trkpt lat="45.00993" lon="3.79107">
        <ele>932.71</ele>
        <time>2021-07-13T11:54:55Z</time>
      </trkpt>
      <trkpt lat="45.01002" lon="3.7905">
        <ele>934.72</ele>
        <time>2021-07-13T11:55:11Z</time>
      </trkpt>
      <trkpt lat="45.01015" lon="3.78976">
        <ele>936.36</ele>
        <time>2021-07-13T11:55:31Z</time>
      </trkpt>
      <trkpt lat="45.01028" lon="3.78908">
        <ele>939.15</ele>
        <time>2021-07-13T11:55:51Z</time>
      </trkpt>
      <trkpt lat="45.01037" lon="3.78851">
        <ele>941.62</ele>
        <time>2021-07-13T11:56:10Z</time>
      </trkpt>
      <trkpt lat="45.01046" lon="3.78794">
        <ele>943.67</ele>
        <time>2021-07-13T11:56:29Z</time>
      </trkpt>
      <trkpt lat="45.01057" lon="3.78731">
        <ele>946.34</ele>
        <time>2021-07-13T11:56:49Z</time>
      </trkpt>
      <trkpt lat="45.01062" lon="3.78662">
        <ele>948.5</ele>
        <time>2021-07-13T11:57:09Z</time>
      </trkpt>
      <trkpt lat="45.01058" lon="3.78595">
        <ele>949.04</ele>
        <time>2021-07-13T11:57:27Z</time>
      </trkpt>
      <trkpt lat="45.01053" lon="3.78528">
        <ele>950.44</ele>
        <time>2021-07-13T11:57:46Z</time>
      </trkpt>
      <trkpt lat="45.01048" lon="3.78466">
        <ele>952.81</ele>
        <time>2021-07-13T11:58:04Z</time>
      </trkpt>
      <trkpt lat="45.01043" lon="3.78397">
        <ele>954.82</ele>
        <time>2021-07-13T11:58:23Z</time>
      </trkpt>
      <trkpt lat="45.01036" lon="3.78328">
        <ele>957.6</ele>
        <time>2021-07-13T11:58:42Z</time>
      </trkpt>
      <trkpt lat="45.0103" lon="3.7825">
        <ele>959.22</ele>
        <time>2021-07-13T11:59:02Z</time>
      </trkpt>
      <trkpt lat="45.01024" lon="3.78176">
        <ele>960.8</ele>
        <time>2021-07-13T11:59:20Z</time>
      </trkpt>
      <trkpt lat="45.01018" lon="3.78099">
        <ele>962.8</ele>
        <time>2021-07-13T11:59:38Z</time>
      </trkpt>
      <trkpt lat="45.01009" lon="3.7803">
        <ele>963.44</ele>
        <time>2021-07-13T11:59:55Z</time>
      </trkpt>
      <trkpt lat="45.00992" lon="3.77939">
        <ele>965.69</ele>
        <time>2021-07-13T12:00:17Z</time>
      </trkpt>
      <trkpt lat="45.00976" lon="3.77851">
        <ele>967.3</ele>
        <time>2021-07-13T12:00:39Z</time>
      </trkpt>
      <trkpt lat="45.00964" lon="3.77778">
        <ele>969.65</ele>
        <time>2021-07-13T12:00:57Z</time>
      </trkpt>
      <trkpt lat="45.00954" lon="3.77727">
        <ele>971.18</ele>
        <time>2021-07-13T12:01:11Z</time>
      </trkpt>
      <trkpt lat="45.00948" lon="3.7771">
        <ele>971.97</ele>
        <time>2021-07-13T12:01:17Z</time>
      </trkpt>
      <trkpt lat="45.00945" lon="3.77697">
        <ele>972.94</ele>
        <time>2021-07-13T12:01:21Z</time>
      </trkpt>
      <trkpt lat="45.00944" lon="3.77693">
        <ele>973.12</ele>
        <time>2021-07-13T12:01:22Z</time>
      </trkpt>
      <trkpt lat="45.00933" lon="3.77648">
        <ele>974.41</ele>
        <time>2021-07-13T12:01:35Z</time>
      </trkpt>
      <trkpt lat="45.00928" lon="3.77607">
        <ele>976.48</ele>
        <time>2021-07-13T12:01:51Z</time>
      </trkpt>
      <trkpt lat="45.00926" lon="3.77568">
        <ele>977.66</ele>
        <time>2021-07-13T12:02:05Z</time>
      </trkpt>
      <trkpt lat="45.00924" lon="3.77523">
        <ele>980.73</ele>
        <time>2021-07-13T12:02:22Z</time>
      </trkpt>
      <trkpt lat="45.00921" lon="3.77477">
        <ele>983.6</ele>
        <time>2021-07-13T12:02:39Z</time>
      </trkpt>
      <trkpt lat="45.0092" lon="3.77461">
        <ele>984.69</ele>
        <time>2021-07-13T12:02:45Z</time>
      </trkpt>
      <trkpt lat="45.00919" lon="3.77458">
        <ele>984.86</ele>
        <time>2021-07-13T12:02:46Z</time>
      </trkpt>
      <trkpt lat="45.00919" lon="3.77456">
        <ele>984.99</ele>
        <time>2021-07-13T12:02:47Z</time>
      </trkpt>
      <trkpt lat="45.00912" lon="3.77423">
        <ele>988.14</ele>
        <time>2021-07-13T12:03:00Z</time>
      </trkpt>
      <trkpt lat="45.00902" lon="3.77404">
        <ele>990.05</ele>
        <time>2021-07-13T12:03:09Z</time>
      </trkpt>
      <trkpt lat="45.00901" lon="3.77403">
        <ele>990.16</ele>
        <time>2021-07-13T12:03:10Z</time>
      </trkpt>
      <trkpt lat="45.009" lon="3.77401">
        <ele>990.28</ele>
        <time>2021-07-13T12:03:11Z</time>
      </trkpt>
      <trkpt lat="45.00881" lon="3.7738">
        <ele>992.73</ele>
        <time>2021-07-13T12:03:24Z</time>
      </trkpt>
      <trkpt lat="45.00874" lon="3.77371">
        <ele>993.46</ele>
        <time>2021-07-13T12:03:29Z</time>
      </trkpt>
      <trkpt lat="45.00872" lon="3.7737">
        <ele>993.58</ele>
        <time>2021-07-13T12:03:30Z</time>
      </trkpt>
      <trkpt lat="45.0087" lon="3.77368">
        <ele>993.69</ele>
        <time>2021-07-13T12:03:31Z</time>
      </trkpt>
      <trkpt lat="45.00848" lon="3.77344">
        <ele>995.73</ele>
        <time>2021-07-13T12:03:46Z</time>
      </trkpt>
      <trkpt lat="45.00842" lon="3.77338">
        <ele>996.23</ele>
        <time>2021-07-13T12:03:50Z</time>
      </trkpt>
      <trkpt lat="45.0084" lon="3.77337">
        <ele>996.36</ele>
        <time>2021-07-13T12:03:51Z</time>
      </trkpt>
      <trkpt lat="45.00838" lon="3.77335">
        <ele>996.51</ele>
        <time>2021-07-13T12:03:52Z</time>
      </trkpt>
      <trkpt lat="45.00815" lon="3.77313">
        <ele>998.56</ele>
        <time>2021-07-13T12:04:07Z</time>
      </trkpt>
      <trkpt lat="45.00792" lon="3.77281">
        <ele>1000.33</ele>
        <time>2021-07-13T12:04:22Z</time>
      </trkpt>
      <trkpt lat="45.00763" lon="3.77235">
        <ele>1002.04</ele>
        <time>2021-07-13T12:04:41Z</time>
      </trkpt>
      <trkpt lat="45.00727" lon="3.77172">
        <ele>1003.64</ele>
        <time>2021-07-13T12:05:05Z</time>
      </trkpt>
      <trkpt lat="45.007" lon="3.77087">
        <ele>1005.77</ele>
        <time>2021-07-13T12:05:30Z</time>
      </trkpt>
      <trkpt lat="45.00682" lon="3.77029">
        <ele>1007.41</ele>
        <time>2021-07-13T12:05:47Z</time>
      </trkpt>
      <trkpt lat="45.00667" lon="3.76977">
        <ele>1009.12</ele>
        <time>2021-07-13T12:06:04Z</time>
      </trkpt>
      <trkpt lat="45.0064" lon="3.76908">
        <ele>1010.53</ele>
        <time>2021-07-13T12:06:24Z</time>
      </trkpt>
      <trkpt lat="45.00611" lon="3.76837">
        <ele>1013.07</ele>
        <time>2021-07-13T12:06:44Z</time>
      </trkpt>
      <trkpt lat="45.00582" lon="3.76766">
        <ele>1014.7</ele>
        <time>2021-07-13T12:07:06Z</time>
      </trkpt>
      <trkpt lat="45.0056" lon="3.7671">
        <ele>1017.95</ele>
        <time>2021-07-13T12:07:25Z</time>
      </trkpt>
      <trkpt lat="45.00543" lon="3.76658">
        <ele>1020.97</ele>
        <time>2021-07-13T12:07:43Z</time>
      </trkpt>
      <trkpt lat="45.00536" lon="3.76606">
        <ele>1022.61</ele>
        <time>2021-07-13T12:08:01Z</time>
      </trkpt>
      <trkpt lat="45.00531" lon="3.76547">
        <ele>1025.47</ele>
        <time>2021-07-13T12:08:21Z</time>
      </trkpt>
      <trkpt lat="45.00524" lon="3.76485">
        <ele>1027.57</ele>
        <time>2021-07-13T12:08:42Z</time>
      </trkpt>
      <trkpt lat="45.00519" lon="3.76422">
        <ele>1030.24</ele>
        <time>2021-07-13T12:09:03Z</time>
      </trkpt>
      <trkpt lat="45.00512" lon="3.76358">
        <ele>1031.79</ele>
        <time>2021-07-13T12:09:24Z</time>
      </trkpt>
      <trkpt lat="45.00499" lon="3.76297">
        <ele>1033.33</ele>
        <time>2021-07-13T12:09:43Z</time>
      </trkpt>
      <trkpt lat="45.00481" lon="3.76222">
        <ele>1034.61</ele>
        <time>2021-07-13T12:10:02Z</time>
      </trkpt>
      <trkpt lat="45.00464" lon="3.76147">
        <ele>1035.45</ele>
        <time>2021-07-13T12:10:20Z</time>
      </trkpt>
      <trkpt lat="45.00444" lon="3.76068">
        <ele>1037.54</ele>
        <time>2021-07-13T12:10:40Z</time>
      </trkpt>
      <trkpt lat="45.00418" lon="3.75996">
        <ele>1038.4</ele>
        <time>2021-07-13T12:10:59Z</time>
      </trkpt>
      <trkpt lat="45.00378" lon="3.75931">
        <ele>1039.95</ele>
        <time>2021-07-13T12:11:19Z</time>
      </trkpt>
      <trkpt lat="45.0036" lon="3.75904">
        <ele>1041.27</ele>
        <time>2021-07-13T12:11:32Z</time>
      </trkpt>
      <trkpt lat="45.0036" lon="3.75905">
        <ele>1042.5</ele>
        <time>2021-07-13T12:12:16Z</time>
      </trkpt>
      <trkpt lat="45.00361" lon="3.75906">
        <ele>1042.08</ele>
        <time>2021-07-13T12:13:03Z</time>
      </trkpt>
      <trkpt lat="45.0036" lon="3.75906">
        <ele>1042.43</ele>
        <time>2021-07-13T12:13:33Z</time>
      </trkpt>
      <trkpt lat="45.00349" lon="3.75894">
        <ele>1042.66</ele>
        <time>2021-07-13T12:13:44Z</time>
      </trkpt>
      <trkpt lat="45.00309" lon="3.75845">
        <ele>1044.88</ele>
        <time>2021-07-13T12:14:04Z</time>
      </trkpt>
      <trkpt lat="45.00268" lon="3.75793">
        <ele>1046.86</ele>
        <time>2021-07-13T12:14:25Z</time>
      </trkpt>
      <trkpt lat="45.0024" lon="3.75749">
        <ele>1049.91</ele>
        <time>2021-07-13T12:14:41Z</time>
      </trkpt>
      <trkpt lat="45.00218" lon="3.75701">
        <ele>1051.84</ele>
        <time>2021-07-13T12:14:57Z</time>
      </trkpt>
      <trkpt lat="45.0019" lon="3.75639">
        <ele>1054.23</ele>
        <time>2021-07-13T12:15:19Z</time>
      </trkpt>
      <trkpt lat="45.00163" lon="3.75587">
        <ele>1056.52</ele>
        <time>2021-07-13T12:15:38Z</time>
      </trkpt>
      <trkpt lat="45.00126" lon="3.75528">
        <ele>1059.55</ele>
        <time>2021-07-13T12:16:01Z</time>
      </trkpt>
      <trkpt lat="45.00105" lon="3.75496">
        <ele>1061.23</ele>
        <time>2021-07-13T12:16:15Z</time>
      </trkpt>
      <trkpt lat="45.00078" lon="3.75453">
        <ele>1064.21</ele>
        <time>2021-07-13T12:16:35Z</time>
      </trkpt>
      <trkpt lat="45.00053" lon="3.75414">
        <ele>1067.11</ele>
        <time>2021-07-13T12:16:54Z</time>
      </trkpt>
      <trkpt lat="45.00027" lon="3.75373">
        <ele>1069.94</ele>
        <time>2021-07-13T12:17:14Z</time>
      </trkpt>
      <trkpt lat="45.00008" lon="3.75343">
        <ele>1073.08</ele>
        <time>2021-07-13T12:17:29Z</time>
      </trkpt>
      <trkpt lat="44.9998" lon="3.75301">
        <ele>1076.34</ele>
        <time>2021-07-13T12:17:50Z</time>
      </trkpt>
      <trkpt lat="44.99961" lon="3.75273">
        <ele>1078.73</ele>
        <time>2021-07-13T12:18:06Z</time>
      </trkpt>
      <trkpt lat="44.99941" lon="3.75249">
        <ele>1081.87</ele>
        <time>2021-07-13T12:18:21Z</time>
      </trkpt>
      <trkpt lat="44.99911" lon="3.75223">
        <ele>1084.95</ele>
        <time>2021-07-13T12:18:40Z</time>
      </trkpt>
      <trkpt lat="44.99878" lon="3.75197">
        <ele>1087.73</ele>
        <time>2021-07-13T12:19:01Z</time>
      </trkpt>
      <trkpt lat="44.99845" lon="3.75171">
        <ele>1089.91</ele>
        <time>2021-07-13T12:19:22Z</time>
      </trkpt>
      <trkpt lat="44.99812" lon="3.75145">
        <ele>1093.02</ele>
        <time>2021-07-13T12:19:41Z</time>
      </trkpt>
      <trkpt lat="44.99777" lon="3.75118">
        <ele>1095.07</ele>
        <time>2021-07-13T12:19:59Z</time>
      </trkpt>
      <trkpt lat="44.99728" lon="3.75075">
        <ele>1097.24</ele>
        <time>2021-07-13T12:20:20Z</time>
      </trkpt>
      <trkpt lat="44.99675" lon="3.75026">
        <ele>1098.77</ele>
        <time>2021-07-13T12:20:40Z</time>
      </trkpt>
      <trkpt lat="44.99624" lon="3.74978">
        <ele>1100.1</ele>
        <time>2021-07-13T12:20:59Z</time>
      </trkpt>
      <trkpt lat="44.99572" lon="3.74925">
        <ele>1102.22</ele>
        <time>2021-07-13T12:21:19Z</time>
      </trkpt>
      <trkpt lat="44.99525" lon="3.74871">
        <ele>1103.27</ele>
        <time>2021-07-13T12:21:38Z</time>
      </trkpt>
      <trkpt lat="44.99477" lon="3.7481">
        <ele>1104.07</ele>
        <time>2021-07-13T12:21:55Z</time>
      </trkpt>
      <trkpt lat="44.99419" lon="3.74727">
        <ele>1103.68</ele>
        <time>2021-07-13T12:22:15Z</time>
      </trkpt>
      <trkpt lat="44.99358" lon="3.74627">
        <ele>1104.81</ele>
        <time>2021-07-13T12:22:35Z</time>
      </trkpt>
      <trkpt lat="44.99282" lon="3.7451">
        <ele>1103.6</ele>
        <time>2021-07-13T12:22:58Z</time>
      </trkpt>
      <trkpt lat="44.99237" lon="3.7445">
        <ele>1104.36</ele>
        <time>2021-07-13T12:23:13Z</time>
      </trkpt>
      <trkpt lat="44.99189" lon="3.74383">
        <ele>1106.93</ele>
        <time>2021-07-13T12:23:30Z</time>
      </trkpt>
      <trkpt lat="44.99157" lon="3.74339">
        <ele>1108.34</ele>
        <time>2021-07-13T12:23:46Z</time>
      </trkpt>
      <trkpt lat="44.99156" lon="3.74338">
        <ele>1108.24</ele>
        <time>2021-07-13T12:24:09Z</time>
      </trkpt>
      <trkpt lat="44.99156" lon="3.74339">
        <ele>1108.72</ele>
        <time>2021-07-13T12:24:47Z</time>
      </trkpt>
      <trkpt lat="44.99156" lon="3.74339">
        <ele>1108.77</ele>
        <time>2021-07-13T12:25:27Z</time>
      </trkpt>
      <trkpt lat="44.99158" lon="3.74339">
        <ele>1108.43</ele>
        <time>2021-07-13T12:26:01Z</time>
      </trkpt>
      <trkpt lat="44.99156" lon="3.7434">
        <ele>1108.51</ele>
        <time>2021-07-13T12:26:34Z</time>
      </trkpt>
      <trkpt lat="44.99156" lon="3.7434">
        <ele>1108.42</ele>
        <time>2021-07-13T12:27:05Z</time>
      </trkpt>
      <trkpt lat="44.99157" lon="3.74339">
        <ele>1108.74</ele>
        <time>2021-07-13T12:27:39Z</time>
      </trkpt>
      <trkpt lat="44.99157" lon="3.7434">
        <ele>1108.66</ele>
        <time>2021-07-13T12:28:12Z</time>
      </trkpt>
      <trkpt lat="44.99159" lon="3.7434">
        <ele>1108.91</ele>
        <time>2021-07-13T12:29:03Z</time>
      </trkpt>
      <trkpt lat="44.99158" lon="3.7434">
        <ele>1108.95</ele>
        <time>2021-07-13T12:30:00Z</time>
      </trkpt>
      <trkpt lat="44.99158" lon="3.7434">
        <ele>1108.75</ele>
        <time>2021-07-13T12:30:44Z</time>
      </trkpt>
      <trkpt lat="44.99146" lon="3.74328">
        <ele>1109.02</ele>
        <time>2021-07-13T12:31:09Z</time>
      </trkpt>
      <trkpt lat="44.99112" lon="3.74285">
        <ele>1109.97</ele>
        <time>2021-07-13T12:31:25Z</time>
      </trkpt>
      <trkpt lat="44.9907" lon="3.74247">
        <ele>1112.18</ele>
        <time>2021-07-13T12:31:41Z</time>
      </trkpt>
      <trkpt lat="44.99023" lon="3.7422">
        <ele>1114.48</ele>
        <time>2021-07-13T12:31:59Z</time>
      </trkpt>
      <trkpt lat="44.98989" lon="3.74191">
        <ele>1117.56</ele>
        <time>2021-07-13T12:32:17Z</time>
      </trkpt>
      <trkpt lat="44.98958" lon="3.74157">
        <ele>1120.5</ele>
        <time>2021-07-13T12:32:36Z</time>
      </trkpt>
      <trkpt lat="44.98928" lon="3.74119">
        <ele>1122.99</ele>
        <time>2021-07-13T12:32:54Z</time>
      </trkpt>
      <trkpt lat="44.98887" lon="3.74071">
        <ele>1124.03</ele>
        <time>2021-07-13T12:33:15Z</time>
      </trkpt>
      <trkpt lat="44.98854" lon="3.74018">
        <ele>1125.76</ele>
        <time>2021-07-13T12:33:35Z</time>
      </trkpt>
      <trkpt lat="44.98828" lon="3.73964">
        <ele>1126.7</ele>
        <time>2021-07-13T12:33:52Z</time>
      </trkpt>
      <trkpt lat="44.98797" lon="3.73895">
        <ele>1128.07</ele>
        <time>2021-07-13T12:34:13Z</time>
      </trkpt>
      <trkpt lat="44.98779" lon="3.73833">
        <ele>1129.8</ele>
        <time>2021-07-13T12:34:31Z</time>
      </trkpt>
      <trkpt lat="44.98778" lon="3.73749">
        <ele>1131.57</ele>
        <time>2021-07-13T12:34:53Z</time>
      </trkpt>
      <trkpt lat="44.98777" lon="3.73663">
        <ele>1132.68</ele>
        <time>2021-07-13T12:35:13Z</time>
      </trkpt>
      <trkpt lat="44.98762" lon="3.73575">
        <ele>1134.15</ele>
        <time>2021-07-13T12:35:35Z</time>
      </trkpt>
      <trkpt lat="44.98746" lon="3.7349">
        <ele>1135.51</ele>
        <time>2021-07-13T12:35:57Z</time>
      </trkpt>
      <trkpt lat="44.98729" lon="3.73402">
        <ele>1137.75</ele>
        <time>2021-07-13T12:36:20Z</time>
      </trkpt>
      <trkpt lat="44.98719" lon="3.73317">
        <ele>1139.92</ele>
        <time>2021-07-13T12:36:40Z</time>
      </trkpt>
      <trkpt lat="44.987" lon="3.73214">
        <ele>1140.14</ele>
        <time>2021-07-13T12:36:57Z</time>
      </trkpt>
      <trkpt lat="44.98667" lon="3.73056">
        <ele>1138.36</ele>
        <time>2021-07-13T12:37:17Z</time>
      </trkpt>
      <trkpt lat="44.98632" lon="3.72891">
        <ele>1137.67</ele>
        <time>2021-07-13T12:37:38Z</time>
      </trkpt>
      <trkpt lat="44.98595" lon="3.72711">
        <ele>1138.15</ele>
        <time>2021-07-13T12:38:02Z</time>
      </trkpt>
      <trkpt lat="44.98563" lon="3.72561">
        <ele>1137.59</ele>
        <time>2021-07-13T12:38:23Z</time>
      </trkpt>
      <trkpt lat="44.98536" lon="3.72426">
        <ele>1137.96</ele>
        <time>2021-07-13T12:38:43Z</time>
      </trkpt>
      <trkpt lat="44.98502" lon="3.7226">
        <ele>1138.72</ele>
        <time>2021-07-13T12:39:08Z</time>
      </trkpt>
      <trkpt lat="44.98472" lon="3.72116">
        <ele>1140.6</ele>
        <time>2021-07-13T12:39:32Z</time>
      </trkpt>
      <trkpt lat="44.98448" lon="3.72003">
        <ele>1141.43</ele>
        <time>2021-07-13T12:39:52Z</time>
      </trkpt>
      <trkpt lat="44.98422" lon="3.71874">
        <ele>1142.41</ele>
        <time>2021-07-13T12:40:16Z</time>
      </trkpt>
      <trkpt lat="44.98404" lon="3.71777">
        <ele>1144.47</ele>
        <time>2021-07-13T12:40:37Z</time>
      </trkpt>
      <trkpt lat="44.98402" lon="3.71669">
        <ele>1145.62</ele>
        <time>2021-07-13T12:40:59Z</time>
      </trkpt>
      <trkpt lat="44.98427" lon="3.71568">
        <ele>1147.04</ele>
        <time>2021-07-13T12:41:19Z</time>
      </trkpt>
      <trkpt lat="44.98463" lon="3.71441">
        <ele>1147.6</ele>
        <time>2021-07-13T12:41:41Z</time>
      </trkpt>
      <trkpt lat="44.98477" lon="3.71341">
        <ele>1144.99</ele>
        <time>2021-07-13T12:41:57Z</time>
      </trkpt>
      <trkpt lat="44.98478" lon="3.71335">
        <ele>1144.37</ele>
        <time>2021-07-13T12:42:08Z</time>
      </trkpt>
      <trkpt lat="44.98477" lon="3.71338">
        <ele>1142.95</ele>
        <time>2021-07-13T12:42:48Z</time>
      </trkpt>
      <trkpt lat="44.98478" lon="3.71338">
        <ele>1142.9</ele>
        <time>2021-07-13T12:43:24Z</time>
      </trkpt>
      <trkpt lat="44.98478" lon="3.71337">
        <ele>1143.37</ele>
        <time>2021-07-13T12:43:54Z</time>
      </trkpt>
      <trkpt lat="44.98479" lon="3.71336">
        <ele>1143.41</ele>
        <time>2021-07-13T12:44:04Z</time>
      </trkpt>
      <trkpt lat="44.98479" lon="3.71334">
        <ele>1143.45</ele>
        <time>2021-07-13T12:44:05Z</time>
      </trkpt>
      <trkpt lat="44.98483" lon="3.71278">
        <ele>1143.35</ele>
        <time>2021-07-13T12:44:16Z</time>
      </trkpt>
      <trkpt lat="44.98494" lon="3.71195">
        <ele>1140.29</ele>
        <time>2021-07-13T12:44:25Z</time>
      </trkpt>
      <trkpt lat="44.9852" lon="3.7112">
        <ele>1136.92</ele>
        <time>2021-07-13T12:44:32Z</time>
      </trkpt>
      <trkpt lat="44.98563" lon="3.71059">
        <ele>1133.33</ele>
        <time>2021-07-13T12:44:38Z</time>
      </trkpt>
      <trkpt lat="44.98611" lon="3.71019">
        <ele>1129.33</ele>
        <time>2021-07-13T12:44:43Z</time>
      </trkpt>
      <trkpt lat="44.98621" lon="3.7101">
        <ele>1129.33</ele>
        <time>2021-07-13T12:44:44Z</time>
      </trkpt>
      <trkpt lat="44.9866" lon="3.70978">
        <ele>1126.06</ele>
        <time>2021-07-13T12:44:48Z</time>
      </trkpt>
      <trkpt lat="44.98699" lon="3.70942">
        <ele>1122.42</ele>
        <time>2021-07-13T12:44:52Z</time>
      </trkpt>
      <trkpt lat="44.98731" lon="3.70896">
        <ele>1119.11</ele>
        <time>2021-07-13T12:44:56Z</time>
      </trkpt>
      <trkpt lat="44.98756" lon="3.70822">
        <ele>1115.5</ele>
        <time>2021-07-13T12:45:01Z</time>
      </trkpt>
      <trkpt lat="44.9876" lon="3.7074">
        <ele>1111.91</ele>
        <time>2021-07-13T12:45:06Z</time>
      </trkpt>
      <trkpt lat="44.98756" lon="3.70708">
        <ele>1110.38</ele>
        <time>2021-07-13T12:45:08Z</time>
      </trkpt>
      <trkpt lat="44.98747" lon="3.70663">
        <ele>1107.21</ele>
        <time>2021-07-13T12:45:11Z</time>
      </trkpt>
      <trkpt lat="44.98735" lon="3.70606">
        <ele>1104</ele>
        <time>2021-07-13T12:45:15Z</time>
      </trkpt>
      <trkpt lat="44.98722" lon="3.70548">
        <ele>1100.72</ele>
        <time>2021-07-13T12:45:19Z</time>
      </trkpt>
      <trkpt lat="44.98707" lon="3.70479">
        <ele>1097.47</ele>
        <time>2021-07-13T12:45:24Z</time>
      </trkpt>
      <trkpt lat="44.98697" lon="3.70408">
        <ele>1094.24</ele>
        <time>2021-07-13T12:45:29Z</time>
      </trkpt>
      <trkpt lat="44.98694" lon="3.70335">
        <ele>1090.89</ele>
        <time>2021-07-13T12:45:34Z</time>
      </trkpt>
      <trkpt lat="44.98698" lon="3.7026">
        <ele>1087.37</ele>
        <time>2021-07-13T12:45:39Z</time>
      </trkpt>
      <trkpt lat="44.9871" lon="3.70186">
        <ele>1083.89</ele>
        <time>2021-07-13T12:45:44Z</time>
      </trkpt>
      <trkpt lat="44.9873" lon="3.701">
        <ele>1080.74</ele>
        <time>2021-07-13T12:45:50Z</time>
      </trkpt>
      <trkpt lat="44.98749" lon="3.70012">
        <ele>1077.61</ele>
        <time>2021-07-13T12:45:56Z</time>
      </trkpt>
      <trkpt lat="44.98765" lon="3.69939">
        <ele>1074.02</ele>
        <time>2021-07-13T12:46:01Z</time>
      </trkpt>
      <trkpt lat="44.98785" lon="3.69852">
        <ele>1070.24</ele>
        <time>2021-07-13T12:46:07Z</time>
      </trkpt>
      <trkpt lat="44.98801" lon="3.69794">
        <ele>1067.1</ele>
        <time>2021-07-13T12:46:11Z</time>
      </trkpt>
      <trkpt lat="44.98826" lon="3.69741">
        <ele>1064.08</ele>
        <time>2021-07-13T12:46:15Z</time>
      </trkpt>
      <trkpt lat="44.98872" lon="3.6969">
        <ele>1060.98</ele>
        <time>2021-07-13T12:46:20Z</time>
      </trkpt>
      <trkpt lat="44.98927" lon="3.6966">
        <ele>1057.07</ele>
        <time>2021-07-13T12:46:25Z</time>
      </trkpt>
      <trkpt lat="44.98974" lon="3.69642">
        <ele>1053.7</ele>
        <time>2021-07-13T12:46:29Z</time>
      </trkpt>
      <trkpt lat="44.9903" lon="3.6961">
        <ele>1049.99</ele>
        <time>2021-07-13T12:46:34Z</time>
      </trkpt>
      <trkpt lat="44.99074" lon="3.69581">
        <ele>1046.71</ele>
        <time>2021-07-13T12:46:38Z</time>
      </trkpt>
      <trkpt lat="44.99116" lon="3.69549">
        <ele>1043.52</ele>
        <time>2021-07-13T12:46:42Z</time>
      </trkpt>
      <trkpt lat="44.99155" lon="3.69509">
        <ele>1040.32</ele>
        <time>2021-07-13T12:46:46Z</time>
      </trkpt>
      <trkpt lat="44.99189" lon="3.69461">
        <ele>1036.72</ele>
        <time>2021-07-13T12:46:50Z</time>
      </trkpt>
      <trkpt lat="44.99226" lon="3.6942">
        <ele>1033.67</ele>
        <time>2021-07-13T12:46:54Z</time>
      </trkpt>
      <trkpt lat="44.99276" lon="3.69374">
        <ele>1030.13</ele>
        <time>2021-07-13T12:46:59Z</time>
      </trkpt>
      <trkpt lat="44.99325" lon="3.69327">
        <ele>1026.75</ele>
        <time>2021-07-13T12:47:04Z</time>
      </trkpt>
      <trkpt lat="44.99368" lon="3.69271">
        <ele>1023.54</ele>
        <time>2021-07-13T12:47:09Z</time>
      </trkpt>
      <trkpt lat="44.994" lon="3.69221">
        <ele>1020.04</ele>
        <time>2021-07-13T12:47:13Z</time>
      </trkpt>
      <trkpt lat="44.99408" lon="3.69208">
        <ele>1020.04</ele>
        <time>2021-07-13T12:47:14Z</time>
      </trkpt>
      <trkpt lat="44.9944" lon="3.69158">
        <ele>1016.32</ele>
        <time>2021-07-13T12:47:18Z</time>
      </trkpt>
      <trkpt lat="44.99486" lon="3.69103">
        <ele>1013.07</ele>
        <time>2021-07-13T12:47:23Z</time>
      </trkpt>
      <trkpt lat="44.99535" lon="3.69057">
        <ele>1009.25</ele>
        <time>2021-07-13T12:47:28Z</time>
      </trkpt>
      <trkpt lat="44.99579" lon="3.69035">
        <ele>1005.96</ele>
        <time>2021-07-13T12:47:32Z</time>
      </trkpt>
      <trkpt lat="44.99639" lon="3.69025">
        <ele>1002.5</ele>
        <time>2021-07-13T12:47:37Z</time>
      </trkpt>
      <trkpt lat="44.99687" lon="3.69034">
        <ele>999.09</ele>
        <time>2021-07-13T12:47:41Z</time>
      </trkpt>
      <trkpt lat="44.99743" lon="3.69066">
        <ele>995.69</ele>
        <time>2021-07-13T12:47:46Z</time>
      </trkpt>
      <trkpt lat="44.99784" lon="3.69102">
        <ele>992.64</ele>
        <time>2021-07-13T12:47:50Z</time>
      </trkpt>
      <trkpt lat="44.99837" lon="3.69148">
        <ele>989.43</ele>
        <time>2021-07-13T12:47:55Z</time>
      </trkpt>
      <trkpt lat="44.99848" lon="3.69154">
        <ele>988.9</ele>
        <time>2021-07-13T12:47:56Z</time>
      </trkpt>
      <trkpt lat="44.9986" lon="3.69159">
        <ele>988.41</ele>
        <time>2021-07-13T12:47:57Z</time>
      </trkpt>
      <trkpt lat="44.99872" lon="3.69163">
        <ele>987.93</ele>
        <time>2021-07-13T12:47:58Z</time>
      </trkpt>
      <trkpt lat="44.99883" lon="3.69166">
        <ele>987.42</ele>
        <time>2021-07-13T12:47:59Z</time>
      </trkpt>
      <trkpt lat="44.99895" lon="3.69167">
        <ele>986.91</ele>
        <time>2021-07-13T12:48:00Z</time>
      </trkpt>
      <trkpt lat="44.99906" lon="3.69167">
        <ele>986.43</ele>
        <time>2021-07-13T12:48:01Z</time>
      </trkpt>
      <trkpt lat="44.99917" lon="3.69165">
        <ele>985.9</ele>
        <time>2021-07-13T12:48:02Z</time>
      </trkpt>
      <trkpt lat="44.99928" lon="3.69163">
        <ele>984.78</ele>
        <time>2021-07-13T12:48:03Z</time>
      </trkpt>
      <trkpt lat="44.99939" lon="3.69159">
        <ele>984.24</ele>
        <time>2021-07-13T12:48:04Z</time>
      </trkpt>
      <trkpt lat="44.99949" lon="3.69155">
        <ele>983.68</ele>
        <time>2021-07-13T12:48:05Z</time>
      </trkpt>
      <trkpt lat="44.99959" lon="3.69149">
        <ele>983.06</ele>
        <time>2021-07-13T12:48:06Z</time>
      </trkpt>
      <trkpt lat="44.99968" lon="3.69143">
        <ele>982.45</ele>
        <time>2021-07-13T12:48:07Z</time>
      </trkpt>
      <trkpt lat="44.99978" lon="3.69136">
        <ele>981.92</ele>
        <time>2021-07-13T12:48:08Z</time>
      </trkpt>
      <trkpt lat="44.99986" lon="3.69128">
        <ele>981.43</ele>
        <time>2021-07-13T12:48:09Z</time>
      </trkpt>
      <trkpt lat="44.99994" lon="3.69119">
        <ele>980.98</ele>
        <time>2021-07-13T12:48:10Z</time>
      </trkpt>
      <trkpt lat="45.00002" lon="3.69109">
        <ele>980.52</ele>
        <time>2021-07-13T12:48:11Z</time>
      </trkpt>
      <trkpt lat="45.00038" lon="3.69061">
        <ele>977.38</ele>
        <time>2021-07-13T12:48:16Z</time>
      </trkpt>
      <trkpt lat="45.00078" lon="3.69008">
        <ele>974.16</ele>
        <time>2021-07-13T12:48:22Z</time>
      </trkpt>
      <trkpt lat="45.00122" lon="3.68937">
        <ele>970.99</ele>
        <time>2021-07-13T12:48:30Z</time>
      </trkpt>
      <trkpt lat="45.00164" lon="3.68838">
        <ele>967.85</ele>
        <time>2021-07-13T12:48:40Z</time>
      </trkpt>
      <trkpt lat="45.0018" lon="3.68725">
        <ele>964.77</ele>
        <time>2021-07-13T12:48:50Z</time>
      </trkpt>
      <trkpt lat="45.00155" lon="3.68583">
        <ele>962.33</ele>
        <time>2021-07-13T12:49:03Z</time>
      </trkpt>
      <trkpt lat="45.00089" lon="3.68426">
        <ele>959.28</ele>
        <time>2021-07-13T12:49:18Z</time>
      </trkpt>
      <trkpt lat="45.0008" lon="3.68404">
        <ele>958.29</ele>
        <time>2021-07-13T12:49:20Z</time>
      </trkpt>
      <trkpt lat="45.00046" lon="3.68324">
        <ele>954.91</ele>
        <time>2021-07-13T12:49:27Z</time>
      </trkpt>
      <trkpt lat="45.00012" lon="3.68254">
        <ele>951.71</ele>
        <time>2021-07-13T12:49:33Z</time>
      </trkpt>
      <trkpt lat="44.99974" lon="3.68202">
        <ele>948.21</ele>
        <time>2021-07-13T12:49:39Z</time>
      </trkpt>
      <trkpt lat="44.99959" lon="3.68187">
        <ele>944.89</ele>
        <time>2021-07-13T12:49:43Z</time>
      </trkpt>
      <trkpt lat="44.99955" lon="3.68183">
        <ele>942.14</ele>
        <time>2021-07-13T12:49:53Z</time>
      </trkpt>
      <trkpt lat="44.99953" lon="3.68181">
        <ele>941.02</ele>
        <time>2021-07-13T12:50:15Z</time>
      </trkpt>
      <trkpt lat="44.99953" lon="3.68177">
        <ele>941.62</ele>
        <time>2021-07-13T12:51:06Z</time>
      </trkpt>
      <trkpt lat="44.99953" lon="3.68182">
        <ele>941.22</ele>
        <time>2021-07-13T12:51:37Z</time>
      </trkpt>
      <trkpt lat="44.99951" lon="3.68181">
        <ele>940.98</ele>
        <time>2021-07-13T12:52:14Z</time>
      </trkpt>
      <trkpt lat="44.9995" lon="3.68181">
        <ele>940.97</ele>
        <time>2021-07-13T12:52:15Z</time>
      </trkpt>
      <trkpt lat="44.99949" lon="3.68179">
        <ele>940.95</ele>
        <time>2021-07-13T12:52:16Z</time>
      </trkpt>
      <trkpt lat="44.99947" lon="3.68178">
        <ele>940.93</ele>
        <time>2021-07-13T12:52:17Z</time>
      </trkpt>
      <trkpt lat="44.99907" lon="3.68149">
        <ele>940.03</ele>
        <time>2021-07-13T12:52:27Z</time>
      </trkpt>
      <trkpt lat="44.99835" lon="3.6811">
        <ele>936.81</ele>
        <time>2021-07-13T12:52:36Z</time>
      </trkpt>
      <trkpt lat="44.99775" lon="3.68096">
        <ele>933.38</ele>
        <time>2021-07-13T12:52:42Z</time>
      </trkpt>
      <trkpt lat="44.9971" lon="3.68092">
        <ele>929.76</ele>
        <time>2021-07-13T12:52:48Z</time>
      </trkpt>
      <trkpt lat="44.99651" lon="3.68089">
        <ele>926.61</ele>
        <time>2021-07-13T12:52:53Z</time>
      </trkpt>
      <trkpt lat="44.99602" lon="3.68087">
        <ele>923.25</ele>
        <time>2021-07-13T12:52:57Z</time>
      </trkpt>
      <trkpt lat="44.99552" lon="3.68082">
        <ele>919.13</ele>
        <time>2021-07-13T12:53:01Z</time>
      </trkpt>
      <trkpt lat="44.99539" lon="3.68079">
        <ele>919.13</ele>
        <time>2021-07-13T12:53:02Z</time>
      </trkpt>
      <trkpt lat="44.99501" lon="3.68068">
        <ele>915.98</ele>
        <time>2021-07-13T12:53:05Z</time>
      </trkpt>
      <trkpt lat="44.9945" lon="3.68053">
        <ele>912.65</ele>
        <time>2021-07-13T12:53:09Z</time>
      </trkpt>
      <trkpt lat="44.99398" lon="3.68039">
        <ele>909.03</ele>
        <time>2021-07-13T12:53:13Z</time>
      </trkpt>
      <trkpt lat="44.99385" lon="3.68038">
        <ele>908.08</ele>
        <time>2021-07-13T12:53:14Z</time>
      </trkpt>
      <trkpt lat="44.99372" lon="3.68039">
        <ele>907.21</ele>
        <time>2021-07-13T12:53:15Z</time>
      </trkpt>
      <trkpt lat="44.9936" lon="3.68043">
        <ele>906.4</ele>
        <time>2021-07-13T12:53:16Z</time>
      </trkpt>
      <trkpt lat="44.99348" lon="3.68048">
        <ele>905.61</ele>
        <time>2021-07-13T12:53:17Z</time>
      </trkpt>
      <trkpt lat="44.99336" lon="3.68056">
        <ele>904.79</ele>
        <time>2021-07-13T12:53:18Z</time>
      </trkpt>
      <trkpt lat="44.99326" lon="3.68066">
        <ele>903.89</ele>
        <time>2021-07-13T12:53:19Z</time>
      </trkpt>
      <trkpt lat="44.99316" lon="3.68076">
        <ele>902.89</ele>
        <time>2021-07-13T12:53:20Z</time>
      </trkpt>
      <trkpt lat="44.99307" lon="3.68088">
        <ele>901.91</ele>
        <time>2021-07-13T12:53:21Z</time>
      </trkpt>
      <trkpt lat="44.99267" lon="3.68141">
        <ele>898.68</ele>
        <time>2021-07-13T12:53:26Z</time>
      </trkpt>
      <trkpt lat="44.99236" lon="3.68177">
        <ele>896.65</ele>
        <time>2021-07-13T12:53:30Z</time>
      </trkpt>
      <trkpt lat="44.99228" lon="3.68182">
        <ele>896.43</ele>
        <time>2021-07-13T12:53:31Z</time>
      </trkpt>
      <trkpt lat="44.99219" lon="3.68186">
        <ele>896.33</ele>
        <time>2021-07-13T12:53:32Z</time>
      </trkpt>
      <trkpt lat="44.9921" lon="3.68189">
        <ele>896.29</ele>
        <time>2021-07-13T12:53:33Z</time>
      </trkpt>
      <trkpt lat="44.99202" lon="3.6819">
        <ele>896.3</ele>
        <time>2021-07-13T12:53:34Z</time>
      </trkpt>
      <trkpt lat="44.99193" lon="3.6819">
        <ele>896.34</ele>
        <time>2021-07-13T12:53:35Z</time>
      </trkpt>
      <trkpt lat="44.99184" lon="3.68189">
        <ele>896.37</ele>
        <time>2021-07-13T12:53:36Z</time>
      </trkpt>
      <trkpt lat="44.99175" lon="3.68186">
        <ele>896.35</ele>
        <time>2021-07-13T12:53:37Z</time>
      </trkpt>
      <trkpt lat="44.99167" lon="3.68181">
        <ele>896.28</ele>
        <time>2021-07-13T12:53:38Z</time>
      </trkpt>
      <trkpt lat="44.99158" lon="3.68177">
        <ele>896.12</ele>
        <time>2021-07-13T12:53:39Z</time>
      </trkpt>
      <trkpt lat="44.99072" lon="3.68129">
        <ele>892.86</ele>
        <time>2021-07-13T12:53:49Z</time>
      </trkpt>
      <trkpt lat="44.99064" lon="3.68122">
        <ele>892.59</ele>
        <time>2021-07-13T12:53:50Z</time>
      </trkpt>
      <trkpt lat="44.99013" lon="3.68058">
        <ele>889.43</ele>
        <time>2021-07-13T12:53:58Z</time>
      </trkpt>
      <trkpt lat="44.98989" lon="3.68026">
        <ele>886.58</ele>
        <time>2021-07-13T12:54:07Z</time>
      </trkpt>
      <trkpt lat="44.98989" lon="3.68024">
        <ele>884.93</ele>
        <time>2021-07-13T12:54:25Z</time>
      </trkpt>
      <trkpt lat="44.98988" lon="3.68021">
        <ele>885.73</ele>
        <time>2021-07-13T12:54:48Z</time>
      </trkpt>
      <trkpt lat="44.98972" lon="3.68001">
        <ele>884.96</ele>
        <time>2021-07-13T12:54:59Z</time>
      </trkpt>
      <trkpt lat="44.98965" lon="3.67994">
        <ele>884.82</ele>
        <time>2021-07-13T12:55:01Z</time>
      </trkpt>
      <trkpt lat="44.98949" lon="3.67979">
        <ele>883.05</ele>
        <time>2021-07-13T12:55:11Z</time>
      </trkpt>
      <trkpt lat="44.98947" lon="3.67979">
        <ele>882.21</ele>
        <time>2021-07-13T12:55:34Z</time>
      </trkpt>
      <trkpt lat="44.98948" lon="3.6798">
        <ele>883.56</ele>
        <time>2021-07-13T12:56:10Z</time>
      </trkpt>
      <trkpt lat="44.98948" lon="3.67979">
        <ele>882.39</ele>
        <time>2021-07-13T12:56:39Z</time>
      </trkpt>
      <trkpt lat="44.98948" lon="3.67979">
        <ele>882.37</ele>
        <time>2021-07-13T12:56:40Z</time>
      </trkpt>
      <trkpt lat="44.98947" lon="3.67979">
        <ele>882.48</ele>
        <time>2021-07-13T12:57:03Z</time>
      </trkpt>
      <trkpt lat="44.98947" lon="3.67979">
        <ele>882.5</ele>
        <time>2021-07-13T12:57:04Z</time>
      </trkpt>
      <trkpt lat="44.98946" lon="3.67977">
        <ele>883.06</ele>
        <time>2021-07-13T12:57:19Z</time>
      </trkpt>
      <trkpt lat="44.98945" lon="3.67975">
        <ele>883.1</ele>
        <time>2021-07-13T12:57:20Z</time>
      </trkpt>
      <trkpt lat="44.98945" lon="3.67973">
        <ele>883.06</ele>
        <time>2021-07-13T12:57:21Z</time>
      </trkpt>
      <trkpt lat="44.98944" lon="3.67971">
        <ele>882.91</ele>
        <time>2021-07-13T12:57:22Z</time>
      </trkpt>
      <trkpt lat="44.98943" lon="3.67969">
        <ele>882.73</ele>
        <time>2021-07-13T12:57:23Z</time>
      </trkpt>
      <trkpt lat="44.98938" lon="3.67955">
        <ele>881.65</ele>
        <time>2021-07-13T12:57:36Z</time>
      </trkpt>
      <trkpt lat="44.98941" lon="3.67951">
        <ele>881.72</ele>
        <time>2021-07-13T12:57:48Z</time>
      </trkpt>
      <trkpt lat="44.98942" lon="3.67949">
        <ele>881.79</ele>
        <time>2021-07-13T12:57:49Z</time>
      </trkpt>
      <trkpt lat="44.98942" lon="3.67947">
        <ele>881.85</ele>
        <time>2021-07-13T12:57:50Z</time>
      </trkpt>
      <trkpt lat="44.98944" lon="3.67944">
        <ele>881.86</ele>
        <time>2021-07-13T12:57:51Z</time>
      </trkpt>
      <trkpt lat="44.98944" lon="3.6794">
        <ele>881.84</ele>
        <time>2021-07-13T12:57:52Z</time>
      </trkpt>
      <trkpt lat="44.98945" lon="3.67937">
        <ele>881.82</ele>
        <time>2021-07-13T12:57:53Z</time>
      </trkpt>
      <trkpt lat="44.98947" lon="3.67933">
        <ele>881.78</ele>
        <time>2021-07-13T12:57:54Z</time>
      </trkpt>
      <trkpt lat="44.98948" lon="3.6793">
        <ele>881.69</ele>
        <time>2021-07-13T12:57:55Z</time>
      </trkpt>
      <trkpt lat="44.9897" lon="3.67905">
        <ele>879.24</ele>
        <time>2021-07-13T12:58:07Z</time>
      </trkpt>
      <trkpt lat="44.98995" lon="3.67874">
        <ele>876.34</ele>
        <time>2021-07-13T12:58:18Z</time>
      </trkpt>
      <trkpt lat="44.99005" lon="3.67844">
        <ele>875.76</ele>
        <time>2021-07-13T12:58:28Z</time>
      </trkpt>
      <trkpt lat="44.99004" lon="3.67841">
        <ele>875.74</ele>
        <time>2021-07-13T12:58:29Z</time>
      </trkpt>
      <trkpt lat="44.99002" lon="3.6784">
        <ele>875.7</ele>
        <time>2021-07-13T12:58:30Z</time>
      </trkpt>
      <trkpt lat="44.99" lon="3.67839">
        <ele>875.65</ele>
        <time>2021-07-13T12:58:31Z</time>
      </trkpt>
      <trkpt lat="44.98999" lon="3.67838">
        <ele>875.17</ele>
        <time>2021-07-13T12:58:46Z</time>
      </trkpt>
      <trkpt lat="44.99001" lon="3.6783">
        <ele>875.37</ele>
        <time>2021-07-13T12:59:04Z</time>
      </trkpt>
      <trkpt lat="44.99001" lon="3.67815">
        <ele>875.92</ele>
        <time>2021-07-13T12:59:23Z</time>
      </trkpt>
      <trkpt lat="44.99001" lon="3.67814">
        <ele>876.74</ele>
        <time>2021-07-13T12:59:42Z</time>
      </trkpt>
      <trkpt lat="44.99001" lon="3.67813">
        <ele>876.1</ele>
        <time>2021-07-13T13:00:07Z</time>
      </trkpt>
      <trkpt lat="44.99004" lon="3.67812">
        <ele>876.31</ele>
        <time>2021-07-13T13:00:33Z</time>
      </trkpt>
      <trkpt lat="44.99007" lon="3.67812">
        <ele>875.47</ele>
        <time>2021-07-13T13:01:07Z</time>
      </trkpt>
      <trkpt lat="44.99009" lon="3.67813">
        <ele>875.91</ele>
        <time>2021-07-13T13:01:38Z</time>
      </trkpt>
      <trkpt lat="44.99008" lon="3.67813">
        <ele>875.6</ele>
        <time>2021-07-13T13:02:11Z</time>
      </trkpt>
      <trkpt lat="44.99003" lon="3.67813">
        <ele>875.99</ele>
        <time>2021-07-13T13:02:49Z</time>
      </trkpt>
      <trkpt lat="44.9901" lon="3.67811">
        <ele>876.06</ele>
        <time>2021-07-13T13:03:20Z</time>
      </trkpt>
      <trkpt lat="44.99017" lon="3.67808">
        <ele>875.76</ele>
        <time>2021-07-13T13:03:54Z</time>
      </trkpt>
      <trkpt lat="44.99015" lon="3.67809">
        <ele>875.87</ele>
        <time>2021-07-13T13:04:25Z</time>
      </trkpt>
      <trkpt lat="44.99009" lon="3.67814">
        <ele>875.71</ele>
        <time>2021-07-13T13:04:54Z</time>
      </trkpt>
      <trkpt lat="44.99008" lon="3.67814">
        <ele>876.74</ele>
        <time>2021-07-13T13:05:24Z</time>
      </trkpt>
      <trkpt lat="44.99011" lon="3.67813">
        <ele>875.7</ele>
        <time>2021-07-13T13:06:01Z</time>
      </trkpt>
      <trkpt lat="44.99017" lon="3.67813">
        <ele>875.47</ele>
        <time>2021-07-13T13:06:31Z</time>
      </trkpt>
      <trkpt lat="44.99015" lon="3.67814">
        <ele>875.34</ele>
        <time>2021-07-13T13:07:08Z</time>
      </trkpt>
      <trkpt lat="44.99014" lon="3.67814">
        <ele>875.37</ele>
        <time>2021-07-13T13:07:10Z</time>
      </trkpt>
    </trkseg>
  </trk>
</gpx>